<?xml version="1.0" encoding="UTF-8" standalone="no" ?>
<gpx xmlns="http://www.topografix.com/GPX/1/1" xmlns:xsi="http://www.w3.org/2001/XMLSchema-instance" xsi:schemaLocation="http://www.topografix.com/GPX/1/1 http://www.topografix.com/GPX/1/1/gpx.xsd" version="1.1" creator="VisuGPX - https://www.visugpx.com">
  <metadata>
    <name>La Tête de Bostan (74 Chablais)</name>
    <desc><![CDATA[Départ de l'Erigné-devant.
Photos et commentaires sur : [url]www.photosrandos.fr[/url]]]></desc>
  </metadata>
  <trk>
    <name><![CDATA[La Tête de Bostan (74 Chablais)_1]]></name>
    <trkseg>
      <trkpt lat="46.14972" lon="6.75651">
        <ele>1200.8</ele>
        <time>2012-03-14T08:45:35Z</time>
      </trkpt>
      <trkpt lat="46.14969" lon="6.75663">
        <ele>1203.5</ele>
        <time>2012-03-14T08:45:52Z</time>
      </trkpt>
      <trkpt lat="46.14965" lon="6.75674">
        <ele>1205</ele>
        <time>2012-03-14T08:46:01Z</time>
      </trkpt>
      <trkpt lat="46.14958" lon="6.75685">
        <ele>1205.4</ele>
        <time>2012-03-14T08:46:08Z</time>
      </trkpt>
      <trkpt lat="46.14953" lon="6.75695">
        <ele>1204</ele>
        <time>2012-03-14T08:46:18Z</time>
      </trkpt>
      <trkpt lat="46.14955" lon="6.75697">
        <ele>1215.4</ele>
        <time>2012-03-14T08:46:27Z</time>
      </trkpt>
      <trkpt lat="46.14955" lon="6.7571">
        <ele>1214.1</ele>
        <time>2012-03-14T08:46:37Z</time>
      </trkpt>
      <trkpt lat="46.14951" lon="6.75724">
        <ele>1213.5</ele>
        <time>2012-03-14T08:46:46Z</time>
      </trkpt>
      <trkpt lat="46.14951" lon="6.75738">
        <ele>1215.3</ele>
        <time>2012-03-14T08:46:58Z</time>
      </trkpt>
      <trkpt lat="46.14951" lon="6.75751">
        <ele>1218.3</ele>
        <time>2012-03-14T08:47:09Z</time>
      </trkpt>
      <trkpt lat="46.14951" lon="6.75764">
        <ele>1220.7</ele>
        <time>2012-03-14T08:47:19Z</time>
      </trkpt>
      <trkpt lat="46.14954" lon="6.75777">
        <ele>1218.5</ele>
        <time>2012-03-14T08:47:26Z</time>
      </trkpt>
      <trkpt lat="46.14954" lon="6.7579">
        <ele>1216.7</ele>
        <time>2012-03-14T08:47:34Z</time>
      </trkpt>
      <trkpt lat="46.14954" lon="6.75802">
        <ele>1219.8</ele>
        <time>2012-03-14T08:47:46Z</time>
      </trkpt>
      <trkpt lat="46.14956" lon="6.75816">
        <ele>1221.8</ele>
        <time>2012-03-14T08:47:59Z</time>
      </trkpt>
      <trkpt lat="46.14956" lon="6.75829">
        <ele>1222</ele>
        <time>2012-03-14T08:48:11Z</time>
      </trkpt>
      <trkpt lat="46.14955" lon="6.75843">
        <ele>1220.4</ele>
        <time>2012-03-14T08:48:18Z</time>
      </trkpt>
      <trkpt lat="46.14949" lon="6.75853">
        <ele>1218.9</ele>
        <time>2012-03-14T08:48:29Z</time>
      </trkpt>
      <trkpt lat="46.14944" lon="6.75865">
        <ele>1220.4</ele>
        <time>2012-03-14T08:48:39Z</time>
      </trkpt>
      <trkpt lat="46.14939" lon="6.75877">
        <ele>1221.9</ele>
        <time>2012-03-14T08:48:49Z</time>
      </trkpt>
      <trkpt lat="46.14935" lon="6.7589">
        <ele>1223</ele>
        <time>2012-03-14T08:48:59Z</time>
      </trkpt>
      <trkpt lat="46.14933" lon="6.75903">
        <ele>1223.4</ele>
        <time>2012-03-14T08:49:09Z</time>
      </trkpt>
      <trkpt lat="46.14929" lon="6.75914">
        <ele>1225.2</ele>
        <time>2012-03-14T08:49:20Z</time>
      </trkpt>
      <trkpt lat="46.14921" lon="6.7592">
        <ele>1223.6</ele>
        <time>2012-03-14T08:49:29Z</time>
      </trkpt>
      <trkpt lat="46.14912" lon="6.75925">
        <ele>1223</ele>
        <time>2012-03-14T08:49:39Z</time>
      </trkpt>
      <trkpt lat="46.14903" lon="6.75925">
        <ele>1224.6</ele>
        <time>2012-03-14T08:49:50Z</time>
      </trkpt>
      <trkpt lat="46.14896" lon="6.75924">
        <ele>1231.3</ele>
        <time>2012-03-14T08:50:03Z</time>
      </trkpt>
      <trkpt lat="46.14889" lon="6.75918">
        <ele>1234.1</ele>
        <time>2012-03-14T08:50:12Z</time>
      </trkpt>
      <trkpt lat="46.1488" lon="6.75914">
        <ele>1235</ele>
        <time>2012-03-14T08:50:21Z</time>
      </trkpt>
      <trkpt lat="46.14871" lon="6.75912">
        <ele>1232.6</ele>
        <time>2012-03-14T08:50:32Z</time>
      </trkpt>
      <trkpt lat="46.14861" lon="6.75915">
        <ele>1232.8</ele>
        <time>2012-03-14T08:50:44Z</time>
      </trkpt>
      <trkpt lat="46.14853" lon="6.75921">
        <ele>1233.6</ele>
        <time>2012-03-14T08:50:57Z</time>
      </trkpt>
      <trkpt lat="46.14844" lon="6.75927">
        <ele>1234.4</ele>
        <time>2012-03-14T08:51:11Z</time>
      </trkpt>
      <trkpt lat="46.14835" lon="6.75931">
        <ele>1232.9</ele>
        <time>2012-03-14T08:51:31Z</time>
      </trkpt>
      <trkpt lat="46.14826" lon="6.75931">
        <ele>1233.3</ele>
        <time>2012-03-14T08:51:42Z</time>
      </trkpt>
      <trkpt lat="46.14817" lon="6.75925">
        <ele>1233.5</ele>
        <time>2012-03-14T08:51:53Z</time>
      </trkpt>
      <trkpt lat="46.14808" lon="6.75922">
        <ele>1234.2</ele>
        <time>2012-03-14T08:52:06Z</time>
      </trkpt>
      <trkpt lat="46.148" lon="6.75918">
        <ele>1237.1</ele>
        <time>2012-03-14T08:52:21Z</time>
      </trkpt>
      <trkpt lat="46.14792" lon="6.75913">
        <ele>1241.2</ele>
        <time>2012-03-14T08:52:35Z</time>
      </trkpt>
      <trkpt lat="46.14783" lon="6.75912">
        <ele>1243.1</ele>
        <time>2012-03-14T08:52:49Z</time>
      </trkpt>
      <trkpt lat="46.14776" lon="6.75919">
        <ele>1246.6</ele>
        <time>2012-03-14T08:53:07Z</time>
      </trkpt>
      <trkpt lat="46.1477" lon="6.75928">
        <ele>1249.3</ele>
        <time>2012-03-14T08:53:22Z</time>
      </trkpt>
      <trkpt lat="46.14764" lon="6.75938">
        <ele>1250.8</ele>
        <time>2012-03-14T08:53:37Z</time>
      </trkpt>
      <trkpt lat="46.14756" lon="6.75947">
        <ele>1251.8</ele>
        <time>2012-03-14T08:53:50Z</time>
      </trkpt>
      <trkpt lat="46.14749" lon="6.75956">
        <ele>1255.7</ele>
        <time>2012-03-14T08:54:03Z</time>
      </trkpt>
      <trkpt lat="46.14742" lon="6.75965">
        <ele>1256.1</ele>
        <time>2012-03-14T08:54:15Z</time>
      </trkpt>
      <trkpt lat="46.14737" lon="6.75977">
        <ele>1256.9</ele>
        <time>2012-03-14T08:54:29Z</time>
      </trkpt>
      <trkpt lat="46.14732" lon="6.75989">
        <ele>1256.6</ele>
        <time>2012-03-14T08:54:41Z</time>
      </trkpt>
      <trkpt lat="46.14726" lon="6.75999">
        <ele>1256.4</ele>
        <time>2012-03-14T08:54:53Z</time>
      </trkpt>
      <trkpt lat="46.14721" lon="6.7601">
        <ele>1256.8</ele>
        <time>2012-03-14T08:55:04Z</time>
      </trkpt>
      <trkpt lat="46.14714" lon="6.7602">
        <ele>1258.6</ele>
        <time>2012-03-14T08:55:16Z</time>
      </trkpt>
      <trkpt lat="46.14706" lon="6.76026">
        <ele>1259.7</ele>
        <time>2012-03-14T08:55:29Z</time>
      </trkpt>
      <trkpt lat="46.14698" lon="6.76031">
        <ele>1261.4</ele>
        <time>2012-03-14T08:55:42Z</time>
      </trkpt>
      <trkpt lat="46.14689" lon="6.76035">
        <ele>1263.8</ele>
        <time>2012-03-14T08:55:55Z</time>
      </trkpt>
      <trkpt lat="46.1468" lon="6.76036">
        <ele>1266.9</ele>
        <time>2012-03-14T08:56:08Z</time>
      </trkpt>
      <trkpt lat="46.14671" lon="6.76038">
        <ele>1267.5</ele>
        <time>2012-03-14T08:56:21Z</time>
      </trkpt>
      <trkpt lat="46.14663" lon="6.76034">
        <ele>1268.7</ele>
        <time>2012-03-14T08:56:34Z</time>
      </trkpt>
      <trkpt lat="46.14654" lon="6.7603">
        <ele>1269</ele>
        <time>2012-03-14T08:56:45Z</time>
      </trkpt>
      <trkpt lat="46.14647" lon="6.76021">
        <ele>1271.7</ele>
        <time>2012-03-14T08:56:57Z</time>
      </trkpt>
      <trkpt lat="46.14638" lon="6.76017">
        <ele>1273.9</ele>
        <time>2012-03-14T08:57:07Z</time>
      </trkpt>
      <trkpt lat="46.14629" lon="6.76019">
        <ele>1275.4</ele>
        <time>2012-03-14T08:57:16Z</time>
      </trkpt>
      <trkpt lat="46.14622" lon="6.76028">
        <ele>1271.9</ele>
        <time>2012-03-14T08:57:28Z</time>
      </trkpt>
      <trkpt lat="46.14619" lon="6.7604">
        <ele>1270.3</ele>
        <time>2012-03-14T08:57:39Z</time>
      </trkpt>
      <trkpt lat="46.14613" lon="6.76052">
        <ele>1270.4</ele>
        <time>2012-03-14T08:57:50Z</time>
      </trkpt>
      <trkpt lat="46.14607" lon="6.76063">
        <ele>1270.9</ele>
        <time>2012-03-14T08:57:59Z</time>
      </trkpt>
      <trkpt lat="46.14599" lon="6.76069">
        <ele>1270.6</ele>
        <time>2012-03-14T08:58:08Z</time>
      </trkpt>
      <trkpt lat="46.14592" lon="6.76078">
        <ele>1269.6</ele>
        <time>2012-03-14T08:58:17Z</time>
      </trkpt>
      <trkpt lat="46.14584" lon="6.76084">
        <ele>1270.2</ele>
        <time>2012-03-14T08:58:26Z</time>
      </trkpt>
      <trkpt lat="46.14575" lon="6.76088">
        <ele>1270.8</ele>
        <time>2012-03-14T08:58:35Z</time>
      </trkpt>
      <trkpt lat="46.14567" lon="6.76095">
        <ele>1270.4</ele>
        <time>2012-03-14T08:58:46Z</time>
      </trkpt>
      <trkpt lat="46.14564" lon="6.76107">
        <ele>1269.2</ele>
        <time>2012-03-14T08:58:53Z</time>
      </trkpt>
      <trkpt lat="46.14559" lon="6.7612">
        <ele>1268.7</ele>
        <time>2012-03-14T08:59:03Z</time>
      </trkpt>
      <trkpt lat="46.14554" lon="6.76131">
        <ele>1268.5</ele>
        <time>2012-03-14T08:59:12Z</time>
      </trkpt>
      <trkpt lat="46.14549" lon="6.76143">
        <ele>1269.2</ele>
        <time>2012-03-14T08:59:21Z</time>
      </trkpt>
      <trkpt lat="46.14546" lon="6.76157">
        <ele>1270.1</ele>
        <time>2012-03-14T08:59:30Z</time>
      </trkpt>
      <trkpt lat="46.14547" lon="6.76169">
        <ele>1275</ele>
        <time>2012-03-14T08:59:44Z</time>
      </trkpt>
      <trkpt lat="46.14543" lon="6.76181">
        <ele>1279.1</ele>
        <time>2012-03-14T08:59:54Z</time>
      </trkpt>
      <trkpt lat="46.14541" lon="6.76193">
        <ele>1284.2</ele>
        <time>2012-03-14T09:00:05Z</time>
      </trkpt>
      <trkpt lat="46.14543" lon="6.76205">
        <ele>1287.8</ele>
        <time>2012-03-14T09:00:13Z</time>
      </trkpt>
      <trkpt lat="46.14542" lon="6.76218">
        <ele>1291.8</ele>
        <time>2012-03-14T09:00:23Z</time>
      </trkpt>
      <trkpt lat="46.14542" lon="6.76231">
        <ele>1294.8</ele>
        <time>2012-03-14T09:00:32Z</time>
      </trkpt>
      <trkpt lat="46.14542" lon="6.76243">
        <ele>1298.2</ele>
        <time>2012-03-14T09:00:41Z</time>
      </trkpt>
      <trkpt lat="46.14546" lon="6.76254">
        <ele>1302.3</ele>
        <time>2012-03-14T09:00:50Z</time>
      </trkpt>
      <trkpt lat="46.14538" lon="6.7627">
        <ele>1306.2</ele>
        <time>2012-03-14T09:01:03Z</time>
      </trkpt>
      <trkpt lat="46.14539" lon="6.76283">
        <ele>1309.3</ele>
        <time>2012-03-14T09:01:12Z</time>
      </trkpt>
      <trkpt lat="46.14544" lon="6.76294">
        <ele>1313.2</ele>
        <time>2012-03-14T09:01:21Z</time>
      </trkpt>
      <trkpt lat="46.14548" lon="6.76304">
        <ele>1318.7</ele>
        <time>2012-03-14T09:01:30Z</time>
      </trkpt>
      <trkpt lat="46.14552" lon="6.76314">
        <ele>1323</ele>
        <time>2012-03-14T09:01:39Z</time>
      </trkpt>
      <trkpt lat="46.14556" lon="6.76323">
        <ele>1328.4</ele>
        <time>2012-03-14T09:01:47Z</time>
      </trkpt>
      <trkpt lat="46.14556" lon="6.76337">
        <ele>1330.9</ele>
        <time>2012-03-14T09:02:00Z</time>
      </trkpt>
      <trkpt lat="46.14548" lon="6.76345">
        <ele>1330.7</ele>
        <time>2012-03-14T09:02:09Z</time>
      </trkpt>
      <trkpt lat="46.14539" lon="6.76345">
        <ele>1329.6</ele>
        <time>2012-03-14T09:02:23Z</time>
      </trkpt>
      <trkpt lat="46.1453" lon="6.76347">
        <ele>1332.1</ele>
        <time>2012-03-14T09:02:31Z</time>
      </trkpt>
      <trkpt lat="46.14523" lon="6.76354">
        <ele>1334.6</ele>
        <time>2012-03-14T09:02:41Z</time>
      </trkpt>
      <trkpt lat="46.14513" lon="6.76358">
        <ele>1334.7</ele>
        <time>2012-03-14T09:02:48Z</time>
      </trkpt>
      <trkpt lat="46.14503" lon="6.76357">
        <ele>1335.6</ele>
        <time>2012-03-14T09:02:56Z</time>
      </trkpt>
      <trkpt lat="46.14493" lon="6.76356">
        <ele>1336.2</ele>
        <time>2012-03-14T09:03:04Z</time>
      </trkpt>
      <trkpt lat="46.14486" lon="6.76365">
        <ele>1336.4</ele>
        <time>2012-03-14T09:03:18Z</time>
      </trkpt>
      <trkpt lat="46.14477" lon="6.76368">
        <ele>1334.3</ele>
        <time>2012-03-14T09:03:26Z</time>
      </trkpt>
      <trkpt lat="46.14471" lon="6.76377">
        <ele>1330.8</ele>
        <time>2012-03-14T09:03:35Z</time>
      </trkpt>
      <trkpt lat="46.14466" lon="6.76389">
        <ele>1326.9</ele>
        <time>2012-03-14T09:03:44Z</time>
      </trkpt>
      <trkpt lat="46.14458" lon="6.76395">
        <ele>1327.5</ele>
        <time>2012-03-14T09:03:54Z</time>
      </trkpt>
      <trkpt lat="46.14455" lon="6.76408">
        <ele>1330.5</ele>
        <time>2012-03-14T09:04:06Z</time>
      </trkpt>
      <trkpt lat="46.14455" lon="6.7642">
        <ele>1334</ele>
        <time>2012-03-14T09:04:17Z</time>
      </trkpt>
      <trkpt lat="46.14455" lon="6.76433">
        <ele>1337.8</ele>
        <time>2012-03-14T09:04:27Z</time>
      </trkpt>
      <trkpt lat="46.14454" lon="6.76446">
        <ele>1341.3</ele>
        <time>2012-03-14T09:04:38Z</time>
      </trkpt>
      <trkpt lat="46.14455" lon="6.76459">
        <ele>1344.3</ele>
        <time>2012-03-14T09:04:50Z</time>
      </trkpt>
      <trkpt lat="46.1445" lon="6.76469">
        <ele>1348.1</ele>
        <time>2012-03-14T09:05:02Z</time>
      </trkpt>
      <trkpt lat="46.14445" lon="6.7648">
        <ele>1348.3</ele>
        <time>2012-03-14T09:05:13Z</time>
      </trkpt>
      <trkpt lat="46.14441" lon="6.76492">
        <ele>1350.6</ele>
        <time>2012-03-14T09:05:24Z</time>
      </trkpt>
      <trkpt lat="46.14436" lon="6.76504">
        <ele>1351.8</ele>
        <time>2012-03-14T09:05:38Z</time>
      </trkpt>
      <trkpt lat="46.14429" lon="6.7651">
        <ele>1348</ele>
        <time>2012-03-14T09:05:49Z</time>
      </trkpt>
      <trkpt lat="46.14423" lon="6.76521">
        <ele>1351.2</ele>
        <time>2012-03-14T09:06:02Z</time>
      </trkpt>
      <trkpt lat="46.14423" lon="6.76534">
        <ele>1350.3</ele>
        <time>2012-03-14T09:06:11Z</time>
      </trkpt>
      <trkpt lat="46.14418" lon="6.76545">
        <ele>1351.6</ele>
        <time>2012-03-14T09:06:22Z</time>
      </trkpt>
      <trkpt lat="46.14414" lon="6.76558">
        <ele>1352.2</ele>
        <time>2012-03-14T09:06:33Z</time>
      </trkpt>
      <trkpt lat="46.1441" lon="6.76571">
        <ele>1349.5</ele>
        <time>2012-03-14T09:06:41Z</time>
      </trkpt>
      <trkpt lat="46.14406" lon="6.76583">
        <ele>1349.9</ele>
        <time>2012-03-14T09:06:53Z</time>
      </trkpt>
      <trkpt lat="46.14402" lon="6.76595">
        <ele>1348.4</ele>
        <time>2012-03-14T09:07:04Z</time>
      </trkpt>
      <trkpt lat="46.14397" lon="6.76607">
        <ele>1346.3</ele>
        <time>2012-03-14T09:07:13Z</time>
      </trkpt>
      <trkpt lat="46.14393" lon="6.76619">
        <ele>1344.9</ele>
        <time>2012-03-14T09:07:23Z</time>
      </trkpt>
      <trkpt lat="46.14388" lon="6.76631">
        <ele>1343.7</ele>
        <time>2012-03-14T09:07:33Z</time>
      </trkpt>
      <trkpt lat="46.14386" lon="6.76644">
        <ele>1342.3</ele>
        <time>2012-03-14T09:07:42Z</time>
      </trkpt>
      <trkpt lat="46.14385" lon="6.76657">
        <ele>1340.2</ele>
        <time>2012-03-14T09:07:50Z</time>
      </trkpt>
      <trkpt lat="46.14384" lon="6.7667">
        <ele>1338.6</ele>
        <time>2012-03-14T09:07:58Z</time>
      </trkpt>
      <trkpt lat="46.14382" lon="6.76684">
        <ele>1338.3</ele>
        <time>2012-03-14T09:08:08Z</time>
      </trkpt>
      <trkpt lat="46.14381" lon="6.76697">
        <ele>1339.2</ele>
        <time>2012-03-14T09:08:17Z</time>
      </trkpt>
      <trkpt lat="46.14376" lon="6.76708">
        <ele>1341.9</ele>
        <time>2012-03-14T09:08:27Z</time>
      </trkpt>
      <trkpt lat="46.14368" lon="6.76716">
        <ele>1344.2</ele>
        <time>2012-03-14T09:08:37Z</time>
      </trkpt>
      <trkpt lat="46.14359" lon="6.76721">
        <ele>1345.6</ele>
        <time>2012-03-14T09:08:47Z</time>
      </trkpt>
      <trkpt lat="46.14351" lon="6.76729">
        <ele>1343.7</ele>
        <time>2012-03-14T09:08:53Z</time>
      </trkpt>
      <trkpt lat="46.14344" lon="6.76739">
        <ele>1342.1</ele>
        <time>2012-03-14T09:08:59Z</time>
      </trkpt>
      <trkpt lat="46.14337" lon="6.76749">
        <ele>1340.6</ele>
        <time>2012-03-14T09:09:07Z</time>
      </trkpt>
      <trkpt lat="46.14329" lon="6.76757">
        <ele>1337.9</ele>
        <time>2012-03-14T09:09:17Z</time>
      </trkpt>
      <trkpt lat="46.14322" lon="6.76752">
        <ele>1333.4</ele>
        <time>2012-03-14T09:09:29Z</time>
      </trkpt>
      <trkpt lat="46.14313" lon="6.76753">
        <ele>1329.9</ele>
        <time>2012-03-14T09:09:54Z</time>
      </trkpt>
      <trkpt lat="46.14304" lon="6.76751">
        <ele>1328.4</ele>
        <time>2012-03-14T09:10:06Z</time>
      </trkpt>
      <trkpt lat="46.143" lon="6.76763">
        <ele>1327.7</ele>
        <time>2012-03-14T09:10:22Z</time>
      </trkpt>
      <trkpt lat="46.1429" lon="6.76744">
        <ele>1322.7</ele>
        <time>2012-03-14T09:11:06Z</time>
      </trkpt>
      <trkpt lat="46.14295" lon="6.76754">
        <ele>1327.2</ele>
        <time>2012-03-14T09:11:54Z</time>
      </trkpt>
      <trkpt lat="46.14302" lon="6.76759">
        <ele>1331.4</ele>
        <time>2012-03-14T09:13:23Z</time>
      </trkpt>
      <trkpt lat="46.14294" lon="6.76753">
        <ele>1330.2</ele>
        <time>2012-03-14T09:13:30Z</time>
      </trkpt>
      <trkpt lat="46.14301" lon="6.76744">
        <ele>1330.3</ele>
        <time>2012-03-14T09:14:31Z</time>
      </trkpt>
      <trkpt lat="46.14309" lon="6.76736">
        <ele>1332.8</ele>
        <time>2012-03-14T09:14:40Z</time>
      </trkpt>
      <trkpt lat="46.14317" lon="6.76744">
        <ele>1332.9</ele>
        <time>2012-03-14T09:14:48Z</time>
      </trkpt>
      <trkpt lat="46.14327" lon="6.76745">
        <ele>1332.8</ele>
        <time>2012-03-14T09:14:55Z</time>
      </trkpt>
      <trkpt lat="46.14335" lon="6.76742">
        <ele>1330.3</ele>
        <time>2012-03-14T09:15:03Z</time>
      </trkpt>
      <trkpt lat="46.14343" lon="6.76737">
        <ele>1325.4</ele>
        <time>2012-03-14T09:15:12Z</time>
      </trkpt>
      <trkpt lat="46.1435" lon="6.76728">
        <ele>1322.6</ele>
        <time>2012-03-14T09:15:23Z</time>
      </trkpt>
      <trkpt lat="46.14354" lon="6.76717">
        <ele>1319.8</ele>
        <time>2012-03-14T09:15:36Z</time>
      </trkpt>
      <trkpt lat="46.14356" lon="6.76704">
        <ele>1317.8</ele>
        <time>2012-03-14T09:15:47Z</time>
      </trkpt>
      <trkpt lat="46.14359" lon="6.76691">
        <ele>1320.2</ele>
        <time>2012-03-14T09:15:58Z</time>
      </trkpt>
      <trkpt lat="46.14362" lon="6.76678">
        <ele>1322.7</ele>
        <time>2012-03-14T09:16:09Z</time>
      </trkpt>
      <trkpt lat="46.14366" lon="6.76666">
        <ele>1322.4</ele>
        <time>2012-03-14T09:16:19Z</time>
      </trkpt>
      <trkpt lat="46.1437" lon="6.76655">
        <ele>1324.7</ele>
        <time>2012-03-14T09:16:30Z</time>
      </trkpt>
      <trkpt lat="46.14369" lon="6.76642">
        <ele>1327.2</ele>
        <time>2012-03-14T09:16:42Z</time>
      </trkpt>
      <trkpt lat="46.14371" lon="6.76629">
        <ele>1329.3</ele>
        <time>2012-03-14T09:16:54Z</time>
      </trkpt>
      <trkpt lat="46.14368" lon="6.76617">
        <ele>1332.9</ele>
        <time>2012-03-14T09:17:05Z</time>
      </trkpt>
      <trkpt lat="46.14363" lon="6.76606">
        <ele>1336.8</ele>
        <time>2012-03-14T09:17:22Z</time>
      </trkpt>
      <trkpt lat="46.14355" lon="6.76602">
        <ele>1340.3</ele>
        <time>2012-03-14T09:17:41Z</time>
      </trkpt>
      <trkpt lat="46.14346" lon="6.76606">
        <ele>1342.8</ele>
        <time>2012-03-14T09:17:59Z</time>
      </trkpt>
      <trkpt lat="46.1434" lon="6.76614">
        <ele>1345.4</ele>
        <time>2012-03-14T09:18:11Z</time>
      </trkpt>
      <trkpt lat="46.14333" lon="6.76622">
        <ele>1347.6</ele>
        <time>2012-03-14T09:18:24Z</time>
      </trkpt>
      <trkpt lat="46.14325" lon="6.76629">
        <ele>1348.8</ele>
        <time>2012-03-14T09:18:37Z</time>
      </trkpt>
      <trkpt lat="46.14316" lon="6.7663">
        <ele>1349.6</ele>
        <time>2012-03-14T09:18:53Z</time>
      </trkpt>
      <trkpt lat="46.14308" lon="6.76637">
        <ele>1352</ele>
        <time>2012-03-14T09:19:12Z</time>
      </trkpt>
      <trkpt lat="46.14299" lon="6.76642">
        <ele>1354.7</ele>
        <time>2012-03-14T09:19:26Z</time>
      </trkpt>
      <trkpt lat="46.14291" lon="6.76644">
        <ele>1357.3</ele>
        <time>2012-03-14T09:19:40Z</time>
      </trkpt>
      <trkpt lat="46.14282" lon="6.76646">
        <ele>1359.2</ele>
        <time>2012-03-14T09:19:53Z</time>
      </trkpt>
      <trkpt lat="46.14273" lon="6.76642">
        <ele>1360.7</ele>
        <time>2012-03-14T09:20:07Z</time>
      </trkpt>
      <trkpt lat="46.14266" lon="6.76634">
        <ele>1362.6</ele>
        <time>2012-03-14T09:20:26Z</time>
      </trkpt>
      <trkpt lat="46.14263" lon="6.76621">
        <ele>1364.4</ele>
        <time>2012-03-14T09:20:37Z</time>
      </trkpt>
      <trkpt lat="46.14263" lon="6.76608">
        <ele>1366.7</ele>
        <time>2012-03-14T09:20:48Z</time>
      </trkpt>
      <trkpt lat="46.14264" lon="6.76595">
        <ele>1368.6</ele>
        <time>2012-03-14T09:21:00Z</time>
      </trkpt>
      <trkpt lat="46.14264" lon="6.76581">
        <ele>1368.5</ele>
        <time>2012-03-14T09:21:11Z</time>
      </trkpt>
      <trkpt lat="46.14261" lon="6.76569">
        <ele>1369.8</ele>
        <time>2012-03-14T09:21:24Z</time>
      </trkpt>
      <trkpt lat="46.14261" lon="6.76555">
        <ele>1371.5</ele>
        <time>2012-03-14T09:21:36Z</time>
      </trkpt>
      <trkpt lat="46.14265" lon="6.76543">
        <ele>1369.9</ele>
        <time>2012-03-14T09:21:50Z</time>
      </trkpt>
      <trkpt lat="46.14264" lon="6.76529">
        <ele>1369</ele>
        <time>2012-03-14T09:22:07Z</time>
      </trkpt>
      <trkpt lat="46.14265" lon="6.76515">
        <ele>1369.4</ele>
        <time>2012-03-14T09:22:23Z</time>
      </trkpt>
      <trkpt lat="46.14264" lon="6.76502">
        <ele>1371.5</ele>
        <time>2012-03-14T09:22:34Z</time>
      </trkpt>
      <trkpt lat="46.14259" lon="6.7649">
        <ele>1372.1</ele>
        <time>2012-03-14T09:22:49Z</time>
      </trkpt>
      <trkpt lat="46.14253" lon="6.76481">
        <ele>1371.4</ele>
        <time>2012-03-14T09:23:01Z</time>
      </trkpt>
      <trkpt lat="46.14247" lon="6.76471">
        <ele>1371</ele>
        <time>2012-03-14T09:23:21Z</time>
      </trkpt>
      <trkpt lat="46.14242" lon="6.76461">
        <ele>1369</ele>
        <time>2012-03-14T09:23:33Z</time>
      </trkpt>
      <trkpt lat="46.14233" lon="6.7646">
        <ele>1366.4</ele>
        <time>2012-03-14T09:23:48Z</time>
      </trkpt>
      <trkpt lat="46.14223" lon="6.76459">
        <ele>1368</ele>
        <time>2012-03-14T09:24:04Z</time>
      </trkpt>
      <trkpt lat="46.14219" lon="6.76471">
        <ele>1369.2</ele>
        <time>2012-03-14T09:24:17Z</time>
      </trkpt>
      <trkpt lat="46.14211" lon="6.76479">
        <ele>1371.9</ele>
        <time>2012-03-14T09:24:30Z</time>
      </trkpt>
      <trkpt lat="46.14207" lon="6.7649">
        <ele>1374.4</ele>
        <time>2012-03-14T09:24:47Z</time>
      </trkpt>
      <trkpt lat="46.14203" lon="6.765">
        <ele>1378.6</ele>
        <time>2012-03-14T09:25:00Z</time>
      </trkpt>
      <trkpt lat="46.14198" lon="6.76511">
        <ele>1377.7</ele>
        <time>2012-03-14T09:25:14Z</time>
      </trkpt>
      <trkpt lat="46.1419" lon="6.76518">
        <ele>1377.6</ele>
        <time>2012-03-14T09:25:27Z</time>
      </trkpt>
      <trkpt lat="46.14183" lon="6.7651">
        <ele>1383.2</ele>
        <time>2012-03-14T09:25:34Z</time>
      </trkpt>
      <trkpt lat="46.14178" lon="6.76498">
        <ele>1384.8</ele>
        <time>2012-03-14T09:25:44Z</time>
      </trkpt>
      <trkpt lat="46.14174" lon="6.76486">
        <ele>1386</ele>
        <time>2012-03-14T09:25:57Z</time>
      </trkpt>
      <trkpt lat="46.14166" lon="6.76479">
        <ele>1389.7</ele>
        <time>2012-03-14T09:26:07Z</time>
      </trkpt>
      <trkpt lat="46.14158" lon="6.76482">
        <ele>1393.2</ele>
        <time>2012-03-14T09:26:20Z</time>
      </trkpt>
      <trkpt lat="46.14156" lon="6.76496">
        <ele>1395.5</ele>
        <time>2012-03-14T09:26:32Z</time>
      </trkpt>
      <trkpt lat="46.14156" lon="6.76509">
        <ele>1395.6</ele>
        <time>2012-03-14T09:26:42Z</time>
      </trkpt>
      <trkpt lat="46.14153" lon="6.76521">
        <ele>1398.8</ele>
        <time>2012-03-14T09:26:55Z</time>
      </trkpt>
      <trkpt lat="46.14149" lon="6.76532">
        <ele>1400.1</ele>
        <time>2012-03-14T09:27:10Z</time>
      </trkpt>
      <trkpt lat="46.14142" lon="6.76542">
        <ele>1402.3</ele>
        <time>2012-03-14T09:27:25Z</time>
      </trkpt>
      <trkpt lat="46.14134" lon="6.76549">
        <ele>1402.9</ele>
        <time>2012-03-14T09:27:38Z</time>
      </trkpt>
      <trkpt lat="46.14127" lon="6.76543">
        <ele>1406.1</ele>
        <time>2012-03-14T09:27:54Z</time>
      </trkpt>
      <trkpt lat="46.14125" lon="6.7653">
        <ele>1407.6</ele>
        <time>2012-03-14T09:28:06Z</time>
      </trkpt>
      <trkpt lat="46.14125" lon="6.76517">
        <ele>1408.4</ele>
        <time>2012-03-14T09:28:18Z</time>
      </trkpt>
      <trkpt lat="46.14122" lon="6.76504">
        <ele>1406.8</ele>
        <time>2012-03-14T09:28:33Z</time>
      </trkpt>
      <trkpt lat="46.14119" lon="6.76491">
        <ele>1407.4</ele>
        <time>2012-03-14T09:28:45Z</time>
      </trkpt>
      <trkpt lat="46.14116" lon="6.76479">
        <ele>1408.8</ele>
        <time>2012-03-14T09:28:58Z</time>
      </trkpt>
      <trkpt lat="46.1411" lon="6.76468">
        <ele>1410.2</ele>
        <time>2012-03-14T09:29:11Z</time>
      </trkpt>
      <trkpt lat="46.14102" lon="6.76463">
        <ele>1412.5</ele>
        <time>2012-03-14T09:29:26Z</time>
      </trkpt>
      <trkpt lat="46.14096" lon="6.76472">
        <ele>1416.6</ele>
        <time>2012-03-14T09:29:41Z</time>
      </trkpt>
      <trkpt lat="46.14089" lon="6.76479">
        <ele>1414.3</ele>
        <time>2012-03-14T09:32:54Z</time>
      </trkpt>
      <trkpt lat="46.14081" lon="6.76483">
        <ele>1417.1</ele>
        <time>2012-03-14T09:33:32Z</time>
      </trkpt>
      <trkpt lat="46.14072" lon="6.76484">
        <ele>1417.8</ele>
        <time>2012-03-14T09:33:42Z</time>
      </trkpt>
      <trkpt lat="46.14063" lon="6.76483">
        <ele>1418.7</ele>
        <time>2012-03-14T09:33:51Z</time>
      </trkpt>
      <trkpt lat="46.14053" lon="6.76482">
        <ele>1420.2</ele>
        <time>2012-03-14T09:34:01Z</time>
      </trkpt>
      <trkpt lat="46.14044" lon="6.7648">
        <ele>1422.8</ele>
        <time>2012-03-14T09:34:11Z</time>
      </trkpt>
      <trkpt lat="46.14035" lon="6.76478">
        <ele>1424</ele>
        <time>2012-03-14T09:34:21Z</time>
      </trkpt>
      <trkpt lat="46.14025" lon="6.76478">
        <ele>1425.2</ele>
        <time>2012-03-14T09:34:31Z</time>
      </trkpt>
      <trkpt lat="46.14016" lon="6.76476">
        <ele>1426.6</ele>
        <time>2012-03-14T09:34:42Z</time>
      </trkpt>
      <trkpt lat="46.14007" lon="6.76471">
        <ele>1428.5</ele>
        <time>2012-03-14T09:34:54Z</time>
      </trkpt>
      <trkpt lat="46.13998" lon="6.76467">
        <ele>1429.9</ele>
        <time>2012-03-14T09:35:06Z</time>
      </trkpt>
      <trkpt lat="46.13989" lon="6.76463">
        <ele>1433.7</ele>
        <time>2012-03-14T09:35:16Z</time>
      </trkpt>
      <trkpt lat="46.13982" lon="6.76459">
        <ele>1439.3</ele>
        <time>2012-03-14T09:35:28Z</time>
      </trkpt>
      <trkpt lat="46.13973" lon="6.76457">
        <ele>1442.8</ele>
        <time>2012-03-14T09:35:43Z</time>
      </trkpt>
      <trkpt lat="46.13963" lon="6.76459">
        <ele>1445.5</ele>
        <time>2012-03-14T09:35:58Z</time>
      </trkpt>
      <trkpt lat="46.13954" lon="6.76457">
        <ele>1448</ele>
        <time>2012-03-14T09:36:12Z</time>
      </trkpt>
      <trkpt lat="46.13945" lon="6.76456">
        <ele>1448.5</ele>
        <time>2012-03-14T09:36:26Z</time>
      </trkpt>
      <trkpt lat="46.13936" lon="6.76457">
        <ele>1450.2</ele>
        <time>2012-03-14T09:36:39Z</time>
      </trkpt>
      <trkpt lat="46.13927" lon="6.76457">
        <ele>1451</ele>
        <time>2012-03-14T09:36:52Z</time>
      </trkpt>
      <trkpt lat="46.13918" lon="6.76459">
        <ele>1454.2</ele>
        <time>2012-03-14T09:37:08Z</time>
      </trkpt>
      <trkpt lat="46.13909" lon="6.76457">
        <ele>1455.9</ele>
        <time>2012-03-14T09:37:25Z</time>
      </trkpt>
      <trkpt lat="46.13902" lon="6.76465">
        <ele>1457.8</ele>
        <time>2012-03-14T09:40:44Z</time>
      </trkpt>
      <trkpt lat="46.13895" lon="6.76474">
        <ele>1459.3</ele>
        <time>2012-03-14T09:41:02Z</time>
      </trkpt>
      <trkpt lat="46.13887" lon="6.76478">
        <ele>1461</ele>
        <time>2012-03-14T09:41:16Z</time>
      </trkpt>
      <trkpt lat="46.13878" lon="6.76482">
        <ele>1461.8</ele>
        <time>2012-03-14T09:41:34Z</time>
      </trkpt>
      <trkpt lat="46.13869" lon="6.76485">
        <ele>1461.8</ele>
        <time>2012-03-14T09:41:51Z</time>
      </trkpt>
      <trkpt lat="46.1386" lon="6.76487">
        <ele>1461.8</ele>
        <time>2012-03-14T09:42:02Z</time>
      </trkpt>
      <trkpt lat="46.13851" lon="6.76486">
        <ele>1462.6</ele>
        <time>2012-03-14T09:42:14Z</time>
      </trkpt>
      <trkpt lat="46.13842" lon="6.76485">
        <ele>1462.4</ele>
        <time>2012-03-14T09:42:26Z</time>
      </trkpt>
      <trkpt lat="46.13832" lon="6.76485">
        <ele>1463.6</ele>
        <time>2012-03-14T09:42:39Z</time>
      </trkpt>
      <trkpt lat="46.13823" lon="6.76486">
        <ele>1463.9</ele>
        <time>2012-03-14T09:42:51Z</time>
      </trkpt>
      <trkpt lat="46.13813" lon="6.7649">
        <ele>1464.9</ele>
        <time>2012-03-14T09:43:05Z</time>
      </trkpt>
      <trkpt lat="46.13804" lon="6.76494">
        <ele>1466.7</ele>
        <time>2012-03-14T09:43:18Z</time>
      </trkpt>
      <trkpt lat="46.13796" lon="6.765">
        <ele>1468.2</ele>
        <time>2012-03-14T09:43:30Z</time>
      </trkpt>
      <trkpt lat="46.13787" lon="6.76505">
        <ele>1469.6</ele>
        <time>2012-03-14T09:43:42Z</time>
      </trkpt>
      <trkpt lat="46.13778" lon="6.7651">
        <ele>1470</ele>
        <time>2012-03-14T09:43:54Z</time>
      </trkpt>
      <trkpt lat="46.13769" lon="6.7651">
        <ele>1472.4</ele>
        <time>2012-03-14T09:44:07Z</time>
      </trkpt>
      <trkpt lat="46.1376" lon="6.76508">
        <ele>1474.4</ele>
        <time>2012-03-14T09:44:21Z</time>
      </trkpt>
      <trkpt lat="46.13754" lon="6.76499">
        <ele>1477.1</ele>
        <time>2012-03-14T09:44:34Z</time>
      </trkpt>
      <trkpt lat="46.13748" lon="6.76488">
        <ele>1478.2</ele>
        <time>2012-03-14T09:44:47Z</time>
      </trkpt>
      <trkpt lat="46.13742" lon="6.76479">
        <ele>1479.3</ele>
        <time>2012-03-14T09:44:59Z</time>
      </trkpt>
      <trkpt lat="46.13733" lon="6.76474">
        <ele>1480.8</ele>
        <time>2012-03-14T09:45:12Z</time>
      </trkpt>
      <trkpt lat="46.13724" lon="6.76472">
        <ele>1482.4</ele>
        <time>2012-03-14T09:45:27Z</time>
      </trkpt>
      <trkpt lat="46.13715" lon="6.7647">
        <ele>1483.2</ele>
        <time>2012-03-14T09:45:39Z</time>
      </trkpt>
      <trkpt lat="46.13706" lon="6.76464">
        <ele>1484.8</ele>
        <time>2012-03-14T09:46:07Z</time>
      </trkpt>
      <trkpt lat="46.13697" lon="6.76461">
        <ele>1485.6</ele>
        <time>2012-03-14T09:46:40Z</time>
      </trkpt>
      <trkpt lat="46.13688" lon="6.76456">
        <ele>1487</ele>
        <time>2012-03-14T09:46:51Z</time>
      </trkpt>
      <trkpt lat="46.13679" lon="6.76456">
        <ele>1488.4</ele>
        <time>2012-03-14T09:47:05Z</time>
      </trkpt>
      <trkpt lat="46.13672" lon="6.76465">
        <ele>1489.8</ele>
        <time>2012-03-14T09:47:20Z</time>
      </trkpt>
      <trkpt lat="46.1367" lon="6.76478">
        <ele>1491.1</ele>
        <time>2012-03-14T09:47:31Z</time>
      </trkpt>
      <trkpt lat="46.1367" lon="6.76493">
        <ele>1492.4</ele>
        <time>2012-03-14T09:47:41Z</time>
      </trkpt>
      <trkpt lat="46.13669" lon="6.76507">
        <ele>1493.5</ele>
        <time>2012-03-14T09:47:51Z</time>
      </trkpt>
      <trkpt lat="46.13663" lon="6.76517">
        <ele>1495.6</ele>
        <time>2012-03-14T09:48:06Z</time>
      </trkpt>
      <trkpt lat="46.13654" lon="6.76522">
        <ele>1496.7</ele>
        <time>2012-03-14T09:48:20Z</time>
      </trkpt>
      <trkpt lat="46.13645" lon="6.76524">
        <ele>1498.1</ele>
        <time>2012-03-14T09:48:34Z</time>
      </trkpt>
      <trkpt lat="46.13635" lon="6.76528">
        <ele>1498.7</ele>
        <time>2012-03-14T09:48:47Z</time>
      </trkpt>
      <trkpt lat="46.13626" lon="6.76524">
        <ele>1499.8</ele>
        <time>2012-03-14T09:49:00Z</time>
      </trkpt>
      <trkpt lat="46.13618" lon="6.76519">
        <ele>1502.2</ele>
        <time>2012-03-14T09:49:14Z</time>
      </trkpt>
      <trkpt lat="46.13611" lon="6.76511">
        <ele>1504.3</ele>
        <time>2012-03-14T09:49:26Z</time>
      </trkpt>
      <trkpt lat="46.13604" lon="6.76503">
        <ele>1505.5</ele>
        <time>2012-03-14T09:49:38Z</time>
      </trkpt>
      <trkpt lat="46.13596" lon="6.76511">
        <ele>1506.9</ele>
        <time>2012-03-14T09:49:50Z</time>
      </trkpt>
      <trkpt lat="46.13596" lon="6.76524">
        <ele>1508.5</ele>
        <time>2012-03-14T09:50:01Z</time>
      </trkpt>
      <trkpt lat="46.13598" lon="6.76537">
        <ele>1509.7</ele>
        <time>2012-03-14T09:50:13Z</time>
      </trkpt>
      <trkpt lat="46.13599" lon="6.76551">
        <ele>1510.7</ele>
        <time>2012-03-14T09:50:23Z</time>
      </trkpt>
      <trkpt lat="46.136" lon="6.76564">
        <ele>1512.8</ele>
        <time>2012-03-14T09:50:33Z</time>
      </trkpt>
      <trkpt lat="46.136" lon="6.76577">
        <ele>1514.4</ele>
        <time>2012-03-14T09:50:44Z</time>
      </trkpt>
      <trkpt lat="46.13598" lon="6.7659">
        <ele>1515.8</ele>
        <time>2012-03-14T09:50:54Z</time>
      </trkpt>
      <trkpt lat="46.13596" lon="6.76603">
        <ele>1516.6</ele>
        <time>2012-03-14T09:51:05Z</time>
      </trkpt>
      <trkpt lat="46.1359" lon="6.76612">
        <ele>1518.1</ele>
        <time>2012-03-14T09:51:17Z</time>
      </trkpt>
      <trkpt lat="46.13583" lon="6.76622">
        <ele>1518.4</ele>
        <time>2012-03-14T09:51:28Z</time>
      </trkpt>
      <trkpt lat="46.13576" lon="6.7663">
        <ele>1519.7</ele>
        <time>2012-03-14T09:51:40Z</time>
      </trkpt>
      <trkpt lat="46.13568" lon="6.76635">
        <ele>1521.3</ele>
        <time>2012-03-14T09:52:02Z</time>
      </trkpt>
      <trkpt lat="46.13559" lon="6.76633">
        <ele>1522</ele>
        <time>2012-03-14T09:52:14Z</time>
      </trkpt>
      <trkpt lat="46.1355" lon="6.76628">
        <ele>1523.7</ele>
        <time>2012-03-14T09:52:29Z</time>
      </trkpt>
      <trkpt lat="46.13542" lon="6.76622">
        <ele>1525</ele>
        <time>2012-03-14T09:52:38Z</time>
      </trkpt>
      <trkpt lat="46.13536" lon="6.76612">
        <ele>1526</ele>
        <time>2012-03-14T09:52:48Z</time>
      </trkpt>
      <trkpt lat="46.13533" lon="6.76599">
        <ele>1525.4</ele>
        <time>2012-03-14T09:52:58Z</time>
      </trkpt>
      <trkpt lat="46.13532" lon="6.76586">
        <ele>1526.6</ele>
        <time>2012-03-14T09:53:09Z</time>
      </trkpt>
      <trkpt lat="46.13528" lon="6.76573">
        <ele>1529.1</ele>
        <time>2012-03-14T09:53:20Z</time>
      </trkpt>
      <trkpt lat="46.13524" lon="6.76561">
        <ele>1530.6</ele>
        <time>2012-03-14T09:53:34Z</time>
      </trkpt>
      <trkpt lat="46.13518" lon="6.76552">
        <ele>1533.1</ele>
        <time>2012-03-14T09:53:45Z</time>
      </trkpt>
      <trkpt lat="46.13512" lon="6.76541">
        <ele>1534</ele>
        <time>2012-03-14T09:53:59Z</time>
      </trkpt>
      <trkpt lat="46.13507" lon="6.76529">
        <ele>1534.3</ele>
        <time>2012-03-14T09:54:12Z</time>
      </trkpt>
      <trkpt lat="46.13502" lon="6.76518">
        <ele>1535.7</ele>
        <time>2012-03-14T09:54:25Z</time>
      </trkpt>
      <trkpt lat="46.13493" lon="6.76513">
        <ele>1536.2</ele>
        <time>2012-03-14T09:54:39Z</time>
      </trkpt>
      <trkpt lat="46.13484" lon="6.7651">
        <ele>1536.5</ele>
        <time>2012-03-14T09:54:52Z</time>
      </trkpt>
      <trkpt lat="46.13476" lon="6.76504">
        <ele>1537.6</ele>
        <time>2012-03-14T09:55:05Z</time>
      </trkpt>
      <trkpt lat="46.13468" lon="6.76498">
        <ele>1537.8</ele>
        <time>2012-03-14T09:55:17Z</time>
      </trkpt>
      <trkpt lat="46.13458" lon="6.76497">
        <ele>1539.5</ele>
        <time>2012-03-14T09:55:34Z</time>
      </trkpt>
      <trkpt lat="46.13449" lon="6.76496">
        <ele>1541</ele>
        <time>2012-03-14T09:55:46Z</time>
      </trkpt>
      <trkpt lat="46.13442" lon="6.76488">
        <ele>1543.8</ele>
        <time>2012-03-14T09:56:01Z</time>
      </trkpt>
      <trkpt lat="46.13435" lon="6.76479">
        <ele>1544.8</ele>
        <time>2012-03-14T09:56:12Z</time>
      </trkpt>
      <trkpt lat="46.13428" lon="6.7647">
        <ele>1545.7</ele>
        <time>2012-03-14T09:56:24Z</time>
      </trkpt>
      <trkpt lat="46.13419" lon="6.76464">
        <ele>1546.2</ele>
        <time>2012-03-14T09:56:34Z</time>
      </trkpt>
      <trkpt lat="46.13411" lon="6.76457">
        <ele>1547.5</ele>
        <time>2012-03-14T09:56:46Z</time>
      </trkpt>
      <trkpt lat="46.13404" lon="6.7645">
        <ele>1548.6</ele>
        <time>2012-03-14T09:56:57Z</time>
      </trkpt>
      <trkpt lat="46.13394" lon="6.76448">
        <ele>1550.1</ele>
        <time>2012-03-14T09:57:12Z</time>
      </trkpt>
      <trkpt lat="46.13386" lon="6.76449">
        <ele>1551.9</ele>
        <time>2012-03-14T09:57:26Z</time>
      </trkpt>
      <trkpt lat="46.13376" lon="6.76447">
        <ele>1553.8</ele>
        <time>2012-03-14T09:57:40Z</time>
      </trkpt>
      <trkpt lat="46.13367" lon="6.76445">
        <ele>1554.9</ele>
        <time>2012-03-14T09:57:52Z</time>
      </trkpt>
      <trkpt lat="46.13358" lon="6.76443">
        <ele>1556.1</ele>
        <time>2012-03-14T09:58:05Z</time>
      </trkpt>
      <trkpt lat="46.13349" lon="6.76442">
        <ele>1558.4</ele>
        <time>2012-03-14T09:58:20Z</time>
      </trkpt>
      <trkpt lat="46.1334" lon="6.76441">
        <ele>1560.3</ele>
        <time>2012-03-14T09:58:34Z</time>
      </trkpt>
      <trkpt lat="46.13331" lon="6.7644">
        <ele>1562.3</ele>
        <time>2012-03-14T09:58:49Z</time>
      </trkpt>
      <trkpt lat="46.13321" lon="6.7644">
        <ele>1564.1</ele>
        <time>2012-03-14T09:59:04Z</time>
      </trkpt>
      <trkpt lat="46.13312" lon="6.76437">
        <ele>1565.8</ele>
        <time>2012-03-14T09:59:18Z</time>
      </trkpt>
      <trkpt lat="46.13303" lon="6.76433">
        <ele>1568</ele>
        <time>2012-03-14T09:59:32Z</time>
      </trkpt>
      <trkpt lat="46.13295" lon="6.7643">
        <ele>1569.8</ele>
        <time>2012-03-14T09:59:46Z</time>
      </trkpt>
      <trkpt lat="46.13286" lon="6.76428">
        <ele>1570.7</ele>
        <time>2012-03-14T10:00:00Z</time>
      </trkpt>
      <trkpt lat="46.13277" lon="6.76426">
        <ele>1572.4</ele>
        <time>2012-03-14T10:00:13Z</time>
      </trkpt>
      <trkpt lat="46.13268" lon="6.76428">
        <ele>1574.1</ele>
        <time>2012-03-14T10:00:26Z</time>
      </trkpt>
      <trkpt lat="46.13259" lon="6.76426">
        <ele>1576.8</ele>
        <time>2012-03-14T10:00:40Z</time>
      </trkpt>
      <trkpt lat="46.1325" lon="6.76422">
        <ele>1578.8</ele>
        <time>2012-03-14T10:00:55Z</time>
      </trkpt>
      <trkpt lat="46.13241" lon="6.7642">
        <ele>1580.9</ele>
        <time>2012-03-14T10:01:11Z</time>
      </trkpt>
      <trkpt lat="46.13232" lon="6.76423">
        <ele>1583.2</ele>
        <time>2012-03-14T10:01:26Z</time>
      </trkpt>
      <trkpt lat="46.13225" lon="6.76431">
        <ele>1584.6</ele>
        <time>2012-03-14T10:01:36Z</time>
      </trkpt>
      <trkpt lat="46.13218" lon="6.7644">
        <ele>1586.6</ele>
        <time>2012-03-14T10:01:49Z</time>
      </trkpt>
      <trkpt lat="46.1321" lon="6.76447">
        <ele>1588</ele>
        <time>2012-03-14T10:02:03Z</time>
      </trkpt>
      <trkpt lat="46.13203" lon="6.76439">
        <ele>1589.9</ele>
        <time>2012-03-14T10:02:19Z</time>
      </trkpt>
      <trkpt lat="46.13197" lon="6.76429">
        <ele>1591.9</ele>
        <time>2012-03-14T10:02:35Z</time>
      </trkpt>
      <trkpt lat="46.13194" lon="6.76416">
        <ele>1593.7</ele>
        <time>2012-03-14T10:02:48Z</time>
      </trkpt>
      <trkpt lat="46.13188" lon="6.76408">
        <ele>1595.3</ele>
        <time>2012-03-14T10:03:02Z</time>
      </trkpt>
      <trkpt lat="46.1318" lon="6.764">
        <ele>1596.8</ele>
        <time>2012-03-14T10:03:16Z</time>
      </trkpt>
      <trkpt lat="46.13172" lon="6.76395">
        <ele>1599.1</ele>
        <time>2012-03-14T10:03:33Z</time>
      </trkpt>
      <trkpt lat="46.13164" lon="6.7639">
        <ele>1602</ele>
        <time>2012-03-14T10:03:54Z</time>
      </trkpt>
      <trkpt lat="46.13155" lon="6.76391">
        <ele>1603.6</ele>
        <time>2012-03-14T10:04:12Z</time>
      </trkpt>
      <trkpt lat="46.13145" lon="6.76392">
        <ele>1604.3</ele>
        <time>2012-03-14T10:04:26Z</time>
      </trkpt>
      <trkpt lat="46.13143" lon="6.76378">
        <ele>1605</ele>
        <time>2012-03-14T10:04:40Z</time>
      </trkpt>
      <trkpt lat="46.13142" lon="6.76365">
        <ele>1607.4</ele>
        <time>2012-03-14T10:04:52Z</time>
      </trkpt>
      <trkpt lat="46.13144" lon="6.76352">
        <ele>1610.9</ele>
        <time>2012-03-14T10:05:06Z</time>
      </trkpt>
      <trkpt lat="46.1314" lon="6.76339">
        <ele>1611.3</ele>
        <time>2012-03-14T10:05:29Z</time>
      </trkpt>
      <trkpt lat="46.13139" lon="6.76326">
        <ele>1611.4</ele>
        <time>2012-03-14T10:05:41Z</time>
      </trkpt>
      <trkpt lat="46.1314" lon="6.76314">
        <ele>1612.6</ele>
        <time>2012-03-14T10:05:53Z</time>
      </trkpt>
      <trkpt lat="46.13142" lon="6.763">
        <ele>1613.2</ele>
        <time>2012-03-14T10:06:06Z</time>
      </trkpt>
      <trkpt lat="46.1314" lon="6.76288">
        <ele>1615</ele>
        <time>2012-03-14T10:06:38Z</time>
      </trkpt>
      <trkpt lat="46.1314" lon="6.76274">
        <ele>1616.4</ele>
        <time>2012-03-14T10:06:51Z</time>
      </trkpt>
      <trkpt lat="46.1314" lon="6.76261">
        <ele>1617.4</ele>
        <time>2012-03-14T10:07:04Z</time>
      </trkpt>
      <trkpt lat="46.13141" lon="6.76248">
        <ele>1618.4</ele>
        <time>2012-03-14T10:07:17Z</time>
      </trkpt>
      <trkpt lat="46.13143" lon="6.76236">
        <ele>1619.9</ele>
        <time>2012-03-14T10:07:33Z</time>
      </trkpt>
      <trkpt lat="46.13145" lon="6.76223">
        <ele>1622</ele>
        <time>2012-03-14T10:07:48Z</time>
      </trkpt>
      <trkpt lat="46.13148" lon="6.76211">
        <ele>1624.2</ele>
        <time>2012-03-14T10:08:03Z</time>
      </trkpt>
      <trkpt lat="46.13155" lon="6.76203">
        <ele>1625.1</ele>
        <time>2012-03-14T10:08:36Z</time>
      </trkpt>
      <trkpt lat="46.13163" lon="6.76195">
        <ele>1626.6</ele>
        <time>2012-03-14T10:08:45Z</time>
      </trkpt>
      <trkpt lat="46.13166" lon="6.76183">
        <ele>1628.3</ele>
        <time>2012-03-14T10:08:57Z</time>
      </trkpt>
      <trkpt lat="46.13166" lon="6.76169">
        <ele>1629.1</ele>
        <time>2012-03-14T10:09:09Z</time>
      </trkpt>
      <trkpt lat="46.13163" lon="6.76157">
        <ele>1632.7</ele>
        <time>2012-03-14T10:09:25Z</time>
      </trkpt>
      <trkpt lat="46.13157" lon="6.76148">
        <ele>1636.9</ele>
        <time>2012-03-14T10:09:41Z</time>
      </trkpt>
      <trkpt lat="46.1315" lon="6.76141">
        <ele>1640.5</ele>
        <time>2012-03-14T10:09:57Z</time>
      </trkpt>
      <trkpt lat="46.13143" lon="6.76133">
        <ele>1643.7</ele>
        <time>2012-03-14T10:10:12Z</time>
      </trkpt>
      <trkpt lat="46.13135" lon="6.76126">
        <ele>1646.9</ele>
        <time>2012-03-14T10:10:30Z</time>
      </trkpt>
      <trkpt lat="46.13127" lon="6.7612">
        <ele>1650.1</ele>
        <time>2012-03-14T10:10:49Z</time>
      </trkpt>
      <trkpt lat="46.13118" lon="6.76121">
        <ele>1652.2</ele>
        <time>2012-03-14T10:11:08Z</time>
      </trkpt>
      <trkpt lat="46.13114" lon="6.76131">
        <ele>1656.4</ele>
        <time>2012-03-14T10:11:24Z</time>
      </trkpt>
      <trkpt lat="46.13107" lon="6.7614">
        <ele>1659.6</ele>
        <time>2012-03-14T10:11:42Z</time>
      </trkpt>
      <trkpt lat="46.13102" lon="6.7615">
        <ele>1662</ele>
        <time>2012-03-14T10:11:58Z</time>
      </trkpt>
      <trkpt lat="46.13095" lon="6.76159">
        <ele>1660.9</ele>
        <time>2012-03-14T10:12:24Z</time>
      </trkpt>
      <trkpt lat="46.13086" lon="6.76165">
        <ele>1659.6</ele>
        <time>2012-03-14T10:12:33Z</time>
      </trkpt>
      <trkpt lat="46.13077" lon="6.76172">
        <ele>1658</ele>
        <time>2012-03-14T10:12:41Z</time>
      </trkpt>
      <trkpt lat="46.13068" lon="6.76173">
        <ele>1656.5</ele>
        <time>2012-03-14T10:12:45Z</time>
      </trkpt>
      <trkpt lat="46.13056" lon="6.76174">
        <ele>1654.6</ele>
        <time>2012-03-14T10:12:49Z</time>
      </trkpt>
      <trkpt lat="46.13047" lon="6.76172">
        <ele>1653.1</ele>
        <time>2012-03-14T10:12:53Z</time>
      </trkpt>
      <trkpt lat="46.13037" lon="6.76175">
        <ele>1652.5</ele>
        <time>2012-03-14T10:13:04Z</time>
      </trkpt>
      <trkpt lat="46.13029" lon="6.7618">
        <ele>1652.4</ele>
        <time>2012-03-14T10:13:14Z</time>
      </trkpt>
      <trkpt lat="46.13022" lon="6.76189">
        <ele>1653.9</ele>
        <time>2012-03-14T10:13:26Z</time>
      </trkpt>
      <trkpt lat="46.1302" lon="6.76202">
        <ele>1653.2</ele>
        <time>2012-03-14T10:13:39Z</time>
      </trkpt>
      <trkpt lat="46.13017" lon="6.76215">
        <ele>1651.5</ele>
        <time>2012-03-14T10:13:43Z</time>
      </trkpt>
      <trkpt lat="46.13013" lon="6.76228">
        <ele>1650.5</ele>
        <time>2012-03-14T10:13:47Z</time>
      </trkpt>
      <trkpt lat="46.13009" lon="6.76241">
        <ele>1649.6</ele>
        <time>2012-03-14T10:13:52Z</time>
      </trkpt>
      <trkpt lat="46.13005" lon="6.76255">
        <ele>1648.6</ele>
        <time>2012-03-14T10:13:57Z</time>
      </trkpt>
      <trkpt lat="46.13" lon="6.76267">
        <ele>1648.2</ele>
        <time>2012-03-14T10:14:02Z</time>
      </trkpt>
      <trkpt lat="46.12996" lon="6.76278">
        <ele>1648.3</ele>
        <time>2012-03-14T10:14:07Z</time>
      </trkpt>
      <trkpt lat="46.1299" lon="6.76289">
        <ele>1649.5</ele>
        <time>2012-03-14T10:14:15Z</time>
      </trkpt>
      <trkpt lat="46.12985" lon="6.76299">
        <ele>1651.9</ele>
        <time>2012-03-14T10:14:25Z</time>
      </trkpt>
      <trkpt lat="46.12978" lon="6.76307">
        <ele>1652.5</ele>
        <time>2012-03-14T10:23:38Z</time>
      </trkpt>
      <trkpt lat="46.12971" lon="6.76315">
        <ele>1653.9</ele>
        <time>2012-03-14T10:23:52Z</time>
      </trkpt>
      <trkpt lat="46.12966" lon="6.76326">
        <ele>1656.2</ele>
        <time>2012-03-14T10:24:09Z</time>
      </trkpt>
      <trkpt lat="46.12963" lon="6.76339">
        <ele>1656.9</ele>
        <time>2012-03-14T10:24:25Z</time>
      </trkpt>
      <trkpt lat="46.12963" lon="6.76352">
        <ele>1659.4</ele>
        <time>2012-03-14T10:24:42Z</time>
      </trkpt>
      <trkpt lat="46.12966" lon="6.76364">
        <ele>1661.9</ele>
        <time>2012-03-14T10:24:57Z</time>
      </trkpt>
      <trkpt lat="46.1297" lon="6.76377">
        <ele>1662.7</ele>
        <time>2012-03-14T10:25:16Z</time>
      </trkpt>
      <trkpt lat="46.12974" lon="6.7639">
        <ele>1664.5</ele>
        <time>2012-03-14T10:25:31Z</time>
      </trkpt>
      <trkpt lat="46.12968" lon="6.76399">
        <ele>1669.2</ele>
        <time>2012-03-14T10:25:47Z</time>
      </trkpt>
      <trkpt lat="46.1296" lon="6.764">
        <ele>1672.2</ele>
        <time>2012-03-14T10:26:02Z</time>
      </trkpt>
      <trkpt lat="46.12951" lon="6.76402">
        <ele>1675.6</ele>
        <time>2012-03-14T10:26:16Z</time>
      </trkpt>
      <trkpt lat="46.12942" lon="6.76402">
        <ele>1679.3</ele>
        <time>2012-03-14T10:26:31Z</time>
      </trkpt>
      <trkpt lat="46.12933" lon="6.76402">
        <ele>1682.1</ele>
        <time>2012-03-14T10:26:48Z</time>
      </trkpt>
      <trkpt lat="46.12924" lon="6.764">
        <ele>1684.7</ele>
        <time>2012-03-14T10:27:04Z</time>
      </trkpt>
      <trkpt lat="46.12915" lon="6.764">
        <ele>1687.5</ele>
        <time>2012-03-14T10:27:20Z</time>
      </trkpt>
      <trkpt lat="46.12906" lon="6.764">
        <ele>1690</ele>
        <time>2012-03-14T10:27:37Z</time>
      </trkpt>
      <trkpt lat="46.12897" lon="6.764">
        <ele>1691.1</ele>
        <time>2012-03-14T10:27:54Z</time>
      </trkpt>
      <trkpt lat="46.12888" lon="6.76397">
        <ele>1692.9</ele>
        <time>2012-03-14T10:28:08Z</time>
      </trkpt>
      <trkpt lat="46.12879" lon="6.76396">
        <ele>1695.4</ele>
        <time>2012-03-14T10:28:25Z</time>
      </trkpt>
      <trkpt lat="46.1287" lon="6.76395">
        <ele>1698.2</ele>
        <time>2012-03-14T10:28:40Z</time>
      </trkpt>
      <trkpt lat="46.12862" lon="6.76397">
        <ele>1701.6</ele>
        <time>2012-03-14T10:28:56Z</time>
      </trkpt>
      <trkpt lat="46.12853" lon="6.76401">
        <ele>1704.6</ele>
        <time>2012-03-14T10:29:13Z</time>
      </trkpt>
      <trkpt lat="46.12845" lon="6.76408">
        <ele>1707.1</ele>
        <time>2012-03-14T10:29:29Z</time>
      </trkpt>
      <trkpt lat="46.12837" lon="6.76412">
        <ele>1709.5</ele>
        <time>2012-03-14T10:29:45Z</time>
      </trkpt>
      <trkpt lat="46.12838" lon="6.76425">
        <ele>1711.8</ele>
        <time>2012-03-14T10:30:24Z</time>
      </trkpt>
      <trkpt lat="46.12844" lon="6.76435">
        <ele>1711.7</ele>
        <time>2012-03-14T10:30:41Z</time>
      </trkpt>
      <trkpt lat="46.1285" lon="6.76443">
        <ele>1715.6</ele>
        <time>2012-03-14T10:31:02Z</time>
      </trkpt>
      <trkpt lat="46.12846" lon="6.76452">
        <ele>1721.7</ele>
        <time>2012-03-14T10:31:31Z</time>
      </trkpt>
      <trkpt lat="46.12838" lon="6.76454">
        <ele>1725.6</ele>
        <time>2012-03-14T10:31:48Z</time>
      </trkpt>
      <trkpt lat="46.12829" lon="6.76459">
        <ele>1727.4</ele>
        <time>2012-03-14T10:32:04Z</time>
      </trkpt>
      <trkpt lat="46.12822" lon="6.76466">
        <ele>1729.2</ele>
        <time>2012-03-14T10:32:22Z</time>
      </trkpt>
      <trkpt lat="46.12816" lon="6.76477">
        <ele>1731.6</ele>
        <time>2012-03-14T10:32:58Z</time>
      </trkpt>
      <trkpt lat="46.12822" lon="6.76486">
        <ele>1736</ele>
        <time>2012-03-14T10:33:52Z</time>
      </trkpt>
      <trkpt lat="46.1283" lon="6.76493">
        <ele>1738.8</ele>
        <time>2012-03-14T10:34:08Z</time>
      </trkpt>
      <trkpt lat="46.12835" lon="6.76502">
        <ele>1742.3</ele>
        <time>2012-03-14T10:34:26Z</time>
      </trkpt>
      <trkpt lat="46.1284" lon="6.76513">
        <ele>1744.4</ele>
        <time>2012-03-14T10:34:45Z</time>
      </trkpt>
      <trkpt lat="46.12843" lon="6.76525">
        <ele>1745.9</ele>
        <time>2012-03-14T10:35:04Z</time>
      </trkpt>
      <trkpt lat="46.1284" lon="6.76538">
        <ele>1748</ele>
        <time>2012-03-14T10:35:20Z</time>
      </trkpt>
      <trkpt lat="46.12833" lon="6.76546">
        <ele>1750.5</ele>
        <time>2012-03-14T10:35:34Z</time>
      </trkpt>
      <trkpt lat="46.12826" lon="6.76553">
        <ele>1753.5</ele>
        <time>2012-03-14T10:35:51Z</time>
      </trkpt>
      <trkpt lat="46.12819" lon="6.76562">
        <ele>1755.1</ele>
        <time>2012-03-14T10:36:09Z</time>
      </trkpt>
      <trkpt lat="46.12814" lon="6.76572">
        <ele>1757.7</ele>
        <time>2012-03-14T10:36:26Z</time>
      </trkpt>
      <trkpt lat="46.12807" lon="6.7658">
        <ele>1760.2</ele>
        <time>2012-03-14T10:36:54Z</time>
      </trkpt>
      <trkpt lat="46.12802" lon="6.76591">
        <ele>1762.8</ele>
        <time>2012-03-14T10:37:15Z</time>
      </trkpt>
      <trkpt lat="46.12796" lon="6.76602">
        <ele>1764.8</ele>
        <time>2012-03-14T10:37:33Z</time>
      </trkpt>
      <trkpt lat="46.1279" lon="6.76611">
        <ele>1766.7</ele>
        <time>2012-03-14T10:37:52Z</time>
      </trkpt>
      <trkpt lat="46.12783" lon="6.7662">
        <ele>1768.8</ele>
        <time>2012-03-14T10:38:11Z</time>
      </trkpt>
      <trkpt lat="46.12776" lon="6.76628">
        <ele>1771.4</ele>
        <time>2012-03-14T10:38:30Z</time>
      </trkpt>
      <trkpt lat="46.12779" lon="6.7664">
        <ele>1775.7</ele>
        <time>2012-03-14T10:39:04Z</time>
      </trkpt>
      <trkpt lat="46.12783" lon="6.76651">
        <ele>1778</ele>
        <time>2012-03-14T10:39:28Z</time>
      </trkpt>
      <trkpt lat="46.12788" lon="6.76662">
        <ele>1782.1</ele>
        <time>2012-03-14T10:40:03Z</time>
      </trkpt>
      <trkpt lat="46.12791" lon="6.76674">
        <ele>1784.2</ele>
        <time>2012-03-14T10:40:20Z</time>
      </trkpt>
      <trkpt lat="46.12793" lon="6.76687">
        <ele>1786.2</ele>
        <time>2012-03-14T10:40:37Z</time>
      </trkpt>
      <trkpt lat="46.12797" lon="6.76699">
        <ele>1787.8</ele>
        <time>2012-03-14T10:41:03Z</time>
      </trkpt>
      <trkpt lat="46.12802" lon="6.7671">
        <ele>1788.6</ele>
        <time>2012-03-14T10:41:21Z</time>
      </trkpt>
      <trkpt lat="46.12806" lon="6.76721">
        <ele>1791</ele>
        <time>2012-03-14T10:41:49Z</time>
      </trkpt>
      <trkpt lat="46.1281" lon="6.76733">
        <ele>1793.5</ele>
        <time>2012-03-14T10:42:08Z</time>
      </trkpt>
      <trkpt lat="46.12815" lon="6.76744">
        <ele>1794.7</ele>
        <time>2012-03-14T10:42:25Z</time>
      </trkpt>
      <trkpt lat="46.12819" lon="6.76757">
        <ele>1796.5</ele>
        <time>2012-03-14T10:42:43Z</time>
      </trkpt>
      <trkpt lat="46.12824" lon="6.76768">
        <ele>1796.8</ele>
        <time>2012-03-14T10:42:59Z</time>
      </trkpt>
      <trkpt lat="46.12827" lon="6.7678">
        <ele>1798.5</ele>
        <time>2012-03-14T10:43:15Z</time>
      </trkpt>
      <trkpt lat="46.12832" lon="6.76792">
        <ele>1800.5</ele>
        <time>2012-03-14T10:43:31Z</time>
      </trkpt>
      <trkpt lat="46.12835" lon="6.76805">
        <ele>1802.2</ele>
        <time>2012-03-14T10:43:51Z</time>
      </trkpt>
      <trkpt lat="46.12831" lon="6.76817">
        <ele>1804.2</ele>
        <time>2012-03-14T10:44:35Z</time>
      </trkpt>
      <trkpt lat="46.12827" lon="6.76829">
        <ele>1805.8</ele>
        <time>2012-03-14T10:44:48Z</time>
      </trkpt>
      <trkpt lat="46.12825" lon="6.76842">
        <ele>1807.6</ele>
        <time>2012-03-14T10:45:04Z</time>
      </trkpt>
      <trkpt lat="46.12822" lon="6.76854">
        <ele>1810.5</ele>
        <time>2012-03-14T10:45:22Z</time>
      </trkpt>
      <trkpt lat="46.12814" lon="6.76859">
        <ele>1811.3</ele>
        <time>2012-03-14T10:45:36Z</time>
      </trkpt>
      <trkpt lat="46.12806" lon="6.76868">
        <ele>1812.8</ele>
        <time>2012-03-14T10:45:51Z</time>
      </trkpt>
      <trkpt lat="46.128" lon="6.76877">
        <ele>1814.4</ele>
        <time>2012-03-14T10:46:09Z</time>
      </trkpt>
      <trkpt lat="46.12797" lon="6.76888">
        <ele>1818.9</ele>
        <time>2012-03-14T10:46:32Z</time>
      </trkpt>
      <trkpt lat="46.12803" lon="6.76897">
        <ele>1822.5</ele>
        <time>2012-03-14T10:46:53Z</time>
      </trkpt>
      <trkpt lat="46.12808" lon="6.76907">
        <ele>1826.4</ele>
        <time>2012-03-14T10:47:13Z</time>
      </trkpt>
      <trkpt lat="46.12813" lon="6.76918">
        <ele>1828.4</ele>
        <time>2012-03-14T10:47:34Z</time>
      </trkpt>
      <trkpt lat="46.12818" lon="6.76929">
        <ele>1830.8</ele>
        <time>2012-03-14T10:47:54Z</time>
      </trkpt>
      <trkpt lat="46.12824" lon="6.7694">
        <ele>1832.6</ele>
        <time>2012-03-14T10:48:16Z</time>
      </trkpt>
      <trkpt lat="46.1283" lon="6.7695">
        <ele>1833.1</ele>
        <time>2012-03-14T10:48:32Z</time>
      </trkpt>
      <trkpt lat="46.12836" lon="6.7696">
        <ele>1834.5</ele>
        <time>2012-03-14T10:48:48Z</time>
      </trkpt>
      <trkpt lat="46.12842" lon="6.7697">
        <ele>1836.4</ele>
        <time>2012-03-14T10:49:04Z</time>
      </trkpt>
      <trkpt lat="46.12847" lon="6.7698">
        <ele>1838.7</ele>
        <time>2012-03-14T10:49:22Z</time>
      </trkpt>
      <trkpt lat="46.12853" lon="6.76991">
        <ele>1840.5</ele>
        <time>2012-03-14T10:49:38Z</time>
      </trkpt>
      <trkpt lat="46.1286" lon="6.76999">
        <ele>1842.2</ele>
        <time>2012-03-14T10:49:51Z</time>
      </trkpt>
      <trkpt lat="46.12866" lon="6.77009">
        <ele>1843.3</ele>
        <time>2012-03-14T10:50:06Z</time>
      </trkpt>
      <trkpt lat="46.12873" lon="6.77018">
        <ele>1844.5</ele>
        <time>2012-03-14T10:50:20Z</time>
      </trkpt>
      <trkpt lat="46.1288" lon="6.77028">
        <ele>1844.9</ele>
        <time>2012-03-14T10:50:33Z</time>
      </trkpt>
      <trkpt lat="46.12887" lon="6.77037">
        <ele>1846.1</ele>
        <time>2012-03-14T10:50:46Z</time>
      </trkpt>
      <trkpt lat="46.12894" lon="6.77046">
        <ele>1848.9</ele>
        <time>2012-03-14T10:51:02Z</time>
      </trkpt>
      <trkpt lat="46.12901" lon="6.77053">
        <ele>1851.7</ele>
        <time>2012-03-14T10:51:17Z</time>
      </trkpt>
      <trkpt lat="46.12906" lon="6.77064">
        <ele>1855.5</ele>
        <time>2012-03-14T10:51:35Z</time>
      </trkpt>
      <trkpt lat="46.12908" lon="6.77077">
        <ele>1857.9</ele>
        <time>2012-03-14T10:51:49Z</time>
      </trkpt>
      <trkpt lat="46.12907" lon="6.7709">
        <ele>1859.2</ele>
        <time>2012-03-14T10:52:01Z</time>
      </trkpt>
      <trkpt lat="46.12906" lon="6.77103">
        <ele>1862.1</ele>
        <time>2012-03-14T10:52:16Z</time>
      </trkpt>
      <trkpt lat="46.12899" lon="6.77112">
        <ele>1864.5</ele>
        <time>2012-03-14T10:52:31Z</time>
      </trkpt>
      <trkpt lat="46.12893" lon="6.77123">
        <ele>1866.6</ele>
        <time>2012-03-14T10:52:47Z</time>
      </trkpt>
      <trkpt lat="46.12891" lon="6.77136">
        <ele>1868.3</ele>
        <time>2012-03-14T10:53:02Z</time>
      </trkpt>
      <trkpt lat="46.12887" lon="6.77148">
        <ele>1870.5</ele>
        <time>2012-03-14T10:53:15Z</time>
      </trkpt>
      <trkpt lat="46.12881" lon="6.77158">
        <ele>1872.3</ele>
        <time>2012-03-14T10:53:29Z</time>
      </trkpt>
      <trkpt lat="46.12874" lon="6.77165">
        <ele>1874.5</ele>
        <time>2012-03-14T10:53:43Z</time>
      </trkpt>
      <trkpt lat="46.12866" lon="6.77173">
        <ele>1877.2</ele>
        <time>2012-03-14T10:53:58Z</time>
      </trkpt>
      <trkpt lat="46.1286" lon="6.77183">
        <ele>1879.1</ele>
        <time>2012-03-14T10:54:13Z</time>
      </trkpt>
      <trkpt lat="46.12855" lon="6.77193">
        <ele>1882.3</ele>
        <time>2012-03-14T10:54:29Z</time>
      </trkpt>
      <trkpt lat="46.12852" lon="6.77205">
        <ele>1884.4</ele>
        <time>2012-03-14T10:54:46Z</time>
      </trkpt>
      <trkpt lat="46.12851" lon="6.77218">
        <ele>1887.2</ele>
        <time>2012-03-14T10:55:07Z</time>
      </trkpt>
      <trkpt lat="46.12853" lon="6.7723">
        <ele>1890.1</ele>
        <time>2012-03-14T10:55:28Z</time>
      </trkpt>
      <trkpt lat="46.12856" lon="6.77242">
        <ele>1892.2</ele>
        <time>2012-03-14T10:55:41Z</time>
      </trkpt>
      <trkpt lat="46.1286" lon="6.77254">
        <ele>1894.3</ele>
        <time>2012-03-14T10:55:55Z</time>
      </trkpt>
      <trkpt lat="46.12864" lon="6.77266">
        <ele>1896</ele>
        <time>2012-03-14T10:56:12Z</time>
      </trkpt>
      <trkpt lat="46.12866" lon="6.77279">
        <ele>1897.7</ele>
        <time>2012-03-14T10:56:30Z</time>
      </trkpt>
      <trkpt lat="46.12869" lon="6.77291">
        <ele>1899.9</ele>
        <time>2012-03-14T10:56:49Z</time>
      </trkpt>
      <trkpt lat="46.12871" lon="6.77303">
        <ele>1902.9</ele>
        <time>2012-03-14T10:57:09Z</time>
      </trkpt>
      <trkpt lat="46.12873" lon="6.77316">
        <ele>1905.9</ele>
        <time>2012-03-14T10:57:30Z</time>
      </trkpt>
      <trkpt lat="46.12874" lon="6.77328">
        <ele>1908.5</ele>
        <time>2012-03-14T10:57:51Z</time>
      </trkpt>
      <trkpt lat="46.12873" lon="6.77341">
        <ele>1911.7</ele>
        <time>2012-03-14T10:58:12Z</time>
      </trkpt>
      <trkpt lat="46.12869" lon="6.77353">
        <ele>1914.5</ele>
        <time>2012-03-14T10:58:32Z</time>
      </trkpt>
      <trkpt lat="46.12864" lon="6.77364">
        <ele>1916.4</ele>
        <time>2012-03-14T10:58:53Z</time>
      </trkpt>
      <trkpt lat="46.12861" lon="6.77377">
        <ele>1918</ele>
        <time>2012-03-14T10:59:14Z</time>
      </trkpt>
      <trkpt lat="46.12859" lon="6.77389">
        <ele>1920.5</ele>
        <time>2012-03-14T10:59:35Z</time>
      </trkpt>
      <trkpt lat="46.12854" lon="6.774">
        <ele>1923.4</ele>
        <time>2012-03-14T10:59:55Z</time>
      </trkpt>
      <trkpt lat="46.12851" lon="6.77412">
        <ele>1926.9</ele>
        <time>2012-03-14T11:00:16Z</time>
      </trkpt>
      <trkpt lat="46.12847" lon="6.77423">
        <ele>1929.6</ele>
        <time>2012-03-14T11:00:35Z</time>
      </trkpt>
      <trkpt lat="46.12842" lon="6.77434">
        <ele>1931.7</ele>
        <time>2012-03-14T11:00:54Z</time>
      </trkpt>
      <trkpt lat="46.12851" lon="6.77437">
        <ele>1931</ele>
        <time>2012-03-14T11:01:10Z</time>
      </trkpt>
      <trkpt lat="46.12859" lon="6.77445">
        <ele>1930.7</ele>
        <time>2012-03-14T11:01:23Z</time>
      </trkpt>
      <trkpt lat="46.12864" lon="6.77456">
        <ele>1932.3</ele>
        <time>2012-03-14T11:01:42Z</time>
      </trkpt>
      <trkpt lat="46.12867" lon="6.77468">
        <ele>1934.9</ele>
        <time>2012-03-14T11:02:01Z</time>
      </trkpt>
      <trkpt lat="46.1287" lon="6.7748">
        <ele>1938.1</ele>
        <time>2012-03-14T11:02:21Z</time>
      </trkpt>
      <trkpt lat="46.12874" lon="6.77491">
        <ele>1942.2</ele>
        <time>2012-03-14T11:02:44Z</time>
      </trkpt>
      <trkpt lat="46.12877" lon="6.77502">
        <ele>1945.7</ele>
        <time>2012-03-14T11:03:06Z</time>
      </trkpt>
      <trkpt lat="46.1288" lon="6.77515">
        <ele>1947.9</ele>
        <time>2012-03-14T11:03:26Z</time>
      </trkpt>
      <trkpt lat="46.12881" lon="6.77527">
        <ele>1951.1</ele>
        <time>2012-03-14T11:03:44Z</time>
      </trkpt>
      <trkpt lat="46.12882" lon="6.7754">
        <ele>1954.4</ele>
        <time>2012-03-14T11:04:05Z</time>
      </trkpt>
      <trkpt lat="46.12882" lon="6.77553">
        <ele>1956.9</ele>
        <time>2012-03-14T11:04:26Z</time>
      </trkpt>
      <trkpt lat="46.12881" lon="6.77565">
        <ele>1959.9</ele>
        <time>2012-03-14T11:04:46Z</time>
      </trkpt>
      <trkpt lat="46.12878" lon="6.77577">
        <ele>1962.4</ele>
        <time>2012-03-14T11:05:08Z</time>
      </trkpt>
      <trkpt lat="46.12874" lon="6.77588">
        <ele>1965.3</ele>
        <time>2012-03-14T11:05:30Z</time>
      </trkpt>
      <trkpt lat="46.1287" lon="6.776">
        <ele>1967.8</ele>
        <time>2012-03-14T11:05:51Z</time>
      </trkpt>
      <trkpt lat="46.12869" lon="6.77613">
        <ele>1971</ele>
        <time>2012-03-14T11:06:13Z</time>
      </trkpt>
      <trkpt lat="46.12868" lon="6.77626">
        <ele>1974</ele>
        <time>2012-03-14T11:06:34Z</time>
      </trkpt>
      <trkpt lat="46.12867" lon="6.77638">
        <ele>1976.2</ele>
        <time>2012-03-14T11:06:53Z</time>
      </trkpt>
      <trkpt lat="46.12867" lon="6.77651">
        <ele>1977.9</ele>
        <time>2012-03-14T11:07:12Z</time>
      </trkpt>
      <trkpt lat="46.12866" lon="6.77664">
        <ele>1981.1</ele>
        <time>2012-03-14T11:07:31Z</time>
      </trkpt>
      <trkpt lat="46.12875" lon="6.77668">
        <ele>1983.8</ele>
        <time>2012-03-14T11:07:55Z</time>
      </trkpt>
      <trkpt lat="46.12877" lon="6.7768">
        <ele>1988</ele>
        <time>2012-03-14T11:08:19Z</time>
      </trkpt>
      <trkpt lat="46.1288" lon="6.77692">
        <ele>1989</ele>
        <time>2012-03-14T11:08:38Z</time>
      </trkpt>
      <trkpt lat="46.12887" lon="6.77701">
        <ele>1990.9</ele>
        <time>2012-03-14T11:08:58Z</time>
      </trkpt>
      <trkpt lat="46.12887" lon="6.77714">
        <ele>1993.5</ele>
        <time>2012-03-14T11:09:17Z</time>
      </trkpt>
      <trkpt lat="46.12885" lon="6.77727">
        <ele>1995.7</ele>
        <time>2012-03-14T11:09:38Z</time>
      </trkpt>
      <trkpt lat="46.12885" lon="6.77739">
        <ele>1998.5</ele>
        <time>2012-03-14T11:09:58Z</time>
      </trkpt>
      <trkpt lat="46.12887" lon="6.77752">
        <ele>2001.2</ele>
        <time>2012-03-14T11:10:19Z</time>
      </trkpt>
      <trkpt lat="46.12888" lon="6.77765">
        <ele>2003.7</ele>
        <time>2012-03-14T11:10:39Z</time>
      </trkpt>
      <trkpt lat="46.1289" lon="6.77778">
        <ele>2006.1</ele>
        <time>2012-03-14T11:10:58Z</time>
      </trkpt>
      <trkpt lat="46.1289" lon="6.77791">
        <ele>2007.6</ele>
        <time>2012-03-14T11:11:19Z</time>
      </trkpt>
      <trkpt lat="46.12889" lon="6.77804">
        <ele>2009.5</ele>
        <time>2012-03-14T11:11:39Z</time>
      </trkpt>
      <trkpt lat="46.12888" lon="6.7781">
        <ele>2010.1</ele>
        <time>2012-03-14T11:14:13Z</time>
      </trkpt>
      <trkpt lat="46.12897" lon="6.77814">
        <ele>2013.9</ele>
        <time>2012-03-14T11:15:47Z</time>
      </trkpt>
      <trkpt lat="46.12905" lon="6.77819">
        <ele>2017.1</ele>
        <time>2012-03-14T11:16:00Z</time>
      </trkpt>
      <trkpt lat="46.12914" lon="6.77819">
        <ele>2019.1</ele>
        <time>2012-03-14T11:16:14Z</time>
      </trkpt>
      <trkpt lat="46.12923" lon="6.7782">
        <ele>2021.4</ele>
        <time>2012-03-14T11:16:28Z</time>
      </trkpt>
      <trkpt lat="46.12932" lon="6.77824">
        <ele>2022.6</ele>
        <time>2012-03-14T11:16:42Z</time>
      </trkpt>
      <trkpt lat="46.1294" lon="6.7783">
        <ele>2024.8</ele>
        <time>2012-03-14T11:16:54Z</time>
      </trkpt>
      <trkpt lat="46.12945" lon="6.7784">
        <ele>2027.5</ele>
        <time>2012-03-14T11:17:09Z</time>
      </trkpt>
      <trkpt lat="46.1295" lon="6.77851">
        <ele>2030.3</ele>
        <time>2012-03-14T11:17:26Z</time>
      </trkpt>
      <trkpt lat="46.12954" lon="6.77862">
        <ele>2033.4</ele>
        <time>2012-03-14T11:17:46Z</time>
      </trkpt>
      <trkpt lat="46.12958" lon="6.77873">
        <ele>2036.2</ele>
        <time>2012-03-14T11:18:06Z</time>
      </trkpt>
      <trkpt lat="46.12963" lon="6.77884">
        <ele>2038.2</ele>
        <time>2012-03-14T11:18:29Z</time>
      </trkpt>
      <trkpt lat="46.1297" lon="6.77892">
        <ele>2039.5</ele>
        <time>2012-03-14T11:18:45Z</time>
      </trkpt>
      <trkpt lat="46.12979" lon="6.77896">
        <ele>2041.4</ele>
        <time>2012-03-14T11:19:05Z</time>
      </trkpt>
      <trkpt lat="46.12988" lon="6.77899">
        <ele>2044.7</ele>
        <time>2012-03-14T11:19:25Z</time>
      </trkpt>
      <trkpt lat="46.12996" lon="6.77903">
        <ele>2048.4</ele>
        <time>2012-03-14T11:19:45Z</time>
      </trkpt>
      <trkpt lat="46.13005" lon="6.77906">
        <ele>2050.2</ele>
        <time>2012-03-14T11:20:06Z</time>
      </trkpt>
      <trkpt lat="46.13013" lon="6.77911">
        <ele>2051.1</ele>
        <time>2012-03-14T11:20:26Z</time>
      </trkpt>
      <trkpt lat="46.1302" lon="6.77916">
        <ele>2056.7</ele>
        <time>2012-03-14T11:20:45Z</time>
      </trkpt>
      <trkpt lat="46.13027" lon="6.77923">
        <ele>2061.2</ele>
        <time>2012-03-14T11:21:03Z</time>
      </trkpt>
      <trkpt lat="46.13035" lon="6.7793">
        <ele>2061.1</ele>
        <time>2012-03-14T11:21:26Z</time>
      </trkpt>
      <trkpt lat="46.13043" lon="6.77937">
        <ele>2062.9</ele>
        <time>2012-03-14T11:21:49Z</time>
      </trkpt>
      <trkpt lat="46.13049" lon="6.77944">
        <ele>2066.4</ele>
        <time>2012-03-14T11:22:10Z</time>
      </trkpt>
      <trkpt lat="46.13056" lon="6.77941">
        <ele>2071.6</ele>
        <time>2012-03-14T11:22:38Z</time>
      </trkpt>
      <trkpt lat="46.1306" lon="6.77929">
        <ele>2072.8</ele>
        <time>2012-03-14T11:22:57Z</time>
      </trkpt>
      <trkpt lat="46.13062" lon="6.77916">
        <ele>2075</ele>
        <time>2012-03-14T11:23:16Z</time>
      </trkpt>
      <trkpt lat="46.1307" lon="6.77912">
        <ele>2078.3</ele>
        <time>2012-03-14T11:23:54Z</time>
      </trkpt>
      <trkpt lat="46.13075" lon="6.77922">
        <ele>2081.4</ele>
        <time>2012-03-14T11:24:15Z</time>
      </trkpt>
      <trkpt lat="46.13078" lon="6.77934">
        <ele>2082.8</ele>
        <time>2012-03-14T11:24:34Z</time>
      </trkpt>
      <trkpt lat="46.13083" lon="6.77945">
        <ele>2083.8</ele>
        <time>2012-03-14T11:24:53Z</time>
      </trkpt>
      <trkpt lat="46.13087" lon="6.77957">
        <ele>2086.4</ele>
        <time>2012-03-14T11:25:15Z</time>
      </trkpt>
      <trkpt lat="46.13091" lon="6.77968">
        <ele>2089.6</ele>
        <time>2012-03-14T11:25:38Z</time>
      </trkpt>
      <trkpt lat="46.13095" lon="6.77979">
        <ele>2092.4</ele>
        <time>2012-03-14T11:26:01Z</time>
      </trkpt>
      <trkpt lat="46.13099" lon="6.7799">
        <ele>2096.7</ele>
        <time>2012-03-14T11:26:25Z</time>
      </trkpt>
      <trkpt lat="46.13103" lon="6.78001">
        <ele>2098.5</ele>
        <time>2012-03-14T11:26:46Z</time>
      </trkpt>
      <trkpt lat="46.13106" lon="6.78014">
        <ele>2100.2</ele>
        <time>2012-03-14T11:27:07Z</time>
      </trkpt>
      <trkpt lat="46.13109" lon="6.78027">
        <ele>2102.8</ele>
        <time>2012-03-14T11:27:26Z</time>
      </trkpt>
      <trkpt lat="46.13112" lon="6.78039">
        <ele>2104.7</ele>
        <time>2012-03-14T11:27:45Z</time>
      </trkpt>
      <trkpt lat="46.13115" lon="6.78052">
        <ele>2106.6</ele>
        <time>2012-03-14T11:28:05Z</time>
      </trkpt>
      <trkpt lat="46.13119" lon="6.78063">
        <ele>2109.1</ele>
        <time>2012-03-14T11:28:24Z</time>
      </trkpt>
      <trkpt lat="46.13121" lon="6.78076">
        <ele>2110.6</ele>
        <time>2012-03-14T11:28:43Z</time>
      </trkpt>
      <trkpt lat="46.13125" lon="6.78088">
        <ele>2111.4</ele>
        <time>2012-03-14T11:29:02Z</time>
      </trkpt>
      <trkpt lat="46.1313" lon="6.78099">
        <ele>2113.5</ele>
        <time>2012-03-14T11:29:22Z</time>
      </trkpt>
      <trkpt lat="46.13132" lon="6.78111">
        <ele>2114.1</ele>
        <time>2012-03-14T11:29:42Z</time>
      </trkpt>
      <trkpt lat="46.13135" lon="6.78123">
        <ele>2116.4</ele>
        <time>2012-03-14T11:30:01Z</time>
      </trkpt>
      <trkpt lat="46.1314" lon="6.78134">
        <ele>2119.1</ele>
        <time>2012-03-14T11:30:22Z</time>
      </trkpt>
      <trkpt lat="46.13145" lon="6.78145">
        <ele>2121.1</ele>
        <time>2012-03-14T11:30:42Z</time>
      </trkpt>
      <trkpt lat="46.1315" lon="6.78156">
        <ele>2124.1</ele>
        <time>2012-03-14T11:31:02Z</time>
      </trkpt>
      <trkpt lat="46.13152" lon="6.78169">
        <ele>2126.7</ele>
        <time>2012-03-14T11:31:22Z</time>
      </trkpt>
      <trkpt lat="46.13153" lon="6.78181">
        <ele>2129.1</ele>
        <time>2012-03-14T11:31:42Z</time>
      </trkpt>
      <trkpt lat="46.13155" lon="6.78194">
        <ele>2131.7</ele>
        <time>2012-03-14T11:32:00Z</time>
      </trkpt>
      <trkpt lat="46.13157" lon="6.78207">
        <ele>2134.4</ele>
        <time>2012-03-14T11:32:19Z</time>
      </trkpt>
      <trkpt lat="46.13157" lon="6.78219">
        <ele>2136.9</ele>
        <time>2012-03-14T11:32:38Z</time>
      </trkpt>
      <trkpt lat="46.13156" lon="6.78233">
        <ele>2138.9</ele>
        <time>2012-03-14T11:32:56Z</time>
      </trkpt>
      <trkpt lat="46.13157" lon="6.78246">
        <ele>2141.3</ele>
        <time>2012-03-14T11:33:14Z</time>
      </trkpt>
      <trkpt lat="46.1316" lon="6.78258">
        <ele>2143</ele>
        <time>2012-03-14T11:33:31Z</time>
      </trkpt>
      <trkpt lat="46.13161" lon="6.78271">
        <ele>2144.9</ele>
        <time>2012-03-14T11:33:49Z</time>
      </trkpt>
      <trkpt lat="46.13163" lon="6.78285">
        <ele>2146.9</ele>
        <time>2012-03-14T11:34:06Z</time>
      </trkpt>
      <trkpt lat="46.13165" lon="6.78297">
        <ele>2148.2</ele>
        <time>2012-03-14T11:34:23Z</time>
      </trkpt>
      <trkpt lat="46.13169" lon="6.78309">
        <ele>2149.4</ele>
        <time>2012-03-14T11:34:37Z</time>
      </trkpt>
      <trkpt lat="46.13171" lon="6.78322">
        <ele>2151.2</ele>
        <time>2012-03-14T11:34:55Z</time>
      </trkpt>
      <trkpt lat="46.13175" lon="6.78334">
        <ele>2151.7</ele>
        <time>2012-03-14T11:35:11Z</time>
      </trkpt>
      <trkpt lat="46.13179" lon="6.78347">
        <ele>2153.5</ele>
        <time>2012-03-14T11:35:27Z</time>
      </trkpt>
      <trkpt lat="46.13182" lon="6.78359">
        <ele>2154.9</ele>
        <time>2012-03-14T11:35:50Z</time>
      </trkpt>
      <trkpt lat="46.13187" lon="6.7837">
        <ele>2156.7</ele>
        <time>2012-03-14T11:36:06Z</time>
      </trkpt>
      <trkpt lat="46.13192" lon="6.78383">
        <ele>2157</ele>
        <time>2012-03-14T11:36:20Z</time>
      </trkpt>
      <trkpt lat="46.13197" lon="6.78394">
        <ele>2156.9</ele>
        <time>2012-03-14T11:36:30Z</time>
      </trkpt>
      <trkpt lat="46.13202" lon="6.78405">
        <ele>2156.9</ele>
        <time>2012-03-14T11:36:41Z</time>
      </trkpt>
      <trkpt lat="46.13205" lon="6.78418">
        <ele>2157.9</ele>
        <time>2012-03-14T11:36:53Z</time>
      </trkpt>
      <trkpt lat="46.13208" lon="6.78431">
        <ele>2159</ele>
        <time>2012-03-14T11:37:07Z</time>
      </trkpt>
      <trkpt lat="46.1321" lon="6.78444">
        <ele>2160.2</ele>
        <time>2012-03-14T11:37:21Z</time>
      </trkpt>
      <trkpt lat="46.13212" lon="6.78458">
        <ele>2161.9</ele>
        <time>2012-03-14T11:37:36Z</time>
      </trkpt>
      <trkpt lat="46.13213" lon="6.78471">
        <ele>2163.5</ele>
        <time>2012-03-14T11:37:51Z</time>
      </trkpt>
      <trkpt lat="46.13215" lon="6.78483">
        <ele>2165.8</ele>
        <time>2012-03-14T11:38:06Z</time>
      </trkpt>
      <trkpt lat="46.13217" lon="6.78496">
        <ele>2168.3</ele>
        <time>2012-03-14T11:38:22Z</time>
      </trkpt>
      <trkpt lat="46.13219" lon="6.78509">
        <ele>2169.4</ele>
        <time>2012-03-14T11:38:37Z</time>
      </trkpt>
      <trkpt lat="46.13223" lon="6.78522">
        <ele>2170.4</ele>
        <time>2012-03-14T11:38:51Z</time>
      </trkpt>
      <trkpt lat="46.13229" lon="6.78533">
        <ele>2171</ele>
        <time>2012-03-14T11:39:38Z</time>
      </trkpt>
      <trkpt lat="46.13235" lon="6.78544">
        <ele>2170.6</ele>
        <time>2012-03-14T11:39:45Z</time>
      </trkpt>
      <trkpt lat="46.13241" lon="6.78554">
        <ele>2170.4</ele>
        <time>2012-03-14T11:39:53Z</time>
      </trkpt>
      <trkpt lat="46.13246" lon="6.78566">
        <ele>2171</ele>
        <time>2012-03-14T11:40:03Z</time>
      </trkpt>
      <trkpt lat="46.1325" lon="6.78577">
        <ele>2173.7</ele>
        <time>2012-03-14T11:40:17Z</time>
      </trkpt>
      <trkpt lat="46.13252" lon="6.7859">
        <ele>2174</ele>
        <time>2012-03-14T11:40:30Z</time>
      </trkpt>
      <trkpt lat="46.13255" lon="6.78603">
        <ele>2174.8</ele>
        <time>2012-03-14T11:40:44Z</time>
      </trkpt>
      <trkpt lat="46.13258" lon="6.78616">
        <ele>2175</ele>
        <time>2012-03-14T11:40:57Z</time>
      </trkpt>
      <trkpt lat="46.13262" lon="6.78629">
        <ele>2174.5</ele>
        <time>2012-03-14T11:41:09Z</time>
      </trkpt>
      <trkpt lat="46.1326" lon="6.78641">
        <ele>2172.9</ele>
        <time>2012-03-14T11:41:17Z</time>
      </trkpt>
      <trkpt lat="46.13258" lon="6.78654">
        <ele>2173.9</ele>
        <time>2012-03-14T11:41:30Z</time>
      </trkpt>
      <trkpt lat="46.13258" lon="6.78667">
        <ele>2174.9</ele>
        <time>2012-03-14T11:41:56Z</time>
      </trkpt>
      <trkpt lat="46.13255" lon="6.78678">
        <ele>2178.3</ele>
        <time>2012-03-14T11:42:13Z</time>
      </trkpt>
      <trkpt lat="46.13254" lon="6.78691">
        <ele>2181.3</ele>
        <time>2012-03-14T11:42:31Z</time>
      </trkpt>
      <trkpt lat="46.13254" lon="6.78703">
        <ele>2186</ele>
        <time>2012-03-14T11:42:51Z</time>
      </trkpt>
      <trkpt lat="46.13254" lon="6.78716">
        <ele>2188.2</ele>
        <time>2012-03-14T11:43:10Z</time>
      </trkpt>
      <trkpt lat="46.13257" lon="6.78727">
        <ele>2191.6</ele>
        <time>2012-03-14T11:43:30Z</time>
      </trkpt>
      <trkpt lat="46.1326" lon="6.78739">
        <ele>2194.5</ele>
        <time>2012-03-14T11:43:51Z</time>
      </trkpt>
      <trkpt lat="46.13263" lon="6.78752">
        <ele>2196.5</ele>
        <time>2012-03-14T11:44:09Z</time>
      </trkpt>
      <trkpt lat="46.13266" lon="6.78765">
        <ele>2198</ele>
        <time>2012-03-14T11:44:29Z</time>
      </trkpt>
      <trkpt lat="46.13268" lon="6.78777">
        <ele>2199</ele>
        <time>2012-03-14T11:44:44Z</time>
      </trkpt>
      <trkpt lat="46.1327" lon="6.7879">
        <ele>2200.4</ele>
        <time>2012-03-14T11:45:00Z</time>
      </trkpt>
      <trkpt lat="46.13272" lon="6.78803">
        <ele>2201.3</ele>
        <time>2012-03-14T11:45:14Z</time>
      </trkpt>
      <trkpt lat="46.13275" lon="6.78816">
        <ele>2202</ele>
        <time>2012-03-14T11:45:27Z</time>
      </trkpt>
      <trkpt lat="46.13278" lon="6.78829">
        <ele>2202.5</ele>
        <time>2012-03-14T11:45:41Z</time>
      </trkpt>
      <trkpt lat="46.13281" lon="6.78842">
        <ele>2203.1</ele>
        <time>2012-03-14T11:45:54Z</time>
      </trkpt>
      <trkpt lat="46.13285" lon="6.78854">
        <ele>2203.6</ele>
        <time>2012-03-14T11:46:07Z</time>
      </trkpt>
      <trkpt lat="46.13285" lon="6.78867">
        <ele>2204.1</ele>
        <time>2012-03-14T11:46:18Z</time>
      </trkpt>
      <trkpt lat="46.13283" lon="6.78881">
        <ele>2205.5</ele>
        <time>2012-03-14T11:46:32Z</time>
      </trkpt>
      <trkpt lat="46.13282" lon="6.78894">
        <ele>2206.5</ele>
        <time>2012-03-14T11:46:46Z</time>
      </trkpt>
      <trkpt lat="46.13281" lon="6.78907">
        <ele>2206.6</ele>
        <time>2012-03-14T11:47:37Z</time>
      </trkpt>
      <trkpt lat="46.1328" lon="6.78921">
        <ele>2207.3</ele>
        <time>2012-03-14T11:47:47Z</time>
      </trkpt>
      <trkpt lat="46.13279" lon="6.78935">
        <ele>2208.8</ele>
        <time>2012-03-14T11:47:58Z</time>
      </trkpt>
      <trkpt lat="46.13279" lon="6.78947">
        <ele>2210.3</ele>
        <time>2012-03-14T11:48:10Z</time>
      </trkpt>
      <trkpt lat="46.1328" lon="6.7896">
        <ele>2211.8</ele>
        <time>2012-03-14T11:48:25Z</time>
      </trkpt>
      <trkpt lat="46.13282" lon="6.78974">
        <ele>2213.5</ele>
        <time>2012-03-14T11:48:43Z</time>
      </trkpt>
      <trkpt lat="46.13286" lon="6.78986">
        <ele>2214.3</ele>
        <time>2012-03-14T11:48:57Z</time>
      </trkpt>
      <trkpt lat="46.13289" lon="6.78999">
        <ele>2216</ele>
        <time>2012-03-14T11:49:13Z</time>
      </trkpt>
      <trkpt lat="46.13291" lon="6.79011">
        <ele>2217.3</ele>
        <time>2012-03-14T11:49:28Z</time>
      </trkpt>
      <trkpt lat="46.13293" lon="6.79024">
        <ele>2219.5</ele>
        <time>2012-03-14T11:49:45Z</time>
      </trkpt>
      <trkpt lat="46.13295" lon="6.79036">
        <ele>2223</ele>
        <time>2012-03-14T11:50:03Z</time>
      </trkpt>
      <trkpt lat="46.13295" lon="6.79048">
        <ele>2226.6</ele>
        <time>2012-03-14T11:50:23Z</time>
      </trkpt>
      <trkpt lat="46.13297" lon="6.7906">
        <ele>2229.4</ele>
        <time>2012-03-14T11:50:43Z</time>
      </trkpt>
      <trkpt lat="46.13303" lon="6.79068">
        <ele>2232.6</ele>
        <time>2012-03-14T11:51:06Z</time>
      </trkpt>
      <trkpt lat="46.13312" lon="6.79071">
        <ele>2235</ele>
        <time>2012-03-14T11:51:26Z</time>
      </trkpt>
      <trkpt lat="46.13321" lon="6.79076">
        <ele>2237.3</ele>
        <time>2012-03-14T11:51:45Z</time>
      </trkpt>
      <trkpt lat="46.1333" lon="6.7908">
        <ele>2239.5</ele>
        <time>2012-03-14T11:52:04Z</time>
      </trkpt>
      <trkpt lat="46.13338" lon="6.79086">
        <ele>2240</ele>
        <time>2012-03-14T11:52:24Z</time>
      </trkpt>
      <trkpt lat="46.13339" lon="6.79099">
        <ele>2242</ele>
        <time>2012-03-14T11:53:10Z</time>
      </trkpt>
      <trkpt lat="46.13343" lon="6.79111">
        <ele>2244</ele>
        <time>2012-03-14T11:53:26Z</time>
      </trkpt>
      <trkpt lat="46.13345" lon="6.79123">
        <ele>2246.3</ele>
        <time>2012-03-14T11:53:44Z</time>
      </trkpt>
      <trkpt lat="46.1335" lon="6.79134">
        <ele>2249.5</ele>
        <time>2012-03-14T11:54:01Z</time>
      </trkpt>
      <trkpt lat="46.13354" lon="6.79146">
        <ele>2251</ele>
        <time>2012-03-14T11:54:18Z</time>
      </trkpt>
      <trkpt lat="46.13358" lon="6.79158">
        <ele>2252.9</ele>
        <time>2012-03-14T11:54:35Z</time>
      </trkpt>
      <trkpt lat="46.13362" lon="6.79169">
        <ele>2254.8</ele>
        <time>2012-03-14T11:54:52Z</time>
      </trkpt>
      <trkpt lat="46.13367" lon="6.79181">
        <ele>2257</ele>
        <time>2012-03-14T11:55:09Z</time>
      </trkpt>
      <trkpt lat="46.13372" lon="6.79192">
        <ele>2259.6</ele>
        <time>2012-03-14T11:55:29Z</time>
      </trkpt>
      <trkpt lat="46.13376" lon="6.79203">
        <ele>2261.4</ele>
        <time>2012-03-14T11:55:47Z</time>
      </trkpt>
      <trkpt lat="46.13382" lon="6.79214">
        <ele>2263.5</ele>
        <time>2012-03-14T11:56:06Z</time>
      </trkpt>
      <trkpt lat="46.13387" lon="6.79225">
        <ele>2265.1</ele>
        <time>2012-03-14T11:56:25Z</time>
      </trkpt>
      <trkpt lat="46.13392" lon="6.79235">
        <ele>2267.9</ele>
        <time>2012-03-14T11:56:44Z</time>
      </trkpt>
      <trkpt lat="46.13397" lon="6.79246">
        <ele>2270.8</ele>
        <time>2012-03-14T11:57:05Z</time>
      </trkpt>
      <trkpt lat="46.13402" lon="6.79256">
        <ele>2273.2</ele>
        <time>2012-03-14T11:57:25Z</time>
      </trkpt>
      <trkpt lat="46.13408" lon="6.79267">
        <ele>2274.8</ele>
        <time>2012-03-14T11:57:44Z</time>
      </trkpt>
      <trkpt lat="46.13412" lon="6.79277">
        <ele>2277.5</ele>
        <time>2012-03-14T11:58:05Z</time>
      </trkpt>
      <trkpt lat="46.13417" lon="6.79288">
        <ele>2279.4</ele>
        <time>2012-03-14T11:58:23Z</time>
      </trkpt>
      <trkpt lat="46.13422" lon="6.79298">
        <ele>2281.6</ele>
        <time>2012-03-14T11:58:42Z</time>
      </trkpt>
      <trkpt lat="46.13427" lon="6.7931">
        <ele>2283.9</ele>
        <time>2012-03-14T11:58:59Z</time>
      </trkpt>
      <trkpt lat="46.13432" lon="6.79319">
        <ele>2286.6</ele>
        <time>2012-03-14T11:59:18Z</time>
      </trkpt>
      <trkpt lat="46.13437" lon="6.7933">
        <ele>2288.4</ele>
        <time>2012-03-14T11:59:36Z</time>
      </trkpt>
      <trkpt lat="46.13443" lon="6.79341">
        <ele>2290</ele>
        <time>2012-03-14T11:59:54Z</time>
      </trkpt>
      <trkpt lat="46.13448" lon="6.79351">
        <ele>2290.8</ele>
        <time>2012-03-14T12:00:09Z</time>
      </trkpt>
      <trkpt lat="46.13453" lon="6.79362">
        <ele>2291.7</ele>
        <time>2012-03-14T12:00:26Z</time>
      </trkpt>
      <trkpt lat="46.13458" lon="6.79373">
        <ele>2294.1</ele>
        <time>2012-03-14T12:00:43Z</time>
      </trkpt>
      <trkpt lat="46.13463" lon="6.79385">
        <ele>2296.2</ele>
        <time>2012-03-14T12:01:00Z</time>
      </trkpt>
      <trkpt lat="46.13468" lon="6.79395">
        <ele>2298.7</ele>
        <time>2012-03-14T12:01:17Z</time>
      </trkpt>
      <trkpt lat="46.13473" lon="6.79405">
        <ele>2301</ele>
        <time>2012-03-14T12:01:35Z</time>
      </trkpt>
      <trkpt lat="46.13478" lon="6.79416">
        <ele>2303</ele>
        <time>2012-03-14T12:01:54Z</time>
      </trkpt>
      <trkpt lat="46.13482" lon="6.79428">
        <ele>2305.4</ele>
        <time>2012-03-14T12:02:14Z</time>
      </trkpt>
      <trkpt lat="46.13489" lon="6.79435">
        <ele>2309.1</ele>
        <time>2012-03-14T12:02:36Z</time>
      </trkpt>
      <trkpt lat="46.13496" lon="6.79443">
        <ele>2311.2</ele>
        <time>2012-03-14T12:02:56Z</time>
      </trkpt>
      <trkpt lat="46.13495" lon="6.79455">
        <ele>2314.8</ele>
        <time>2012-03-14T12:03:22Z</time>
      </trkpt>
      <trkpt lat="46.13491" lon="6.79466">
        <ele>2318.7</ele>
        <time>2012-03-14T12:03:46Z</time>
      </trkpt>
      <trkpt lat="46.1349" lon="6.79478">
        <ele>2321.8</ele>
        <time>2012-03-14T12:04:07Z</time>
      </trkpt>
      <trkpt lat="46.1349" lon="6.7949">
        <ele>2324.5</ele>
        <time>2012-03-14T12:04:31Z</time>
      </trkpt>
      <trkpt lat="46.13492" lon="6.79503">
        <ele>2326.6</ele>
        <time>2012-03-14T12:04:53Z</time>
      </trkpt>
      <trkpt lat="46.13493" lon="6.79516">
        <ele>2328.7</ele>
        <time>2012-03-14T12:05:14Z</time>
      </trkpt>
      <trkpt lat="46.13492" lon="6.79528">
        <ele>2331.2</ele>
        <time>2012-03-14T12:05:33Z</time>
      </trkpt>
      <trkpt lat="46.13491" lon="6.79541">
        <ele>2333.5</ele>
        <time>2012-03-14T12:05:53Z</time>
      </trkpt>
      <trkpt lat="46.1349" lon="6.79554">
        <ele>2335.5</ele>
        <time>2012-03-14T12:06:12Z</time>
      </trkpt>
      <trkpt lat="46.13491" lon="6.79567">
        <ele>2337.5</ele>
        <time>2012-03-14T12:06:31Z</time>
      </trkpt>
      <trkpt lat="46.13493" lon="6.7958">
        <ele>2338.5</ele>
        <time>2012-03-14T12:06:49Z</time>
      </trkpt>
      <trkpt lat="46.13494" lon="6.79593">
        <ele>2340.5</ele>
        <time>2012-03-14T12:07:07Z</time>
      </trkpt>
      <trkpt lat="46.13497" lon="6.79606">
        <ele>2341.2</ele>
        <time>2012-03-14T12:07:23Z</time>
      </trkpt>
      <trkpt lat="46.13499" lon="6.79618">
        <ele>2342.1</ele>
        <time>2012-03-14T12:07:40Z</time>
      </trkpt>
      <trkpt lat="46.13502" lon="6.79631">
        <ele>2343</ele>
        <time>2012-03-14T12:07:56Z</time>
      </trkpt>
      <trkpt lat="46.13504" lon="6.79644">
        <ele>2344.1</ele>
        <time>2012-03-14T12:08:12Z</time>
      </trkpt>
      <trkpt lat="46.13508" lon="6.79657">
        <ele>2345.6</ele>
        <time>2012-03-14T12:08:28Z</time>
      </trkpt>
      <trkpt lat="46.13511" lon="6.79669">
        <ele>2347.9</ele>
        <time>2012-03-14T12:08:44Z</time>
      </trkpt>
      <trkpt lat="46.13514" lon="6.79682">
        <ele>2349.3</ele>
        <time>2012-03-14T12:09:00Z</time>
      </trkpt>
      <trkpt lat="46.13515" lon="6.79694">
        <ele>2351.6</ele>
        <time>2012-03-14T12:09:18Z</time>
      </trkpt>
      <trkpt lat="46.13518" lon="6.79706">
        <ele>2352.9</ele>
        <time>2012-03-14T12:09:34Z</time>
      </trkpt>
      <trkpt lat="46.13521" lon="6.79718">
        <ele>2355</ele>
        <time>2012-03-14T12:09:51Z</time>
      </trkpt>
      <trkpt lat="46.13524" lon="6.79731">
        <ele>2357.6</ele>
        <time>2012-03-14T12:10:09Z</time>
      </trkpt>
      <trkpt lat="46.13527" lon="6.79744">
        <ele>2359.1</ele>
        <time>2012-03-14T12:10:26Z</time>
      </trkpt>
      <trkpt lat="46.13529" lon="6.79756">
        <ele>2360.8</ele>
        <time>2012-03-14T12:10:46Z</time>
      </trkpt>
      <trkpt lat="46.1353" lon="6.79769">
        <ele>2363.4</ele>
        <time>2012-03-14T12:11:07Z</time>
      </trkpt>
      <trkpt lat="46.13532" lon="6.79782">
        <ele>2366.2</ele>
        <time>2012-03-14T12:11:29Z</time>
      </trkpt>
      <trkpt lat="46.13533" lon="6.79795">
        <ele>2368.8</ele>
        <time>2012-03-14T12:11:49Z</time>
      </trkpt>
      <trkpt lat="46.13537" lon="6.79806">
        <ele>2372.3</ele>
        <time>2012-03-14T12:12:13Z</time>
      </trkpt>
      <trkpt lat="46.13544" lon="6.79812">
        <ele>2375.9</ele>
        <time>2012-03-14T12:12:34Z</time>
      </trkpt>
      <trkpt lat="46.13543" lon="6.79824">
        <ele>2380.7</ele>
        <time>2012-03-14T12:12:56Z</time>
      </trkpt>
      <trkpt lat="46.1354" lon="6.79835">
        <ele>2384.6</ele>
        <time>2012-03-14T12:13:15Z</time>
      </trkpt>
      <trkpt lat="46.13537" lon="6.79847">
        <ele>2387.4</ele>
        <time>2012-03-14T12:13:34Z</time>
      </trkpt>
      <trkpt lat="46.13537" lon="6.79861">
        <ele>2389.2</ele>
        <time>2012-03-14T12:13:51Z</time>
      </trkpt>
      <trkpt lat="46.13537" lon="6.79874">
        <ele>2391</ele>
        <time>2012-03-14T12:14:07Z</time>
      </trkpt>
      <trkpt lat="46.13538" lon="6.79887">
        <ele>2393</ele>
        <time>2012-03-14T12:14:23Z</time>
      </trkpt>
      <trkpt lat="46.13539" lon="6.799">
        <ele>2395</ele>
        <time>2012-03-14T12:14:39Z</time>
      </trkpt>
      <trkpt lat="46.13539" lon="6.79913">
        <ele>2397.4</ele>
        <time>2012-03-14T12:14:56Z</time>
      </trkpt>
      <trkpt lat="46.13541" lon="6.79925">
        <ele>2399.3</ele>
        <time>2012-03-14T12:15:59Z</time>
      </trkpt>
      <trkpt lat="46.13544" lon="6.79937">
        <ele>2401.6</ele>
        <time>2012-03-14T12:16:11Z</time>
      </trkpt>
      <trkpt lat="46.13546" lon="6.7995">
        <ele>2403.3</ele>
        <time>2012-03-14T12:16:23Z</time>
      </trkpt>
      <trkpt lat="46.13547" lon="6.79963">
        <ele>2405</ele>
        <time>2012-03-14T12:16:36Z</time>
      </trkpt>
      <trkpt lat="46.13545" lon="6.79977">
        <ele>2406.4</ele>
        <time>2012-03-14T12:16:49Z</time>
      </trkpt>
      <trkpt lat="46.13545" lon="6.79989">
        <ele>2407.9</ele>
        <time>2012-03-14T12:17:02Z</time>
      </trkpt>
      <trkpt lat="46.13547" lon="6.80002">
        <ele>2408.3</ele>
        <time>2012-03-14T12:17:13Z</time>
      </trkpt>
      <trkpt lat="46.1355" lon="6.80015">
        <ele>2408.7</ele>
        <time>2012-03-14T12:17:24Z</time>
      </trkpt>
      <trkpt lat="46.13551" lon="6.80029">
        <ele>2408.9</ele>
        <time>2012-03-14T12:17:35Z</time>
      </trkpt>
      <trkpt lat="46.13552" lon="6.80043">
        <ele>2409.2</ele>
        <time>2012-03-14T12:17:45Z</time>
      </trkpt>
      <trkpt lat="46.13555" lon="6.80056">
        <ele>2408.3</ele>
        <time>2012-03-14T12:17:55Z</time>
      </trkpt>
      <trkpt lat="46.13548" lon="6.80047">
        <ele>2409.2</ele>
        <time>2012-03-14T12:19:09Z</time>
      </trkpt>
      <trkpt lat="46.13549" lon="6.80034">
        <ele>2406.1</ele>
        <time>2012-03-14T12:30:31Z</time>
      </trkpt>
      <trkpt lat="46.13548" lon="6.8002">
        <ele>2406.9</ele>
        <time>2012-03-14T12:30:35Z</time>
      </trkpt>
      <trkpt lat="46.13545" lon="6.80008">
        <ele>2407.3</ele>
        <time>2012-03-14T12:30:40Z</time>
      </trkpt>
      <trkpt lat="46.13543" lon="6.79995">
        <ele>2407.9</ele>
        <time>2012-03-14T12:30:44Z</time>
      </trkpt>
      <trkpt lat="46.13542" lon="6.79982">
        <ele>2408.9</ele>
        <time>2012-03-14T12:30:54Z</time>
      </trkpt>
      <trkpt lat="46.13543" lon="6.79967">
        <ele>2408</ele>
        <time>2012-03-14T12:31:02Z</time>
      </trkpt>
      <trkpt lat="46.13547" lon="6.79952">
        <ele>2406.3</ele>
        <time>2012-03-14T12:31:06Z</time>
      </trkpt>
      <trkpt lat="46.13546" lon="6.79936">
        <ele>2404.6</ele>
        <time>2012-03-14T12:31:10Z</time>
      </trkpt>
      <trkpt lat="46.13547" lon="6.79923">
        <ele>2402.7</ele>
        <time>2012-03-14T12:31:14Z</time>
      </trkpt>
      <trkpt lat="46.13549" lon="6.79909">
        <ele>2401.2</ele>
        <time>2012-03-14T12:31:17Z</time>
      </trkpt>
      <trkpt lat="46.13548" lon="6.79897">
        <ele>2398.9</ele>
        <time>2012-03-14T12:31:20Z</time>
      </trkpt>
      <trkpt lat="46.13545" lon="6.79883">
        <ele>2396.8</ele>
        <time>2012-03-14T12:31:23Z</time>
      </trkpt>
      <trkpt lat="46.13539" lon="6.79868">
        <ele>2393.9</ele>
        <time>2012-03-14T12:31:27Z</time>
      </trkpt>
      <trkpt lat="46.13535" lon="6.79855">
        <ele>2391.1</ele>
        <time>2012-03-14T12:31:31Z</time>
      </trkpt>
      <trkpt lat="46.13536" lon="6.79841">
        <ele>2388.6</ele>
        <time>2012-03-14T12:31:35Z</time>
      </trkpt>
      <trkpt lat="46.1353" lon="6.79829">
        <ele>2385.2</ele>
        <time>2012-03-14T12:31:39Z</time>
      </trkpt>
      <trkpt lat="46.13533" lon="6.79812">
        <ele>2381.6</ele>
        <time>2012-03-14T12:31:42Z</time>
      </trkpt>
      <trkpt lat="46.13537" lon="6.79799">
        <ele>2378.6</ele>
        <time>2012-03-14T12:31:45Z</time>
      </trkpt>
      <trkpt lat="46.1353" lon="6.79791">
        <ele>2375.5</ele>
        <time>2012-03-14T12:31:48Z</time>
      </trkpt>
      <trkpt lat="46.13535" lon="6.79778">
        <ele>2373.5</ele>
        <time>2012-03-14T12:31:51Z</time>
      </trkpt>
      <trkpt lat="46.13533" lon="6.79761">
        <ele>2369</ele>
        <time>2012-03-14T12:31:54Z</time>
      </trkpt>
      <trkpt lat="46.13525" lon="6.79746">
        <ele>2364.6</ele>
        <time>2012-03-14T12:31:57Z</time>
      </trkpt>
      <trkpt lat="46.13526" lon="6.79729">
        <ele>2362.3</ele>
        <time>2012-03-14T12:32:00Z</time>
      </trkpt>
      <trkpt lat="46.13521" lon="6.79719">
        <ele>2359.4</ele>
        <time>2012-03-14T12:40:42Z</time>
      </trkpt>
      <trkpt lat="46.13517" lon="6.79705">
        <ele>2356.7</ele>
        <time>2012-03-14T12:40:46Z</time>
      </trkpt>
      <trkpt lat="46.13516" lon="6.79691">
        <ele>2354.7</ele>
        <time>2012-03-14T12:40:49Z</time>
      </trkpt>
      <trkpt lat="46.13512" lon="6.79678">
        <ele>2352.8</ele>
        <time>2012-03-14T12:40:52Z</time>
      </trkpt>
      <trkpt lat="46.13513" lon="6.79662">
        <ele>2351.1</ele>
        <time>2012-03-14T12:40:55Z</time>
      </trkpt>
      <trkpt lat="46.13506" lon="6.79651">
        <ele>2350.1</ele>
        <time>2012-03-14T12:40:58Z</time>
      </trkpt>
      <trkpt lat="46.13505" lon="6.79636">
        <ele>2348.8</ele>
        <time>2012-03-14T12:41:01Z</time>
      </trkpt>
      <trkpt lat="46.13503" lon="6.79622">
        <ele>2347</ele>
        <time>2012-03-14T12:41:04Z</time>
      </trkpt>
      <trkpt lat="46.13497" lon="6.79611">
        <ele>2345.2</ele>
        <time>2012-03-14T12:41:07Z</time>
      </trkpt>
      <trkpt lat="46.13493" lon="6.79599">
        <ele>2343.1</ele>
        <time>2012-03-14T12:41:10Z</time>
      </trkpt>
      <trkpt lat="46.13492" lon="6.79585">
        <ele>2340.9</ele>
        <time>2012-03-14T12:41:13Z</time>
      </trkpt>
      <trkpt lat="46.1349" lon="6.79569">
        <ele>2338.3</ele>
        <time>2012-03-14T12:41:16Z</time>
      </trkpt>
      <trkpt lat="46.13488" lon="6.79554">
        <ele>2335.7</ele>
        <time>2012-03-14T12:41:19Z</time>
      </trkpt>
      <trkpt lat="46.1349" lon="6.79538">
        <ele>2333.6</ele>
        <time>2012-03-14T12:41:22Z</time>
      </trkpt>
      <trkpt lat="46.13492" lon="6.79522">
        <ele>2331</ele>
        <time>2012-03-14T12:41:25Z</time>
      </trkpt>
      <trkpt lat="46.13489" lon="6.79508">
        <ele>2327.7</ele>
        <time>2012-03-14T12:41:28Z</time>
      </trkpt>
      <trkpt lat="46.1349" lon="6.79494">
        <ele>2325.2</ele>
        <time>2012-03-14T12:41:31Z</time>
      </trkpt>
      <trkpt lat="46.13483" lon="6.79482">
        <ele>2320.3</ele>
        <time>2012-03-14T12:41:35Z</time>
      </trkpt>
      <trkpt lat="46.1349" lon="6.79466">
        <ele>2319.3</ele>
        <time>2012-03-14T12:41:38Z</time>
      </trkpt>
      <trkpt lat="46.13495" lon="6.79454">
        <ele>2316.7</ele>
        <time>2012-03-14T12:41:41Z</time>
      </trkpt>
      <trkpt lat="46.13485" lon="6.79449">
        <ele>2312.6</ele>
        <time>2012-03-14T12:41:44Z</time>
      </trkpt>
      <trkpt lat="46.13487" lon="6.79436">
        <ele>2309.5</ele>
        <time>2012-03-14T12:41:46Z</time>
      </trkpt>
      <trkpt lat="46.13482" lon="6.79425">
        <ele>2306.5</ele>
        <time>2012-03-14T12:41:49Z</time>
      </trkpt>
      <trkpt lat="46.13475" lon="6.79414">
        <ele>2303.5</ele>
        <time>2012-03-14T12:41:52Z</time>
      </trkpt>
      <trkpt lat="46.13476" lon="6.79397">
        <ele>2302.1</ele>
        <time>2012-03-14T12:41:55Z</time>
      </trkpt>
      <trkpt lat="46.13467" lon="6.7939">
        <ele>2299.3</ele>
        <time>2012-03-14T12:41:58Z</time>
      </trkpt>
      <trkpt lat="46.13461" lon="6.79378">
        <ele>2296.5</ele>
        <time>2012-03-14T12:42:01Z</time>
      </trkpt>
      <trkpt lat="46.13456" lon="6.79363">
        <ele>2294.6</ele>
        <time>2012-03-14T12:42:04Z</time>
      </trkpt>
      <trkpt lat="46.13454" lon="6.79347">
        <ele>2293</ele>
        <time>2012-03-14T12:42:07Z</time>
      </trkpt>
      <trkpt lat="46.1345" lon="6.79332">
        <ele>2291.7</ele>
        <time>2012-03-14T12:42:10Z</time>
      </trkpt>
      <trkpt lat="46.13443" lon="6.79323">
        <ele>2290.1</ele>
        <time>2012-03-14T12:42:13Z</time>
      </trkpt>
      <trkpt lat="46.13438" lon="6.7931">
        <ele>2288.7</ele>
        <time>2012-03-14T12:42:16Z</time>
      </trkpt>
      <trkpt lat="46.13431" lon="6.79297">
        <ele>2285.9</ele>
        <time>2012-03-14T12:42:20Z</time>
      </trkpt>
      <trkpt lat="46.13421" lon="6.79288">
        <ele>2282</ele>
        <time>2012-03-14T12:42:24Z</time>
      </trkpt>
      <trkpt lat="46.13413" lon="6.79279">
        <ele>2278.7</ele>
        <time>2012-03-14T12:42:27Z</time>
      </trkpt>
      <trkpt lat="46.13409" lon="6.79263">
        <ele>2276</ele>
        <time>2012-03-14T12:42:30Z</time>
      </trkpt>
      <trkpt lat="46.13405" lon="6.79251">
        <ele>2274</ele>
        <time>2012-03-14T12:42:33Z</time>
      </trkpt>
      <trkpt lat="46.13395" lon="6.79242">
        <ele>2269.9</ele>
        <time>2012-03-14T12:42:37Z</time>
      </trkpt>
      <trkpt lat="46.13391" lon="6.79227">
        <ele>2268.1</ele>
        <time>2012-03-14T12:42:39Z</time>
      </trkpt>
      <trkpt lat="46.13388" lon="6.79212">
        <ele>2266.7</ele>
        <time>2012-03-14T12:42:41Z</time>
      </trkpt>
      <trkpt lat="46.1338" lon="6.79201">
        <ele>2263.4</ele>
        <time>2012-03-14T12:42:44Z</time>
      </trkpt>
      <trkpt lat="46.13375" lon="6.79189">
        <ele>2261.4</ele>
        <time>2012-03-14T12:42:46Z</time>
      </trkpt>
      <trkpt lat="46.13371" lon="6.79175">
        <ele>2258.9</ele>
        <time>2012-03-14T12:42:49Z</time>
      </trkpt>
      <trkpt lat="46.13364" lon="6.79167">
        <ele>2256</ele>
        <time>2012-03-14T12:42:52Z</time>
      </trkpt>
      <trkpt lat="46.13355" lon="6.79157">
        <ele>2253.4</ele>
        <time>2012-03-14T12:42:55Z</time>
      </trkpt>
      <trkpt lat="46.1335" lon="6.79142">
        <ele>2251.4</ele>
        <time>2012-03-14T12:42:58Z</time>
      </trkpt>
      <trkpt lat="46.13341" lon="6.79137">
        <ele>2248.7</ele>
        <time>2012-03-14T12:43:01Z</time>
      </trkpt>
      <trkpt lat="46.13336" lon="6.79125">
        <ele>2246.7</ele>
        <time>2012-03-14T12:43:04Z</time>
      </trkpt>
      <trkpt lat="46.13326" lon="6.79118">
        <ele>2243.9</ele>
        <time>2012-03-14T12:43:07Z</time>
      </trkpt>
      <trkpt lat="46.13319" lon="6.79107">
        <ele>2241.5</ele>
        <time>2012-03-14T12:43:10Z</time>
      </trkpt>
      <trkpt lat="46.13314" lon="6.79096">
        <ele>2239.1</ele>
        <time>2012-03-14T12:43:13Z</time>
      </trkpt>
      <trkpt lat="46.13308" lon="6.79085">
        <ele>2236.2</ele>
        <time>2012-03-14T12:43:49Z</time>
      </trkpt>
      <trkpt lat="46.13305" lon="6.79069">
        <ele>2233.4</ele>
        <time>2012-03-14T12:43:52Z</time>
      </trkpt>
      <trkpt lat="46.13299" lon="6.79059">
        <ele>2230.5</ele>
        <time>2012-03-14T12:43:55Z</time>
      </trkpt>
      <trkpt lat="46.13295" lon="6.79046">
        <ele>2226.7</ele>
        <time>2012-03-14T12:43:58Z</time>
      </trkpt>
      <trkpt lat="46.13293" lon="6.7903">
        <ele>2223.4</ele>
        <time>2012-03-14T12:44:01Z</time>
      </trkpt>
      <trkpt lat="46.1329" lon="6.79018">
        <ele>2221.3</ele>
        <time>2012-03-14T12:44:03Z</time>
      </trkpt>
      <trkpt lat="46.13287" lon="6.79004">
        <ele>2219.6</ele>
        <time>2012-03-14T12:44:05Z</time>
      </trkpt>
      <trkpt lat="46.13285" lon="6.78992">
        <ele>2218.2</ele>
        <time>2012-03-14T12:44:07Z</time>
      </trkpt>
      <trkpt lat="46.13282" lon="6.78978">
        <ele>2216.4</ele>
        <time>2012-03-14T12:44:09Z</time>
      </trkpt>
      <trkpt lat="46.13278" lon="6.7896">
        <ele>2214.2</ele>
        <time>2012-03-14T12:44:12Z</time>
      </trkpt>
      <trkpt lat="46.13277" lon="6.78947">
        <ele>2212.9</ele>
        <time>2012-03-14T12:44:14Z</time>
      </trkpt>
      <trkpt lat="46.13274" lon="6.78934">
        <ele>2210.5</ele>
        <time>2012-03-14T12:44:16Z</time>
      </trkpt>
      <trkpt lat="46.13277" lon="6.78919">
        <ele>2209.6</ele>
        <time>2012-03-14T12:44:19Z</time>
      </trkpt>
      <trkpt lat="46.13279" lon="6.78905">
        <ele>2209</ele>
        <time>2012-03-14T12:44:22Z</time>
      </trkpt>
      <trkpt lat="46.1328" lon="6.78888">
        <ele>2208.1</ele>
        <time>2012-03-14T12:44:26Z</time>
      </trkpt>
      <trkpt lat="46.13279" lon="6.78869">
        <ele>2206</ele>
        <time>2012-03-14T12:44:29Z</time>
      </trkpt>
      <trkpt lat="46.13279" lon="6.78852">
        <ele>2204.9</ele>
        <time>2012-03-14T12:44:31Z</time>
      </trkpt>
      <trkpt lat="46.13278" lon="6.78835">
        <ele>2204.5</ele>
        <time>2012-03-14T12:44:33Z</time>
      </trkpt>
      <trkpt lat="46.13276" lon="6.7882">
        <ele>2203.7</ele>
        <time>2012-03-14T12:44:35Z</time>
      </trkpt>
      <trkpt lat="46.13273" lon="6.78803">
        <ele>2202.4</ele>
        <time>2012-03-14T12:44:37Z</time>
      </trkpt>
      <trkpt lat="46.1327" lon="6.78787">
        <ele>2201.2</ele>
        <time>2012-03-14T12:44:39Z</time>
      </trkpt>
      <trkpt lat="46.13267" lon="6.78771">
        <ele>2199.7</ele>
        <time>2012-03-14T12:44:41Z</time>
      </trkpt>
      <trkpt lat="46.13266" lon="6.78756">
        <ele>2198.4</ele>
        <time>2012-03-14T12:44:43Z</time>
      </trkpt>
      <trkpt lat="46.13267" lon="6.78741">
        <ele>2197.2</ele>
        <time>2012-03-14T12:44:45Z</time>
      </trkpt>
      <trkpt lat="46.13262" lon="6.78726">
        <ele>2194</ele>
        <time>2012-03-14T12:44:48Z</time>
      </trkpt>
      <trkpt lat="46.13258" lon="6.7871">
        <ele>2190.6</ele>
        <time>2012-03-14T12:44:51Z</time>
      </trkpt>
      <trkpt lat="46.13256" lon="6.78692">
        <ele>2186.7</ele>
        <time>2012-03-14T12:44:54Z</time>
      </trkpt>
      <trkpt lat="46.13256" lon="6.78676">
        <ele>2183.6</ele>
        <time>2012-03-14T12:44:57Z</time>
      </trkpt>
      <trkpt lat="46.13258" lon="6.78655">
        <ele>2179.4</ele>
        <time>2012-03-14T12:45:00Z</time>
      </trkpt>
      <trkpt lat="46.13259" lon="6.78635">
        <ele>2178.8</ele>
        <time>2012-03-14T12:45:02Z</time>
      </trkpt>
      <trkpt lat="46.13259" lon="6.7862">
        <ele>2179.8</ele>
        <time>2012-03-14T12:45:04Z</time>
      </trkpt>
      <trkpt lat="46.13258" lon="6.78606">
        <ele>2180.2</ele>
        <time>2012-03-14T12:45:07Z</time>
      </trkpt>
      <trkpt lat="46.13256" lon="6.78592">
        <ele>2180.3</ele>
        <time>2012-03-14T12:45:13Z</time>
      </trkpt>
      <trkpt lat="46.13253" lon="6.78577">
        <ele>2179.9</ele>
        <time>2012-03-14T12:45:19Z</time>
      </trkpt>
      <trkpt lat="46.13249" lon="6.78564">
        <ele>2177.4</ele>
        <time>2012-03-14T12:45:22Z</time>
      </trkpt>
      <trkpt lat="46.13244" lon="6.7855">
        <ele>2176.4</ele>
        <time>2012-03-14T12:45:24Z</time>
      </trkpt>
      <trkpt lat="46.13239" lon="6.78538">
        <ele>2175.8</ele>
        <time>2012-03-14T12:45:26Z</time>
      </trkpt>
      <trkpt lat="46.13232" lon="6.78527">
        <ele>2176.1</ele>
        <time>2012-03-14T12:45:31Z</time>
      </trkpt>
      <trkpt lat="46.13228" lon="6.78512">
        <ele>2174.5</ele>
        <time>2012-03-14T12:46:34Z</time>
      </trkpt>
      <trkpt lat="46.1322" lon="6.785">
        <ele>2172.8</ele>
        <time>2012-03-14T12:46:38Z</time>
      </trkpt>
      <trkpt lat="46.13218" lon="6.78485">
        <ele>2170.9</ele>
        <time>2012-03-14T12:46:41Z</time>
      </trkpt>
      <trkpt lat="46.13215" lon="6.78469">
        <ele>2168</ele>
        <time>2012-03-14T12:46:44Z</time>
      </trkpt>
      <trkpt lat="46.13213" lon="6.78453">
        <ele>2165.8</ele>
        <time>2012-03-14T12:46:46Z</time>
      </trkpt>
      <trkpt lat="46.13211" lon="6.78437">
        <ele>2163.8</ele>
        <time>2012-03-14T12:46:48Z</time>
      </trkpt>
      <trkpt lat="46.13207" lon="6.7842">
        <ele>2162.3</ele>
        <time>2012-03-14T12:46:50Z</time>
      </trkpt>
      <trkpt lat="46.13204" lon="6.78401">
        <ele>2160.9</ele>
        <time>2012-03-14T12:46:52Z</time>
      </trkpt>
      <trkpt lat="46.13199" lon="6.78383">
        <ele>2161.1</ele>
        <time>2012-03-14T12:46:54Z</time>
      </trkpt>
      <trkpt lat="46.13194" lon="6.78369">
        <ele>2161.1</ele>
        <time>2012-03-14T12:46:57Z</time>
      </trkpt>
      <trkpt lat="46.13184" lon="6.78359">
        <ele>2159.3</ele>
        <time>2012-03-14T12:47:00Z</time>
      </trkpt>
      <trkpt lat="46.13176" lon="6.78344">
        <ele>2156.8</ele>
        <time>2012-03-14T12:47:03Z</time>
      </trkpt>
      <trkpt lat="46.13172" lon="6.78331">
        <ele>2155.3</ele>
        <time>2012-03-14T12:47:05Z</time>
      </trkpt>
      <trkpt lat="46.13169" lon="6.78318">
        <ele>2153.9</ele>
        <time>2012-03-14T12:47:07Z</time>
      </trkpt>
      <trkpt lat="46.13166" lon="6.78306">
        <ele>2152.1</ele>
        <time>2012-03-14T12:47:09Z</time>
      </trkpt>
      <trkpt lat="46.13163" lon="6.78294">
        <ele>2150.4</ele>
        <time>2012-03-14T12:47:11Z</time>
      </trkpt>
      <trkpt lat="46.1316" lon="6.7828">
        <ele>2148</ele>
        <time>2012-03-14T12:47:13Z</time>
      </trkpt>
      <trkpt lat="46.13159" lon="6.78267">
        <ele>2146</ele>
        <time>2012-03-14T12:47:15Z</time>
      </trkpt>
      <trkpt lat="46.13156" lon="6.7825">
        <ele>2143.7</ele>
        <time>2012-03-14T12:47:18Z</time>
      </trkpt>
      <trkpt lat="46.13154" lon="6.78231">
        <ele>2140.7</ele>
        <time>2012-03-14T12:47:21Z</time>
      </trkpt>
      <trkpt lat="46.13158" lon="6.78217">
        <ele>2139.1</ele>
        <time>2012-03-14T12:47:24Z</time>
      </trkpt>
      <trkpt lat="46.13163" lon="6.78205">
        <ele>2137.5</ele>
        <time>2012-03-14T12:47:27Z</time>
      </trkpt>
      <trkpt lat="46.13156" lon="6.78191">
        <ele>2134.3</ele>
        <time>2012-03-14T12:47:30Z</time>
      </trkpt>
      <trkpt lat="46.13158" lon="6.78173">
        <ele>2131.5</ele>
        <time>2012-03-14T12:47:33Z</time>
      </trkpt>
      <trkpt lat="46.13154" lon="6.7816">
        <ele>2128.9</ele>
        <time>2012-03-14T12:47:36Z</time>
      </trkpt>
      <trkpt lat="46.13155" lon="6.78145">
        <ele>2126.4</ele>
        <time>2012-03-14T12:47:39Z</time>
      </trkpt>
      <trkpt lat="46.1315" lon="6.78134">
        <ele>2122.7</ele>
        <time>2012-03-14T12:47:42Z</time>
      </trkpt>
      <trkpt lat="46.13148" lon="6.78121">
        <ele>2120</ele>
        <time>2012-03-14T12:47:44Z</time>
      </trkpt>
      <trkpt lat="46.13148" lon="6.78107">
        <ele>2119.2</ele>
        <time>2012-03-14T12:47:46Z</time>
      </trkpt>
      <trkpt lat="46.13147" lon="6.78093">
        <ele>2118.1</ele>
        <time>2012-03-14T12:47:48Z</time>
      </trkpt>
      <trkpt lat="46.13147" lon="6.7808">
        <ele>2116.7</ele>
        <time>2012-03-14T12:47:50Z</time>
      </trkpt>
      <trkpt lat="46.13148" lon="6.78064">
        <ele>2114.9</ele>
        <time>2012-03-14T12:47:52Z</time>
      </trkpt>
      <trkpt lat="46.13146" lon="6.78047">
        <ele>2113.6</ele>
        <time>2012-03-14T12:47:54Z</time>
      </trkpt>
      <trkpt lat="46.13148" lon="6.78033">
        <ele>2113.2</ele>
        <time>2012-03-14T12:47:56Z</time>
      </trkpt>
      <trkpt lat="46.13142" lon="6.7802">
        <ele>2110.9</ele>
        <time>2012-03-14T12:48:00Z</time>
      </trkpt>
      <trkpt lat="46.13144" lon="6.78004">
        <ele>2109.2</ele>
        <time>2012-03-14T12:48:04Z</time>
      </trkpt>
      <trkpt lat="46.13142" lon="6.7799">
        <ele>2107.8</ele>
        <time>2012-03-14T12:48:07Z</time>
      </trkpt>
      <trkpt lat="46.13139" lon="6.77977">
        <ele>2106.7</ele>
        <time>2012-03-14T12:48:10Z</time>
      </trkpt>
      <trkpt lat="46.13131" lon="6.77967">
        <ele>2104.6</ele>
        <time>2012-03-14T12:48:14Z</time>
      </trkpt>
      <trkpt lat="46.13126" lon="6.77981">
        <ele>2102.8</ele>
        <time>2012-03-14T12:48:20Z</time>
      </trkpt>
      <trkpt lat="46.13121" lon="6.77993">
        <ele>2100.7</ele>
        <time>2012-03-14T12:48:24Z</time>
      </trkpt>
      <trkpt lat="46.13114" lon="6.77987">
        <ele>2096.6</ele>
        <time>2012-03-14T12:48:29Z</time>
      </trkpt>
      <trkpt lat="46.13107" lon="6.77978">
        <ele>2092.3</ele>
        <time>2012-03-14T12:48:32Z</time>
      </trkpt>
      <trkpt lat="46.131" lon="6.77989">
        <ele>2090.4</ele>
        <time>2012-03-14T12:48:35Z</time>
      </trkpt>
      <trkpt lat="46.13095" lon="6.77975">
        <ele>2088</ele>
        <time>2012-03-14T12:48:39Z</time>
      </trkpt>
      <trkpt lat="46.13096" lon="6.77975">
        <ele>2078.2</ele>
        <time>2012-03-14T13:28:43Z</time>
      </trkpt>
      <trkpt lat="46.13093" lon="6.77961">
        <ele>2075.3</ele>
        <time>2012-03-14T13:29:06Z</time>
      </trkpt>
      <trkpt lat="46.13089" lon="6.77945">
        <ele>2072.4</ele>
        <time>2012-03-14T13:29:08Z</time>
      </trkpt>
      <trkpt lat="46.13083" lon="6.77926">
        <ele>2069.7</ele>
        <time>2012-03-14T13:29:10Z</time>
      </trkpt>
      <trkpt lat="46.13077" lon="6.77907">
        <ele>2068.2</ele>
        <time>2012-03-14T13:29:12Z</time>
      </trkpt>
      <trkpt lat="46.13071" lon="6.7789">
        <ele>2066.9</ele>
        <time>2012-03-14T13:29:14Z</time>
      </trkpt>
      <trkpt lat="46.13066" lon="6.77875">
        <ele>2065.6</ele>
        <time>2012-03-14T13:29:16Z</time>
      </trkpt>
      <trkpt lat="46.13063" lon="6.77861">
        <ele>2064.5</ele>
        <time>2012-03-14T13:29:18Z</time>
      </trkpt>
      <trkpt lat="46.13059" lon="6.77848">
        <ele>2063.2</ele>
        <time>2012-03-14T13:29:20Z</time>
      </trkpt>
      <trkpt lat="46.13056" lon="6.77835">
        <ele>2062</ele>
        <time>2012-03-14T13:29:22Z</time>
      </trkpt>
      <trkpt lat="46.13052" lon="6.77818">
        <ele>2060.5</ele>
        <time>2012-03-14T13:29:25Z</time>
      </trkpt>
      <trkpt lat="46.13048" lon="6.77805">
        <ele>2058.1</ele>
        <time>2012-03-14T13:29:29Z</time>
      </trkpt>
      <trkpt lat="46.13044" lon="6.7779">
        <ele>2056.2</ele>
        <time>2012-03-14T13:29:32Z</time>
      </trkpt>
      <trkpt lat="46.13042" lon="6.77777">
        <ele>2054.3</ele>
        <time>2012-03-14T13:29:35Z</time>
      </trkpt>
      <trkpt lat="46.13033" lon="6.77772">
        <ele>2049.6</ele>
        <time>2012-03-14T13:29:39Z</time>
      </trkpt>
      <trkpt lat="46.13024" lon="6.77764">
        <ele>2046.3</ele>
        <time>2012-03-14T13:29:42Z</time>
      </trkpt>
      <trkpt lat="46.13026" lon="6.77749">
        <ele>2044.9</ele>
        <time>2012-03-14T13:29:46Z</time>
      </trkpt>
      <trkpt lat="46.13026" lon="6.77737">
        <ele>2041.4</ele>
        <time>2012-03-14T13:30:03Z</time>
      </trkpt>
      <trkpt lat="46.13016" lon="6.7773">
        <ele>2036.6</ele>
        <time>2012-03-14T13:30:06Z</time>
      </trkpt>
      <trkpt lat="46.13006" lon="6.77724">
        <ele>2031.7</ele>
        <time>2012-03-14T13:30:09Z</time>
      </trkpt>
      <trkpt lat="46.13" lon="6.77714">
        <ele>2026.6</ele>
        <time>2012-03-14T13:30:12Z</time>
      </trkpt>
      <trkpt lat="46.12991" lon="6.77715">
        <ele>2022.1</ele>
        <time>2012-03-14T13:30:14Z</time>
      </trkpt>
      <trkpt lat="46.12986" lon="6.77699">
        <ele>2014.7</ele>
        <time>2012-03-14T13:30:17Z</time>
      </trkpt>
      <trkpt lat="46.12991" lon="6.77682">
        <ele>2014.4</ele>
        <time>2012-03-14T13:30:20Z</time>
      </trkpt>
      <trkpt lat="46.12982" lon="6.77673">
        <ele>2007.8</ele>
        <time>2012-03-14T13:30:24Z</time>
      </trkpt>
      <trkpt lat="46.12981" lon="6.77659">
        <ele>2003.6</ele>
        <time>2012-03-14T13:30:27Z</time>
      </trkpt>
      <trkpt lat="46.12971" lon="6.77652">
        <ele>1998.9</ele>
        <time>2012-03-14T13:30:30Z</time>
      </trkpt>
      <trkpt lat="46.12972" lon="6.77639">
        <ele>1995.2</ele>
        <time>2012-03-14T13:30:32Z</time>
      </trkpt>
      <trkpt lat="46.12963" lon="6.7763">
        <ele>1990.4</ele>
        <time>2012-03-14T13:30:35Z</time>
      </trkpt>
      <trkpt lat="46.12965" lon="6.77614">
        <ele>1986.4</ele>
        <time>2012-03-14T13:30:38Z</time>
      </trkpt>
      <trkpt lat="46.12972" lon="6.77604">
        <ele>1984.1</ele>
        <time>2012-03-14T13:30:40Z</time>
      </trkpt>
      <trkpt lat="46.1298" lon="6.77593">
        <ele>1981.7</ele>
        <time>2012-03-14T13:30:42Z</time>
      </trkpt>
      <trkpt lat="46.1299" lon="6.77581">
        <ele>1979.1</ele>
        <time>2012-03-14T13:30:44Z</time>
      </trkpt>
      <trkpt lat="46.13" lon="6.77567">
        <ele>1976.5</ele>
        <time>2012-03-14T13:30:46Z</time>
      </trkpt>
      <trkpt lat="46.13011" lon="6.77553">
        <ele>1973.8</ele>
        <time>2012-03-14T13:30:48Z</time>
      </trkpt>
      <trkpt lat="46.13021" lon="6.7754">
        <ele>1973.7</ele>
        <time>2012-03-14T13:30:50Z</time>
      </trkpt>
      <trkpt lat="46.13029" lon="6.77532">
        <ele>1973.1</ele>
        <time>2012-03-14T13:30:52Z</time>
      </trkpt>
      <trkpt lat="46.13038" lon="6.77524">
        <ele>1971.8</ele>
        <time>2012-03-14T13:30:55Z</time>
      </trkpt>
      <trkpt lat="46.13047" lon="6.77515">
        <ele>1968.7</ele>
        <time>2012-03-14T13:32:21Z</time>
      </trkpt>
      <trkpt lat="46.13047" lon="6.77502">
        <ele>1964.5</ele>
        <time>2012-03-14T13:32:24Z</time>
      </trkpt>
      <trkpt lat="46.1305" lon="6.7749">
        <ele>1961.6</ele>
        <time>2012-03-14T13:32:26Z</time>
      </trkpt>
      <trkpt lat="46.13053" lon="6.77477">
        <ele>1955.9</ele>
        <time>2012-03-14T13:32:28Z</time>
      </trkpt>
      <trkpt lat="46.13044" lon="6.77466">
        <ele>1953</ele>
        <time>2012-03-14T13:32:30Z</time>
      </trkpt>
      <trkpt lat="46.1304" lon="6.77451">
        <ele>1949.9</ele>
        <time>2012-03-14T13:32:32Z</time>
      </trkpt>
      <trkpt lat="46.13038" lon="6.77435">
        <ele>1946</ele>
        <time>2012-03-14T13:32:34Z</time>
      </trkpt>
      <trkpt lat="46.13035" lon="6.7742">
        <ele>1941.9</ele>
        <time>2012-03-14T13:32:36Z</time>
      </trkpt>
      <trkpt lat="46.13035" lon="6.77405">
        <ele>1937.6</ele>
        <time>2012-03-14T13:32:38Z</time>
      </trkpt>
      <trkpt lat="46.13034" lon="6.77391">
        <ele>1934.1</ele>
        <time>2012-03-14T13:32:40Z</time>
      </trkpt>
      <trkpt lat="46.13033" lon="6.77379">
        <ele>1930.3</ele>
        <time>2012-03-14T13:32:42Z</time>
      </trkpt>
      <trkpt lat="46.13029" lon="6.77365">
        <ele>1926.1</ele>
        <time>2012-03-14T13:32:45Z</time>
      </trkpt>
      <trkpt lat="46.13034" lon="6.77352">
        <ele>1921.8</ele>
        <time>2012-03-14T13:32:48Z</time>
      </trkpt>
      <trkpt lat="46.13031" lon="6.77338">
        <ele>1917.3</ele>
        <time>2012-03-14T13:32:51Z</time>
      </trkpt>
      <trkpt lat="46.1303" lon="6.77324">
        <ele>1912.8</ele>
        <time>2012-03-14T13:32:54Z</time>
      </trkpt>
      <trkpt lat="46.13024" lon="6.77311">
        <ele>1909.1</ele>
        <time>2012-03-14T13:32:57Z</time>
      </trkpt>
      <trkpt lat="46.13029" lon="6.773">
        <ele>1905.6</ele>
        <time>2012-03-14T13:33:00Z</time>
      </trkpt>
      <trkpt lat="46.13038" lon="6.77294">
        <ele>1901.2</ele>
        <time>2012-03-14T13:34:33Z</time>
      </trkpt>
      <trkpt lat="46.13047" lon="6.77288">
        <ele>1898.8</ele>
        <time>2012-03-14T13:34:35Z</time>
      </trkpt>
      <trkpt lat="46.13058" lon="6.77279">
        <ele>1896.5</ele>
        <time>2012-03-14T13:34:37Z</time>
      </trkpt>
      <trkpt lat="46.13061" lon="6.77266">
        <ele>1893.8</ele>
        <time>2012-03-14T13:34:39Z</time>
      </trkpt>
      <trkpt lat="46.1305" lon="6.77256">
        <ele>1891.1</ele>
        <time>2012-03-14T13:34:41Z</time>
      </trkpt>
      <trkpt lat="46.13047" lon="6.7724">
        <ele>1886.8</ele>
        <time>2012-03-14T13:34:43Z</time>
      </trkpt>
      <trkpt lat="46.13056" lon="6.77227">
        <ele>1883.2</ele>
        <time>2012-03-14T13:34:45Z</time>
      </trkpt>
      <trkpt lat="46.13058" lon="6.77211">
        <ele>1878.8</ele>
        <time>2012-03-14T13:34:47Z</time>
      </trkpt>
      <trkpt lat="46.13051" lon="6.77198">
        <ele>1875.9</ele>
        <time>2012-03-14T13:34:49Z</time>
      </trkpt>
      <trkpt lat="46.13056" lon="6.77185">
        <ele>1873.3</ele>
        <time>2012-03-14T13:34:51Z</time>
      </trkpt>
      <trkpt lat="46.13063" lon="6.77173">
        <ele>1870.9</ele>
        <time>2012-03-14T13:34:53Z</time>
      </trkpt>
      <trkpt lat="46.13057" lon="6.77161">
        <ele>1868.1</ele>
        <time>2012-03-14T13:34:55Z</time>
      </trkpt>
      <trkpt lat="46.13058" lon="6.77148">
        <ele>1865.2</ele>
        <time>2012-03-14T13:34:57Z</time>
      </trkpt>
      <trkpt lat="46.13059" lon="6.77132">
        <ele>1860.7</ele>
        <time>2012-03-14T13:35:00Z</time>
      </trkpt>
      <trkpt lat="46.1305" lon="6.77125">
        <ele>1857.1</ele>
        <time>2012-03-14T13:35:02Z</time>
      </trkpt>
      <trkpt lat="46.1305" lon="6.77112">
        <ele>1852.6</ele>
        <time>2012-03-14T13:35:04Z</time>
      </trkpt>
      <trkpt lat="46.13044" lon="6.77097">
        <ele>1850</ele>
        <time>2012-03-14T13:35:06Z</time>
      </trkpt>
      <trkpt lat="46.13039" lon="6.77083">
        <ele>1846.8</ele>
        <time>2012-03-14T13:35:08Z</time>
      </trkpt>
      <trkpt lat="46.1304" lon="6.77066">
        <ele>1843.7</ele>
        <time>2012-03-14T13:35:10Z</time>
      </trkpt>
      <trkpt lat="46.13031" lon="6.77055">
        <ele>1841.1</ele>
        <time>2012-03-14T13:35:12Z</time>
      </trkpt>
      <trkpt lat="46.13023" lon="6.77047">
        <ele>1839.9</ele>
        <time>2012-03-14T13:35:14Z</time>
      </trkpt>
      <trkpt lat="46.13019" lon="6.77034">
        <ele>1837.7</ele>
        <time>2012-03-14T13:36:45Z</time>
      </trkpt>
      <trkpt lat="46.13009" lon="6.7703">
        <ele>1835.4</ele>
        <time>2012-03-14T13:36:48Z</time>
      </trkpt>
      <trkpt lat="46.12998" lon="6.77023">
        <ele>1833.9</ele>
        <time>2012-03-14T13:36:51Z</time>
      </trkpt>
      <trkpt lat="46.12996" lon="6.77012">
        <ele>1829.9</ele>
        <time>2012-03-14T13:36:54Z</time>
      </trkpt>
      <trkpt lat="46.13004" lon="6.77008">
        <ele>1827.4</ele>
        <time>2012-03-14T13:36:56Z</time>
      </trkpt>
      <trkpt lat="46.13003" lon="6.76992">
        <ele>1823.3</ele>
        <time>2012-03-14T13:36:59Z</time>
      </trkpt>
      <trkpt lat="46.13003" lon="6.7698">
        <ele>1819.1</ele>
        <time>2012-03-14T13:37:02Z</time>
      </trkpt>
      <trkpt lat="46.13005" lon="6.76967">
        <ele>1815.5</ele>
        <time>2012-03-14T13:37:04Z</time>
      </trkpt>
      <trkpt lat="46.13006" lon="6.76949">
        <ele>1813.6</ele>
        <time>2012-03-14T13:37:06Z</time>
      </trkpt>
      <trkpt lat="46.13009" lon="6.76932">
        <ele>1813.4</ele>
        <time>2012-03-14T13:37:09Z</time>
      </trkpt>
      <trkpt lat="46.13006" lon="6.76917">
        <ele>1813.1</ele>
        <time>2012-03-14T13:37:13Z</time>
      </trkpt>
      <trkpt lat="46.12999" lon="6.76909">
        <ele>1813</ele>
        <time>2012-03-14T13:37:28Z</time>
      </trkpt>
      <trkpt lat="46.1299" lon="6.769">
        <ele>1811.6</ele>
        <time>2012-03-14T13:37:33Z</time>
      </trkpt>
      <trkpt lat="46.12979" lon="6.76891">
        <ele>1810.5</ele>
        <time>2012-03-14T13:37:36Z</time>
      </trkpt>
      <trkpt lat="46.12971" lon="6.76884">
        <ele>1809.5</ele>
        <time>2012-03-14T13:37:38Z</time>
      </trkpt>
      <trkpt lat="46.12962" lon="6.76876">
        <ele>1807.9</ele>
        <time>2012-03-14T13:37:40Z</time>
      </trkpt>
      <trkpt lat="46.1296" lon="6.76864">
        <ele>1802.3</ele>
        <time>2012-03-14T13:37:43Z</time>
      </trkpt>
      <trkpt lat="46.12969" lon="6.76859">
        <ele>1799.2</ele>
        <time>2012-03-14T13:37:45Z</time>
      </trkpt>
      <trkpt lat="46.12968" lon="6.76844">
        <ele>1794</ele>
        <time>2012-03-14T13:37:47Z</time>
      </trkpt>
      <trkpt lat="46.1296" lon="6.76822">
        <ele>1790</ele>
        <time>2012-03-14T13:37:49Z</time>
      </trkpt>
      <trkpt lat="46.12951" lon="6.768">
        <ele>1789.3</ele>
        <time>2012-03-14T13:37:51Z</time>
      </trkpt>
      <trkpt lat="46.12943" lon="6.76778">
        <ele>1787</ele>
        <time>2012-03-14T13:37:53Z</time>
      </trkpt>
      <trkpt lat="46.12935" lon="6.7676">
        <ele>1787</ele>
        <time>2012-03-14T13:37:55Z</time>
      </trkpt>
      <trkpt lat="46.12928" lon="6.76747">
        <ele>1786.6</ele>
        <time>2012-03-14T13:37:57Z</time>
      </trkpt>
      <trkpt lat="46.1293" lon="6.76735">
        <ele>1783.6</ele>
        <time>2012-03-14T13:37:59Z</time>
      </trkpt>
      <trkpt lat="46.1294" lon="6.76728">
        <ele>1780.6</ele>
        <time>2012-03-14T13:38:01Z</time>
      </trkpt>
      <trkpt lat="46.12942" lon="6.76715">
        <ele>1778.6</ele>
        <time>2012-03-14T13:38:03Z</time>
      </trkpt>
      <trkpt lat="46.12936" lon="6.76702">
        <ele>1777.6</ele>
        <time>2012-03-14T13:38:05Z</time>
      </trkpt>
      <trkpt lat="46.12935" lon="6.76688">
        <ele>1774.2</ele>
        <time>2012-03-14T13:38:08Z</time>
      </trkpt>
      <trkpt lat="46.12947" lon="6.76689">
        <ele>1770.7</ele>
        <time>2012-03-14T13:38:11Z</time>
      </trkpt>
      <trkpt lat="46.12945" lon="6.76676">
        <ele>1768.9</ele>
        <time>2012-03-14T13:38:15Z</time>
      </trkpt>
      <trkpt lat="46.1294" lon="6.76664">
        <ele>1768.7</ele>
        <time>2012-03-14T13:38:28Z</time>
      </trkpt>
      <trkpt lat="46.12951" lon="6.76665">
        <ele>1762.9</ele>
        <time>2012-03-14T13:38:42Z</time>
      </trkpt>
      <trkpt lat="46.1296" lon="6.76669">
        <ele>1761.7</ele>
        <time>2012-03-14T13:38:44Z</time>
      </trkpt>
      <trkpt lat="46.12961" lon="6.76655">
        <ele>1759</ele>
        <time>2012-03-14T13:38:47Z</time>
      </trkpt>
      <trkpt lat="46.12961" lon="6.76641">
        <ele>1755.2</ele>
        <time>2012-03-14T13:38:50Z</time>
      </trkpt>
      <trkpt lat="46.12966" lon="6.7663">
        <ele>1750.7</ele>
        <time>2012-03-14T13:38:53Z</time>
      </trkpt>
      <trkpt lat="46.12962" lon="6.76618">
        <ele>1748.1</ele>
        <time>2012-03-14T13:38:55Z</time>
      </trkpt>
      <trkpt lat="46.12974" lon="6.76615">
        <ele>1744.8</ele>
        <time>2012-03-14T13:38:58Z</time>
      </trkpt>
      <trkpt lat="46.12974" lon="6.766">
        <ele>1741.8</ele>
        <time>2012-03-14T13:39:01Z</time>
      </trkpt>
      <trkpt lat="46.12982" lon="6.76588">
        <ele>1736.9</ele>
        <time>2012-03-14T13:39:05Z</time>
      </trkpt>
      <trkpt lat="46.12982" lon="6.76574">
        <ele>1732.5</ele>
        <time>2012-03-14T13:39:10Z</time>
      </trkpt>
      <trkpt lat="46.12992" lon="6.76575">
        <ele>1728.8</ele>
        <time>2012-03-14T13:39:14Z</time>
      </trkpt>
      <trkpt lat="46.12992" lon="6.76563">
        <ele>1721.7</ele>
        <time>2012-03-14T13:39:18Z</time>
      </trkpt>
      <trkpt lat="46.13002" lon="6.76558">
        <ele>1716.9</ele>
        <time>2012-03-14T13:39:21Z</time>
      </trkpt>
      <trkpt lat="46.13006" lon="6.76545">
        <ele>1712.7</ele>
        <time>2012-03-14T13:39:24Z</time>
      </trkpt>
      <trkpt lat="46.12998" lon="6.76535">
        <ele>1711.5</ele>
        <time>2012-03-14T13:39:26Z</time>
      </trkpt>
      <trkpt lat="46.12989" lon="6.76526">
        <ele>1709.1</ele>
        <time>2012-03-14T13:39:28Z</time>
      </trkpt>
      <trkpt lat="46.1298" lon="6.76512">
        <ele>1707</ele>
        <time>2012-03-14T13:39:30Z</time>
      </trkpt>
      <trkpt lat="46.12973" lon="6.76502">
        <ele>1705.8</ele>
        <time>2012-03-14T13:39:32Z</time>
      </trkpt>
      <trkpt lat="46.12966" lon="6.76491">
        <ele>1703.8</ele>
        <time>2012-03-14T13:39:34Z</time>
      </trkpt>
      <trkpt lat="46.12959" lon="6.7648">
        <ele>1702.9</ele>
        <time>2012-03-14T13:39:36Z</time>
      </trkpt>
      <trkpt lat="46.12952" lon="6.7647">
        <ele>1700.3</ele>
        <time>2012-03-14T13:39:40Z</time>
      </trkpt>
      <trkpt lat="46.12948" lon="6.76457">
        <ele>1697.4</ele>
        <time>2012-03-14T13:40:22Z</time>
      </trkpt>
      <trkpt lat="46.1294" lon="6.76441">
        <ele>1694.8</ele>
        <time>2012-03-14T13:40:25Z</time>
      </trkpt>
      <trkpt lat="46.12938" lon="6.76428">
        <ele>1691.3</ele>
        <time>2012-03-14T13:40:28Z</time>
      </trkpt>
      <trkpt lat="46.12944" lon="6.76418">
        <ele>1686</ele>
        <time>2012-03-14T13:40:31Z</time>
      </trkpt>
      <trkpt lat="46.12944" lon="6.76406">
        <ele>1681.4</ele>
        <time>2012-03-14T13:40:34Z</time>
      </trkpt>
      <trkpt lat="46.12946" lon="6.76393">
        <ele>1674.3</ele>
        <time>2012-03-14T13:40:37Z</time>
      </trkpt>
      <trkpt lat="46.12953" lon="6.76382">
        <ele>1670</ele>
        <time>2012-03-14T13:40:40Z</time>
      </trkpt>
      <trkpt lat="46.12951" lon="6.76368">
        <ele>1667.5</ele>
        <time>2012-03-14T13:40:42Z</time>
      </trkpt>
      <trkpt lat="46.12958" lon="6.76355">
        <ele>1662.3</ele>
        <time>2012-03-14T13:40:45Z</time>
      </trkpt>
      <trkpt lat="46.12958" lon="6.76341">
        <ele>1658.9</ele>
        <time>2012-03-14T13:40:47Z</time>
      </trkpt>
      <trkpt lat="46.12966" lon="6.76331">
        <ele>1657.8</ele>
        <time>2012-03-14T13:40:49Z</time>
      </trkpt>
      <trkpt lat="46.12974" lon="6.76318">
        <ele>1655.6</ele>
        <time>2012-03-14T13:40:52Z</time>
      </trkpt>
      <trkpt lat="46.12983" lon="6.7631">
        <ele>1654</ele>
        <time>2012-03-14T13:40:55Z</time>
      </trkpt>
      <trkpt lat="46.12987" lon="6.76301">
        <ele>1648.3</ele>
        <time>2012-03-14T13:41:25Z</time>
      </trkpt>
      <trkpt lat="46.12993" lon="6.76291">
        <ele>1647</ele>
        <time>2012-03-14T13:41:40Z</time>
      </trkpt>
      <trkpt lat="46.12998" lon="6.76276">
        <ele>1646.7</ele>
        <time>2012-03-14T13:41:43Z</time>
      </trkpt>
      <trkpt lat="46.13002" lon="6.76264">
        <ele>1646.4</ele>
        <time>2012-03-14T13:41:50Z</time>
      </trkpt>
      <trkpt lat="46.13006" lon="6.76253">
        <ele>1648</ele>
        <time>2012-03-14T13:42:04Z</time>
      </trkpt>
      <trkpt lat="46.1301" lon="6.7624">
        <ele>1648.7</ele>
        <time>2012-03-14T13:42:19Z</time>
      </trkpt>
      <trkpt lat="46.13013" lon="6.76228">
        <ele>1649.4</ele>
        <time>2012-03-14T13:42:36Z</time>
      </trkpt>
      <trkpt lat="46.13016" lon="6.76215">
        <ele>1650.6</ele>
        <time>2012-03-14T13:42:53Z</time>
      </trkpt>
      <trkpt lat="46.1302" lon="6.76203">
        <ele>1652.3</ele>
        <time>2012-03-14T13:43:14Z</time>
      </trkpt>
      <trkpt lat="46.13022" lon="6.7619">
        <ele>1654.6</ele>
        <time>2012-03-14T13:43:37Z</time>
      </trkpt>
      <trkpt lat="46.13029" lon="6.76181">
        <ele>1655.1</ele>
        <time>2012-03-14T13:43:55Z</time>
      </trkpt>
      <trkpt lat="46.13037" lon="6.76177">
        <ele>1653.6</ele>
        <time>2012-03-14T13:44:07Z</time>
      </trkpt>
      <trkpt lat="46.13046" lon="6.76175">
        <ele>1652.1</ele>
        <time>2012-03-14T13:44:20Z</time>
      </trkpt>
      <trkpt lat="46.13055" lon="6.76173">
        <ele>1651.5</ele>
        <time>2012-03-14T13:44:35Z</time>
      </trkpt>
      <trkpt lat="46.13064" lon="6.76171">
        <ele>1651.7</ele>
        <time>2012-03-14T13:44:51Z</time>
      </trkpt>
      <trkpt lat="46.13073" lon="6.76169">
        <ele>1652.9</ele>
        <time>2012-03-14T13:45:14Z</time>
      </trkpt>
      <trkpt lat="46.13082" lon="6.76171">
        <ele>1655.2</ele>
        <time>2012-03-14T13:45:38Z</time>
      </trkpt>
      <trkpt lat="46.13091" lon="6.76166">
        <ele>1655.3</ele>
        <time>2012-03-14T13:45:58Z</time>
      </trkpt>
      <trkpt lat="46.13099" lon="6.76159">
        <ele>1655.5</ele>
        <time>2012-03-14T13:46:13Z</time>
      </trkpt>
      <trkpt lat="46.13106" lon="6.76151">
        <ele>1655.3</ele>
        <time>2012-03-14T13:46:25Z</time>
      </trkpt>
      <trkpt lat="46.13108" lon="6.76138">
        <ele>1654.8</ele>
        <time>2012-03-14T13:46:34Z</time>
      </trkpt>
      <trkpt lat="46.13117" lon="6.76133">
        <ele>1653</ele>
        <time>2012-03-14T13:46:42Z</time>
      </trkpt>
      <trkpt lat="46.13125" lon="6.76125">
        <ele>1650.5</ele>
        <time>2012-03-14T13:46:53Z</time>
      </trkpt>
      <trkpt lat="46.13131" lon="6.76135">
        <ele>1649.1</ele>
        <time>2012-03-14T13:46:58Z</time>
      </trkpt>
      <trkpt lat="46.13138" lon="6.76129">
        <ele>1647.3</ele>
        <time>2012-03-14T13:47:07Z</time>
      </trkpt>
      <trkpt lat="46.13143" lon="6.76116">
        <ele>1646.3</ele>
        <time>2012-03-14T13:47:12Z</time>
      </trkpt>
      <trkpt lat="46.13152" lon="6.76115">
        <ele>1645.1</ele>
        <time>2012-03-14T13:47:17Z</time>
      </trkpt>
      <trkpt lat="46.13155" lon="6.76127">
        <ele>1644.2</ele>
        <time>2012-03-14T13:47:48Z</time>
      </trkpt>
      <trkpt lat="46.1316" lon="6.76142">
        <ele>1641.9</ele>
        <time>2012-03-14T13:47:51Z</time>
      </trkpt>
      <trkpt lat="46.13167" lon="6.76156">
        <ele>1639.6</ele>
        <time>2012-03-14T13:47:54Z</time>
      </trkpt>
      <trkpt lat="46.13171" lon="6.76171">
        <ele>1636.8</ele>
        <time>2012-03-14T13:47:57Z</time>
      </trkpt>
      <trkpt lat="46.13171" lon="6.76184">
        <ele>1636</ele>
        <time>2012-03-14T13:48:00Z</time>
      </trkpt>
      <trkpt lat="46.13166" lon="6.76197">
        <ele>1635.5</ele>
        <time>2012-03-14T13:48:07Z</time>
      </trkpt>
      <trkpt lat="46.13157" lon="6.76205">
        <ele>1634.8</ele>
        <time>2012-03-14T13:48:20Z</time>
      </trkpt>
      <trkpt lat="46.13151" lon="6.76215">
        <ele>1634.4</ele>
        <time>2012-03-14T13:48:27Z</time>
      </trkpt>
      <trkpt lat="46.13148" lon="6.7623">
        <ele>1632.6</ele>
        <time>2012-03-14T13:48:33Z</time>
      </trkpt>
      <trkpt lat="46.13146" lon="6.76245">
        <ele>1630.5</ele>
        <time>2012-03-14T13:48:40Z</time>
      </trkpt>
      <trkpt lat="46.13145" lon="6.7626">
        <ele>1628</ele>
        <time>2012-03-14T13:48:44Z</time>
      </trkpt>
      <trkpt lat="46.13143" lon="6.76273">
        <ele>1626.3</ele>
        <time>2012-03-14T13:51:12Z</time>
      </trkpt>
      <trkpt lat="46.13143" lon="6.7629">
        <ele>1624</ele>
        <time>2012-03-14T13:51:17Z</time>
      </trkpt>
      <trkpt lat="46.13145" lon="6.76308">
        <ele>1621.2</ele>
        <time>2012-03-14T13:51:20Z</time>
      </trkpt>
      <trkpt lat="46.13144" lon="6.76325">
        <ele>1618.9</ele>
        <time>2012-03-14T13:51:22Z</time>
      </trkpt>
      <trkpt lat="46.13146" lon="6.76342">
        <ele>1618</ele>
        <time>2012-03-14T13:51:24Z</time>
      </trkpt>
      <trkpt lat="46.13149" lon="6.76358">
        <ele>1617.3</ele>
        <time>2012-03-14T13:51:27Z</time>
      </trkpt>
      <trkpt lat="46.13149" lon="6.76373">
        <ele>1615</ele>
        <time>2012-03-14T13:51:30Z</time>
      </trkpt>
      <trkpt lat="46.13148" lon="6.76392">
        <ele>1612.7</ele>
        <time>2012-03-14T13:51:33Z</time>
      </trkpt>
      <trkpt lat="46.13161" lon="6.76394">
        <ele>1611.3</ele>
        <time>2012-03-14T13:51:37Z</time>
      </trkpt>
      <trkpt lat="46.13173" lon="6.76392">
        <ele>1608.6</ele>
        <time>2012-03-14T13:51:40Z</time>
      </trkpt>
      <trkpt lat="46.13182" lon="6.76396">
        <ele>1605.8</ele>
        <time>2012-03-14T13:51:42Z</time>
      </trkpt>
      <trkpt lat="46.13191" lon="6.76404">
        <ele>1603.3</ele>
        <time>2012-03-14T13:51:44Z</time>
      </trkpt>
      <trkpt lat="46.13198" lon="6.76414">
        <ele>1602.3</ele>
        <time>2012-03-14T13:51:46Z</time>
      </trkpt>
      <trkpt lat="46.13205" lon="6.7643">
        <ele>1599.7</ele>
        <time>2012-03-14T13:51:49Z</time>
      </trkpt>
      <trkpt lat="46.1321" lon="6.76444">
        <ele>1597.5</ele>
        <time>2012-03-14T13:51:51Z</time>
      </trkpt>
      <trkpt lat="46.13218" lon="6.76452">
        <ele>1596.1</ele>
        <time>2012-03-14T13:51:53Z</time>
      </trkpt>
      <trkpt lat="46.13226" lon="6.7644">
        <ele>1594</ele>
        <time>2012-03-14T13:51:56Z</time>
      </trkpt>
      <trkpt lat="46.13234" lon="6.76427">
        <ele>1592.1</ele>
        <time>2012-03-14T13:51:59Z</time>
      </trkpt>
      <trkpt lat="46.13241" lon="6.76421">
        <ele>1590.3</ele>
        <time>2012-03-14T13:53:01Z</time>
      </trkpt>
      <trkpt lat="46.13252" lon="6.7642">
        <ele>1587.9</ele>
        <time>2012-03-14T13:53:05Z</time>
      </trkpt>
      <trkpt lat="46.13261" lon="6.76422">
        <ele>1585.3</ele>
        <time>2012-03-14T13:53:07Z</time>
      </trkpt>
      <trkpt lat="46.13272" lon="6.76423">
        <ele>1582.5</ele>
        <time>2012-03-14T13:53:09Z</time>
      </trkpt>
      <trkpt lat="46.13282" lon="6.76425">
        <ele>1580.6</ele>
        <time>2012-03-14T13:53:11Z</time>
      </trkpt>
      <trkpt lat="46.13295" lon="6.76427">
        <ele>1578.7</ele>
        <time>2012-03-14T13:53:14Z</time>
      </trkpt>
      <trkpt lat="46.13307" lon="6.76433">
        <ele>1577.1</ele>
        <time>2012-03-14T13:53:17Z</time>
      </trkpt>
      <trkpt lat="46.13316" lon="6.76438">
        <ele>1575.5</ele>
        <time>2012-03-14T13:53:19Z</time>
      </trkpt>
      <trkpt lat="46.13325" lon="6.76443">
        <ele>1573.5</ele>
        <time>2012-03-14T13:53:21Z</time>
      </trkpt>
      <trkpt lat="46.13334" lon="6.76444">
        <ele>1571.2</ele>
        <time>2012-03-14T13:53:23Z</time>
      </trkpt>
      <trkpt lat="46.13345" lon="6.76443">
        <ele>1568.4</ele>
        <time>2012-03-14T13:53:25Z</time>
      </trkpt>
      <trkpt lat="46.13358" lon="6.76445">
        <ele>1565.9</ele>
        <time>2012-03-14T13:53:27Z</time>
      </trkpt>
      <trkpt lat="46.13369" lon="6.76445">
        <ele>1563.7</ele>
        <time>2012-03-14T13:53:29Z</time>
      </trkpt>
      <trkpt lat="46.1338" lon="6.76448">
        <ele>1561.9</ele>
        <time>2012-03-14T13:53:31Z</time>
      </trkpt>
      <trkpt lat="46.13389" lon="6.76448">
        <ele>1560.6</ele>
        <time>2012-03-14T13:53:33Z</time>
      </trkpt>
      <trkpt lat="46.13403" lon="6.7645">
        <ele>1558.3</ele>
        <time>2012-03-14T13:53:36Z</time>
      </trkpt>
      <trkpt lat="46.13413" lon="6.76452">
        <ele>1556.3</ele>
        <time>2012-03-14T13:53:38Z</time>
      </trkpt>
      <trkpt lat="46.13421" lon="6.76459">
        <ele>1555.6</ele>
        <time>2012-03-14T13:53:40Z</time>
      </trkpt>
      <trkpt lat="46.13432" lon="6.76469">
        <ele>1554.2</ele>
        <time>2012-03-14T13:53:43Z</time>
      </trkpt>
      <trkpt lat="46.13441" lon="6.7648">
        <ele>1552.8</ele>
        <time>2012-03-14T13:53:46Z</time>
      </trkpt>
      <trkpt lat="46.13451" lon="6.76484">
        <ele>1550.8</ele>
        <time>2012-03-14T13:53:49Z</time>
      </trkpt>
      <trkpt lat="46.13461" lon="6.76485">
        <ele>1548</ele>
        <time>2012-03-14T13:53:51Z</time>
      </trkpt>
      <trkpt lat="46.13471" lon="6.76491">
        <ele>1546.1</ele>
        <time>2012-03-14T13:53:53Z</time>
      </trkpt>
      <trkpt lat="46.1348" lon="6.76503">
        <ele>1545</ele>
        <time>2012-03-14T13:53:56Z</time>
      </trkpt>
      <trkpt lat="46.13488" lon="6.76511">
        <ele>1543.5</ele>
        <time>2012-03-14T13:53:59Z</time>
      </trkpt>
      <trkpt lat="46.13499" lon="6.76518">
        <ele>1542</ele>
        <time>2012-03-14T13:54:03Z</time>
      </trkpt>
      <trkpt lat="46.13507" lon="6.76527">
        <ele>1540</ele>
        <time>2012-03-14T13:54:06Z</time>
      </trkpt>
      <trkpt lat="46.13515" lon="6.76539">
        <ele>1538.4</ele>
        <time>2012-03-14T13:54:09Z</time>
      </trkpt>
      <trkpt lat="46.13521" lon="6.76553">
        <ele>1536.3</ele>
        <time>2012-03-14T13:54:12Z</time>
      </trkpt>
      <trkpt lat="46.13529" lon="6.76568">
        <ele>1534.1</ele>
        <time>2012-03-14T13:54:15Z</time>
      </trkpt>
      <trkpt lat="46.13534" lon="6.76581">
        <ele>1532.2</ele>
        <time>2012-03-14T13:54:17Z</time>
      </trkpt>
      <trkpt lat="46.13536" lon="6.76596">
        <ele>1531</ele>
        <time>2012-03-14T13:54:19Z</time>
      </trkpt>
      <trkpt lat="46.13537" lon="6.76612">
        <ele>1530.5</ele>
        <time>2012-03-14T13:54:21Z</time>
      </trkpt>
      <trkpt lat="46.13543" lon="6.76627">
        <ele>1529.5</ele>
        <time>2012-03-14T13:54:24Z</time>
      </trkpt>
      <trkpt lat="46.13555" lon="6.76635">
        <ele>1529.4</ele>
        <time>2012-03-14T13:54:27Z</time>
      </trkpt>
      <trkpt lat="46.13565" lon="6.7664">
        <ele>1529.7</ele>
        <time>2012-03-14T13:54:30Z</time>
      </trkpt>
      <trkpt lat="46.13575" lon="6.76636">
        <ele>1529.3</ele>
        <time>2012-03-14T13:54:33Z</time>
      </trkpt>
      <trkpt lat="46.13585" lon="6.76624">
        <ele>1526.6</ele>
        <time>2012-03-14T13:54:36Z</time>
      </trkpt>
      <trkpt lat="46.13594" lon="6.76609">
        <ele>1525.4</ele>
        <time>2012-03-14T13:54:39Z</time>
      </trkpt>
      <trkpt lat="46.13599" lon="6.76592">
        <ele>1523.7</ele>
        <time>2012-03-14T13:54:42Z</time>
      </trkpt>
      <trkpt lat="46.13601" lon="6.76579">
        <ele>1522.3</ele>
        <time>2012-03-14T13:54:44Z</time>
      </trkpt>
      <trkpt lat="46.13601" lon="6.76563">
        <ele>1521.5</ele>
        <time>2012-03-14T13:54:47Z</time>
      </trkpt>
      <trkpt lat="46.136" lon="6.76546">
        <ele>1520.3</ele>
        <time>2012-03-14T13:54:50Z</time>
      </trkpt>
      <trkpt lat="46.13598" lon="6.76529">
        <ele>1519.1</ele>
        <time>2012-03-14T13:54:53Z</time>
      </trkpt>
      <trkpt lat="46.13598" lon="6.7651">
        <ele>1516.7</ele>
        <time>2012-03-14T13:54:56Z</time>
      </trkpt>
      <trkpt lat="46.13607" lon="6.76504">
        <ele>1515.1</ele>
        <time>2012-03-14T13:54:58Z</time>
      </trkpt>
      <trkpt lat="46.13614" lon="6.76513">
        <ele>1513.8</ele>
        <time>2012-03-14T13:55:00Z</time>
      </trkpt>
      <trkpt lat="46.13622" lon="6.76522">
        <ele>1512.4</ele>
        <time>2012-03-14T13:55:02Z</time>
      </trkpt>
      <trkpt lat="46.13631" lon="6.76526">
        <ele>1510.7</ele>
        <time>2012-03-14T13:55:04Z</time>
      </trkpt>
      <trkpt lat="46.1364" lon="6.76525">
        <ele>1509.6</ele>
        <time>2012-03-14T13:55:06Z</time>
      </trkpt>
      <trkpt lat="46.13652" lon="6.76524">
        <ele>1507.7</ele>
        <time>2012-03-14T13:55:09Z</time>
      </trkpt>
      <trkpt lat="46.13664" lon="6.76519">
        <ele>1504.9</ele>
        <time>2012-03-14T13:55:12Z</time>
      </trkpt>
      <trkpt lat="46.13671" lon="6.7651">
        <ele>1503.6</ele>
        <time>2012-03-14T13:55:14Z</time>
      </trkpt>
      <trkpt lat="46.13674" lon="6.76497">
        <ele>1501.9</ele>
        <time>2012-03-14T13:55:16Z</time>
      </trkpt>
      <trkpt lat="46.13673" lon="6.7648">
        <ele>1501.2</ele>
        <time>2012-03-14T13:55:19Z</time>
      </trkpt>
      <trkpt lat="46.13675" lon="6.76463">
        <ele>1500</ele>
        <time>2012-03-14T13:55:23Z</time>
      </trkpt>
      <trkpt lat="46.13683" lon="6.76455">
        <ele>1498.2</ele>
        <time>2012-03-14T13:55:26Z</time>
      </trkpt>
      <trkpt lat="46.13695" lon="6.76458">
        <ele>1495.8</ele>
        <time>2012-03-14T13:55:29Z</time>
      </trkpt>
      <trkpt lat="46.13706" lon="6.76468">
        <ele>1493.8</ele>
        <time>2012-03-14T13:55:32Z</time>
      </trkpt>
      <trkpt lat="46.13715" lon="6.76473">
        <ele>1491.5</ele>
        <time>2012-03-14T13:58:01Z</time>
      </trkpt>
      <trkpt lat="46.13724" lon="6.76478">
        <ele>1490</ele>
        <time>2012-03-14T13:58:04Z</time>
      </trkpt>
      <trkpt lat="46.13735" lon="6.76479">
        <ele>1487.7</ele>
        <time>2012-03-14T13:58:08Z</time>
      </trkpt>
      <trkpt lat="46.13745" lon="6.76488">
        <ele>1485.7</ele>
        <time>2012-03-14T13:58:11Z</time>
      </trkpt>
      <trkpt lat="46.13752" lon="6.76499">
        <ele>1484.5</ele>
        <time>2012-03-14T13:58:14Z</time>
      </trkpt>
      <trkpt lat="46.13759" lon="6.76511">
        <ele>1482.4</ele>
        <time>2012-03-14T13:58:17Z</time>
      </trkpt>
      <trkpt lat="46.13769" lon="6.76517">
        <ele>1480.2</ele>
        <time>2012-03-14T13:58:20Z</time>
      </trkpt>
      <trkpt lat="46.1378" lon="6.76517">
        <ele>1477.8</ele>
        <time>2012-03-14T13:58:23Z</time>
      </trkpt>
      <trkpt lat="46.13791" lon="6.76511">
        <ele>1475.9</ele>
        <time>2012-03-14T13:58:26Z</time>
      </trkpt>
      <trkpt lat="46.13803" lon="6.76504">
        <ele>1474.1</ele>
        <time>2012-03-14T13:58:29Z</time>
      </trkpt>
      <trkpt lat="46.13814" lon="6.76497">
        <ele>1471.8</ele>
        <time>2012-03-14T13:58:32Z</time>
      </trkpt>
      <trkpt lat="46.13825" lon="6.76492">
        <ele>1470.1</ele>
        <time>2012-03-14T13:58:35Z</time>
      </trkpt>
      <trkpt lat="46.13836" lon="6.7649">
        <ele>1468.9</ele>
        <time>2012-03-14T13:58:38Z</time>
      </trkpt>
      <trkpt lat="46.13848" lon="6.76489">
        <ele>1467.1</ele>
        <time>2012-03-14T13:58:41Z</time>
      </trkpt>
      <trkpt lat="46.13861" lon="6.7649">
        <ele>1465.9</ele>
        <time>2012-03-14T13:58:44Z</time>
      </trkpt>
      <trkpt lat="46.13873" lon="6.76491">
        <ele>1464.6</ele>
        <time>2012-03-14T13:58:47Z</time>
      </trkpt>
      <trkpt lat="46.13883" lon="6.76491">
        <ele>1463.6</ele>
        <time>2012-03-14T13:58:49Z</time>
      </trkpt>
      <trkpt lat="46.13892" lon="6.7649">
        <ele>1462</ele>
        <time>2012-03-14T13:58:51Z</time>
      </trkpt>
      <trkpt lat="46.13902" lon="6.76478">
        <ele>1460.2</ele>
        <time>2012-03-14T13:58:54Z</time>
      </trkpt>
      <trkpt lat="46.1391" lon="6.76462">
        <ele>1458.3</ele>
        <time>2012-03-14T13:58:57Z</time>
      </trkpt>
      <trkpt lat="46.13921" lon="6.76461">
        <ele>1456.8</ele>
        <time>2012-03-14T13:59:00Z</time>
      </trkpt>
      <trkpt lat="46.13934" lon="6.76462">
        <ele>1454.2</ele>
        <time>2012-03-14T13:59:03Z</time>
      </trkpt>
      <trkpt lat="46.13945" lon="6.76462">
        <ele>1452.6</ele>
        <time>2012-03-14T13:59:06Z</time>
      </trkpt>
      <trkpt lat="46.13956" lon="6.76459">
        <ele>1450.5</ele>
        <time>2012-03-14T13:59:09Z</time>
      </trkpt>
      <trkpt lat="46.1397" lon="6.76458">
        <ele>1447.3</ele>
        <time>2012-03-14T13:59:12Z</time>
      </trkpt>
      <trkpt lat="46.13978" lon="6.76455">
        <ele>1445.2</ele>
        <time>2012-03-14T13:59:14Z</time>
      </trkpt>
      <trkpt lat="46.13988" lon="6.76452">
        <ele>1442.8</ele>
        <time>2012-03-14T13:59:16Z</time>
      </trkpt>
      <trkpt lat="46.13997" lon="6.76449">
        <ele>1441.4</ele>
        <time>2012-03-14T13:59:18Z</time>
      </trkpt>
      <trkpt lat="46.14008" lon="6.76455">
        <ele>1439.2</ele>
        <time>2012-03-14T13:59:21Z</time>
      </trkpt>
      <trkpt lat="46.1402" lon="6.76458">
        <ele>1437</ele>
        <time>2012-03-14T13:59:24Z</time>
      </trkpt>
      <trkpt lat="46.14032" lon="6.7646">
        <ele>1435.3</ele>
        <time>2012-03-14T13:59:27Z</time>
      </trkpt>
      <trkpt lat="46.14045" lon="6.76463">
        <ele>1433.2</ele>
        <time>2012-03-14T13:59:30Z</time>
      </trkpt>
      <trkpt lat="46.14055" lon="6.76465">
        <ele>1431.2</ele>
        <time>2012-03-14T13:59:32Z</time>
      </trkpt>
      <trkpt lat="46.14066" lon="6.76468">
        <ele>1429.2</ele>
        <time>2012-03-14T13:59:34Z</time>
      </trkpt>
      <trkpt lat="46.14077" lon="6.76471">
        <ele>1427.4</ele>
        <time>2012-03-14T13:59:36Z</time>
      </trkpt>
      <trkpt lat="46.1409" lon="6.76473">
        <ele>1424.4</ele>
        <time>2012-03-14T13:59:38Z</time>
      </trkpt>
      <trkpt lat="46.141" lon="6.76467">
        <ele>1422.4</ele>
        <time>2012-03-14T13:59:40Z</time>
      </trkpt>
      <trkpt lat="46.14109" lon="6.76464">
        <ele>1420.5</ele>
        <time>2012-03-14T13:59:42Z</time>
      </trkpt>
      <trkpt lat="46.14118" lon="6.76478">
        <ele>1418.4</ele>
        <time>2012-03-14T13:59:45Z</time>
      </trkpt>
      <trkpt lat="46.14122" lon="6.7649">
        <ele>1417</ele>
        <time>2012-03-14T13:59:47Z</time>
      </trkpt>
      <trkpt lat="46.14126" lon="6.76502">
        <ele>1415.5</ele>
        <time>2012-03-14T13:59:49Z</time>
      </trkpt>
      <trkpt lat="46.14128" lon="6.76518">
        <ele>1414</ele>
        <time>2012-03-14T13:59:52Z</time>
      </trkpt>
      <trkpt lat="46.14133" lon="6.7653">
        <ele>1411.3</ele>
        <time>2012-03-14T13:59:55Z</time>
      </trkpt>
      <trkpt lat="46.14142" lon="6.76534">
        <ele>1407.2</ele>
        <time>2012-03-14T13:59:58Z</time>
      </trkpt>
      <trkpt lat="46.14149" lon="6.76524">
        <ele>1404.9</ele>
        <time>2012-03-14T14:00:01Z</time>
      </trkpt>
      <trkpt lat="46.14157" lon="6.76515">
        <ele>1402.5</ele>
        <time>2012-03-14T14:00:04Z</time>
      </trkpt>
      <trkpt lat="46.14158" lon="6.765">
        <ele>1399.9</ele>
        <time>2012-03-14T14:00:07Z</time>
      </trkpt>
      <trkpt lat="46.14164" lon="6.76484">
        <ele>1397.8</ele>
        <time>2012-03-14T14:00:10Z</time>
      </trkpt>
      <trkpt lat="46.14174" lon="6.76483">
        <ele>1397</ele>
        <time>2012-03-14T14:00:13Z</time>
      </trkpt>
      <trkpt lat="46.1418" lon="6.76493">
        <ele>1396.2</ele>
        <time>2012-03-14T14:00:16Z</time>
      </trkpt>
      <trkpt lat="46.14184" lon="6.76507">
        <ele>1394.9</ele>
        <time>2012-03-14T14:00:19Z</time>
      </trkpt>
      <trkpt lat="46.14192" lon="6.76514">
        <ele>1393.6</ele>
        <time>2012-03-14T14:00:22Z</time>
      </trkpt>
      <trkpt lat="46.14201" lon="6.76505">
        <ele>1390.8</ele>
        <time>2012-03-14T14:00:25Z</time>
      </trkpt>
      <trkpt lat="46.14206" lon="6.76494">
        <ele>1388.2</ele>
        <time>2012-03-14T14:00:32Z</time>
      </trkpt>
      <trkpt lat="46.14214" lon="6.76484">
        <ele>1386.3</ele>
        <time>2012-03-14T14:00:35Z</time>
      </trkpt>
      <trkpt lat="46.14223" lon="6.76471">
        <ele>1385</ele>
        <time>2012-03-14T14:00:38Z</time>
      </trkpt>
      <trkpt lat="46.1423" lon="6.7646">
        <ele>1384</ele>
        <time>2012-03-14T14:00:41Z</time>
      </trkpt>
      <trkpt lat="46.14243" lon="6.7646">
        <ele>1383</ele>
        <time>2012-03-14T14:00:45Z</time>
      </trkpt>
      <trkpt lat="46.14255" lon="6.76466">
        <ele>1381.9</ele>
        <time>2012-03-14T14:00:48Z</time>
      </trkpt>
      <trkpt lat="46.14261" lon="6.76481">
        <ele>1380.2</ele>
        <time>2012-03-14T14:00:51Z</time>
      </trkpt>
      <trkpt lat="46.14265" lon="6.76496">
        <ele>1378.1</ele>
        <time>2012-03-14T14:00:54Z</time>
      </trkpt>
      <trkpt lat="46.1427" lon="6.76512">
        <ele>1376.2</ele>
        <time>2012-03-14T14:00:57Z</time>
      </trkpt>
      <trkpt lat="46.14275" lon="6.76529">
        <ele>1374.2</ele>
        <time>2012-03-14T14:01:00Z</time>
      </trkpt>
      <trkpt lat="46.14278" lon="6.76544">
        <ele>1372.6</ele>
        <time>2012-03-14T14:01:03Z</time>
      </trkpt>
      <trkpt lat="46.14276" lon="6.76558">
        <ele>1371.3</ele>
        <time>2012-03-14T14:01:06Z</time>
      </trkpt>
      <trkpt lat="46.14276" lon="6.76577">
        <ele>1369.2</ele>
        <time>2012-03-14T14:01:09Z</time>
      </trkpt>
      <trkpt lat="46.14276" lon="6.76594">
        <ele>1366.9</ele>
        <time>2012-03-14T14:01:12Z</time>
      </trkpt>
      <trkpt lat="46.14275" lon="6.76611">
        <ele>1365.4</ele>
        <time>2012-03-14T14:01:15Z</time>
      </trkpt>
      <trkpt lat="46.14275" lon="6.76626">
        <ele>1363.3</ele>
        <time>2012-03-14T14:01:18Z</time>
      </trkpt>
      <trkpt lat="46.14282" lon="6.76636">
        <ele>1359.6</ele>
        <time>2012-03-14T14:01:23Z</time>
      </trkpt>
      <trkpt lat="46.14291" lon="6.76645">
        <ele>1356.1</ele>
        <time>2012-03-14T14:02:01Z</time>
      </trkpt>
      <trkpt lat="46.14303" lon="6.76642">
        <ele>1354.9</ele>
        <time>2012-03-14T14:02:04Z</time>
      </trkpt>
      <trkpt lat="46.14314" lon="6.76638">
        <ele>1353.5</ele>
        <time>2012-03-14T14:02:07Z</time>
      </trkpt>
      <trkpt lat="46.14325" lon="6.76631">
        <ele>1352.5</ele>
        <time>2012-03-14T14:02:10Z</time>
      </trkpt>
      <trkpt lat="46.14336" lon="6.76627">
        <ele>1351.3</ele>
        <time>2012-03-14T14:02:13Z</time>
      </trkpt>
      <trkpt lat="46.14345" lon="6.76624">
        <ele>1349.9</ele>
        <time>2012-03-14T14:02:15Z</time>
      </trkpt>
      <trkpt lat="46.14355" lon="6.76614">
        <ele>1348.1</ele>
        <time>2012-03-14T14:02:18Z</time>
      </trkpt>
      <trkpt lat="46.14365" lon="6.76607">
        <ele>1346.3</ele>
        <time>2012-03-14T14:02:21Z</time>
      </trkpt>
      <trkpt lat="46.14376" lon="6.76614">
        <ele>1344</ele>
        <time>2012-03-14T14:02:24Z</time>
      </trkpt>
      <trkpt lat="46.14383" lon="6.76626">
        <ele>1341.9</ele>
        <time>2012-03-14T14:02:27Z</time>
      </trkpt>
      <trkpt lat="46.14384" lon="6.76642">
        <ele>1340</ele>
        <time>2012-03-14T14:02:30Z</time>
      </trkpt>
      <trkpt lat="46.14382" lon="6.76655">
        <ele>1338.5</ele>
        <time>2012-03-14T14:02:32Z</time>
      </trkpt>
      <trkpt lat="46.14379" lon="6.76673">
        <ele>1335.8</ele>
        <time>2012-03-14T14:02:35Z</time>
      </trkpt>
      <trkpt lat="46.14377" lon="6.76686">
        <ele>1333.7</ele>
        <time>2012-03-14T14:02:37Z</time>
      </trkpt>
      <trkpt lat="46.14373" lon="6.76703">
        <ele>1332.4</ele>
        <time>2012-03-14T14:02:40Z</time>
      </trkpt>
      <trkpt lat="46.1437" lon="6.76716">
        <ele>1329.9</ele>
        <time>2012-03-14T14:02:42Z</time>
      </trkpt>
      <trkpt lat="46.14366" lon="6.76728">
        <ele>1328.6</ele>
        <time>2012-03-14T14:02:44Z</time>
      </trkpt>
      <trkpt lat="46.1436" lon="6.76739">
        <ele>1327.3</ele>
        <time>2012-03-14T14:02:46Z</time>
      </trkpt>
      <trkpt lat="46.14349" lon="6.7675">
        <ele>1327.9</ele>
        <time>2012-03-14T14:02:49Z</time>
      </trkpt>
      <trkpt lat="46.14338" lon="6.76752">
        <ele>1324.9</ele>
        <time>2012-03-14T14:02:52Z</time>
      </trkpt>
      <trkpt lat="46.14326" lon="6.76753">
        <ele>1323</ele>
        <time>2012-03-14T14:02:55Z</time>
      </trkpt>
      <trkpt lat="46.14316" lon="6.76765">
        <ele>1320.7</ele>
        <time>2012-03-14T14:02:58Z</time>
      </trkpt>
      <trkpt lat="46.14325" lon="6.76777">
        <ele>1318.1</ele>
        <time>2012-03-14T14:03:01Z</time>
      </trkpt>
      <trkpt lat="46.14335" lon="6.76774">
        <ele>1314.4</ele>
        <time>2012-03-14T14:05:09Z</time>
      </trkpt>
      <trkpt lat="46.14346" lon="6.7677">
        <ele>1311.9</ele>
        <time>2012-03-14T14:05:14Z</time>
      </trkpt>
      <trkpt lat="46.14356" lon="6.76766">
        <ele>1310.2</ele>
        <time>2012-03-14T14:05:18Z</time>
      </trkpt>
      <trkpt lat="46.14365" lon="6.76761">
        <ele>1309.3</ele>
        <time>2012-03-14T14:05:22Z</time>
      </trkpt>
      <trkpt lat="46.14376" lon="6.76752">
        <ele>1307</ele>
        <time>2012-03-14T14:05:26Z</time>
      </trkpt>
      <trkpt lat="46.14383" lon="6.76743">
        <ele>1305.7</ele>
        <time>2012-03-14T14:05:29Z</time>
      </trkpt>
      <trkpt lat="46.14387" lon="6.76731">
        <ele>1304.3</ele>
        <time>2012-03-14T14:05:32Z</time>
      </trkpt>
      <trkpt lat="46.14393" lon="6.76716">
        <ele>1308.5</ele>
        <time>2012-03-14T14:05:35Z</time>
      </trkpt>
      <trkpt lat="46.14398" lon="6.76699">
        <ele>1309.5</ele>
        <time>2012-03-14T14:05:38Z</time>
      </trkpt>
      <trkpt lat="46.14403" lon="6.76685">
        <ele>1309.9</ele>
        <time>2012-03-14T14:05:41Z</time>
      </trkpt>
      <trkpt lat="46.1441" lon="6.76669">
        <ele>1308.6</ele>
        <time>2012-03-14T14:05:44Z</time>
      </trkpt>
      <trkpt lat="46.14415" lon="6.76658">
        <ele>1307.3</ele>
        <time>2012-03-14T14:05:46Z</time>
      </trkpt>
      <trkpt lat="46.14423" lon="6.76643">
        <ele>1304.5</ele>
        <time>2012-03-14T14:05:49Z</time>
      </trkpt>
      <trkpt lat="46.1443" lon="6.76628">
        <ele>1302.6</ele>
        <time>2012-03-14T14:05:52Z</time>
      </trkpt>
      <trkpt lat="46.14434" lon="6.76616">
        <ele>1301.2</ele>
        <time>2012-03-14T14:05:54Z</time>
      </trkpt>
      <trkpt lat="46.14438" lon="6.76603">
        <ele>1299.7</ele>
        <time>2012-03-14T14:05:56Z</time>
      </trkpt>
      <trkpt lat="46.14443" lon="6.7659">
        <ele>1298.3</ele>
        <time>2012-03-14T14:05:58Z</time>
      </trkpt>
      <trkpt lat="46.14447" lon="6.76576">
        <ele>1297.2</ele>
        <time>2012-03-14T14:06:00Z</time>
      </trkpt>
      <trkpt lat="46.14452" lon="6.76562">
        <ele>1296.1</ele>
        <time>2012-03-14T14:06:02Z</time>
      </trkpt>
      <trkpt lat="46.14458" lon="6.76547">
        <ele>1295</ele>
        <time>2012-03-14T14:06:04Z</time>
      </trkpt>
      <trkpt lat="46.14463" lon="6.76531">
        <ele>1293.6</ele>
        <time>2012-03-14T14:06:06Z</time>
      </trkpt>
      <trkpt lat="46.14468" lon="6.76513">
        <ele>1292.5</ele>
        <time>2012-03-14T14:06:08Z</time>
      </trkpt>
      <trkpt lat="46.14472" lon="6.76495">
        <ele>1291.7</ele>
        <time>2012-03-14T14:06:10Z</time>
      </trkpt>
      <trkpt lat="46.14472" lon="6.76477">
        <ele>1290.8</ele>
        <time>2012-03-14T14:06:12Z</time>
      </trkpt>
      <trkpt lat="46.14472" lon="6.76462">
        <ele>1290</ele>
        <time>2012-03-14T14:06:14Z</time>
      </trkpt>
      <trkpt lat="46.14473" lon="6.76449">
        <ele>1288.9</ele>
        <time>2012-03-14T14:06:16Z</time>
      </trkpt>
      <trkpt lat="46.14481" lon="6.76434">
        <ele>1287.5</ele>
        <time>2012-03-14T14:06:19Z</time>
      </trkpt>
      <trkpt lat="46.14488" lon="6.76426">
        <ele>1285.6</ele>
        <time>2012-03-14T14:06:21Z</time>
      </trkpt>
      <trkpt lat="46.14497" lon="6.76418">
        <ele>1284.5</ele>
        <time>2012-03-14T14:06:23Z</time>
      </trkpt>
      <trkpt lat="46.14506" lon="6.76415">
        <ele>1283.8</ele>
        <time>2012-03-14T14:06:25Z</time>
      </trkpt>
      <trkpt lat="46.14515" lon="6.76412">
        <ele>1283.1</ele>
        <time>2012-03-14T14:06:27Z</time>
      </trkpt>
      <trkpt lat="46.14526" lon="6.76408">
        <ele>1282.5</ele>
        <time>2012-03-14T14:06:30Z</time>
      </trkpt>
      <trkpt lat="46.14534" lon="6.76401">
        <ele>1281.4</ele>
        <time>2012-03-14T14:06:33Z</time>
      </trkpt>
      <trkpt lat="46.14538" lon="6.76389">
        <ele>1280.8</ele>
        <time>2012-03-14T14:06:37Z</time>
      </trkpt>
      <trkpt lat="46.14543" lon="6.76376">
        <ele>1279.7</ele>
        <time>2012-03-14T14:06:41Z</time>
      </trkpt>
      <trkpt lat="46.14547" lon="6.76363">
        <ele>1279.3</ele>
        <time>2012-03-14T14:06:45Z</time>
      </trkpt>
      <trkpt lat="46.1455" lon="6.76348">
        <ele>1278.5</ele>
        <time>2012-03-14T14:06:50Z</time>
      </trkpt>
      <trkpt lat="46.14552" lon="6.76336">
        <ele>1278</ele>
        <time>2012-03-14T14:06:56Z</time>
      </trkpt>
      <trkpt lat="46.14551" lon="6.76322">
        <ele>1280.1</ele>
        <time>2012-03-14T14:07:01Z</time>
      </trkpt>
      <trkpt lat="46.14548" lon="6.76307">
        <ele>1280.6</ele>
        <time>2012-03-14T14:07:07Z</time>
      </trkpt>
      <trkpt lat="46.14546" lon="6.76293">
        <ele>1280.4</ele>
        <time>2012-03-14T14:07:13Z</time>
      </trkpt>
      <trkpt lat="46.14543" lon="6.76281">
        <ele>1279.5</ele>
        <time>2012-03-14T14:07:23Z</time>
      </trkpt>
      <trkpt lat="46.14541" lon="6.76267">
        <ele>1277.6</ele>
        <time>2012-03-14T14:07:34Z</time>
      </trkpt>
      <trkpt lat="46.14539" lon="6.76254">
        <ele>1275.1</ele>
        <time>2012-03-14T14:07:44Z</time>
      </trkpt>
      <trkpt lat="46.14538" lon="6.76241">
        <ele>1273.8</ele>
        <time>2012-03-14T14:07:52Z</time>
      </trkpt>
      <trkpt lat="46.14539" lon="6.76227">
        <ele>1272.9</ele>
        <time>2012-03-14T14:07:59Z</time>
      </trkpt>
      <trkpt lat="46.14541" lon="6.76213">
        <ele>1272</ele>
        <time>2012-03-14T14:08:06Z</time>
      </trkpt>
      <trkpt lat="46.14542" lon="6.76198">
        <ele>1271.3</ele>
        <time>2012-03-14T14:08:12Z</time>
      </trkpt>
      <trkpt lat="46.14543" lon="6.76184">
        <ele>1270.6</ele>
        <time>2012-03-14T14:08:20Z</time>
      </trkpt>
      <trkpt lat="46.14543" lon="6.7617">
        <ele>1268.8</ele>
        <time>2012-03-14T14:08:30Z</time>
      </trkpt>
      <trkpt lat="46.14544" lon="6.76155">
        <ele>1267.5</ele>
        <time>2012-03-14T14:08:37Z</time>
      </trkpt>
      <trkpt lat="46.14546" lon="6.76143">
        <ele>1266.8</ele>
        <time>2012-03-14T14:08:44Z</time>
      </trkpt>
      <trkpt lat="46.14551" lon="6.76129">
        <ele>1266</ele>
        <time>2012-03-14T14:08:55Z</time>
      </trkpt>
      <trkpt lat="46.14557" lon="6.76119">
        <ele>1263.7</ele>
        <time>2012-03-14T14:09:05Z</time>
      </trkpt>
      <trkpt lat="46.14562" lon="6.76108">
        <ele>1260.8</ele>
        <time>2012-03-14T14:09:13Z</time>
      </trkpt>
      <trkpt lat="46.14569" lon="6.76099">
        <ele>1258.3</ele>
        <time>2012-03-14T14:09:24Z</time>
      </trkpt>
      <trkpt lat="46.14577" lon="6.7609">
        <ele>1257.2</ele>
        <time>2012-03-14T14:09:34Z</time>
      </trkpt>
      <trkpt lat="46.14586" lon="6.76082">
        <ele>1256.4</ele>
        <time>2012-03-14T14:09:40Z</time>
      </trkpt>
      <trkpt lat="46.14594" lon="6.76074">
        <ele>1257.5</ele>
        <time>2012-03-14T14:09:44Z</time>
      </trkpt>
      <trkpt lat="46.14602" lon="6.76066">
        <ele>1256.8</ele>
        <time>2012-03-14T14:09:49Z</time>
      </trkpt>
      <trkpt lat="46.14609" lon="6.76056">
        <ele>1256.6</ele>
        <time>2012-03-14T14:09:54Z</time>
      </trkpt>
      <trkpt lat="46.14615" lon="6.76044">
        <ele>1257.7</ele>
        <time>2012-03-14T14:09:59Z</time>
      </trkpt>
      <trkpt lat="46.1462" lon="6.76031">
        <ele>1255.9</ele>
        <time>2012-03-14T14:10:04Z</time>
      </trkpt>
      <trkpt lat="46.14624" lon="6.76018">
        <ele>1255.8</ele>
        <time>2012-03-14T14:10:09Z</time>
      </trkpt>
      <trkpt lat="46.14632" lon="6.76012">
        <ele>1255.7</ele>
        <time>2012-03-14T14:10:20Z</time>
      </trkpt>
      <trkpt lat="46.14643" lon="6.76015">
        <ele>1255</ele>
        <time>2012-03-14T14:10:27Z</time>
      </trkpt>
      <trkpt lat="46.14651" lon="6.76021">
        <ele>1256.2</ele>
        <time>2012-03-14T14:10:33Z</time>
      </trkpt>
      <trkpt lat="46.14659" lon="6.76028">
        <ele>1257.2</ele>
        <time>2012-03-14T14:10:43Z</time>
      </trkpt>
      <trkpt lat="46.1467" lon="6.7603">
        <ele>1258.3</ele>
        <time>2012-03-14T14:12:10Z</time>
      </trkpt>
      <trkpt lat="46.1468" lon="6.76032">
        <ele>1255.9</ele>
        <time>2012-03-14T14:12:13Z</time>
      </trkpt>
      <trkpt lat="46.14692" lon="6.7603">
        <ele>1253.3</ele>
        <time>2012-03-14T14:12:15Z</time>
      </trkpt>
      <trkpt lat="46.14706" lon="6.76021">
        <ele>1250.6</ele>
        <time>2012-03-14T14:12:17Z</time>
      </trkpt>
      <trkpt lat="46.14718" lon="6.76005">
        <ele>1248</ele>
        <time>2012-03-14T14:12:19Z</time>
      </trkpt>
      <trkpt lat="46.14728" lon="6.75989">
        <ele>1246.7</ele>
        <time>2012-03-14T14:12:21Z</time>
      </trkpt>
      <trkpt lat="46.14736" lon="6.75976">
        <ele>1246.6</ele>
        <time>2012-03-14T14:12:23Z</time>
      </trkpt>
      <trkpt lat="46.14745" lon="6.75965">
        <ele>1246.7</ele>
        <time>2012-03-14T14:12:26Z</time>
      </trkpt>
      <trkpt lat="46.14754" lon="6.75958">
        <ele>1245.4</ele>
        <time>2012-03-14T14:12:29Z</time>
      </trkpt>
      <trkpt lat="46.14763" lon="6.75952">
        <ele>1243.6</ele>
        <time>2012-03-14T14:12:31Z</time>
      </trkpt>
      <trkpt lat="46.14769" lon="6.75938">
        <ele>1240.9</ele>
        <time>2012-03-14T14:12:34Z</time>
      </trkpt>
      <trkpt lat="46.14778" lon="6.75926">
        <ele>1237.6</ele>
        <time>2012-03-14T14:12:37Z</time>
      </trkpt>
      <trkpt lat="46.14788" lon="6.75923">
        <ele>1234.1</ele>
        <time>2012-03-14T14:12:40Z</time>
      </trkpt>
      <trkpt lat="46.14793" lon="6.75913">
        <ele>1231</ele>
        <time>2012-03-14T14:12:43Z</time>
      </trkpt>
      <trkpt lat="46.14805" lon="6.75916">
        <ele>1227.2</ele>
        <time>2012-03-14T14:12:45Z</time>
      </trkpt>
      <trkpt lat="46.1482" lon="6.75924">
        <ele>1226.5</ele>
        <time>2012-03-14T14:12:47Z</time>
      </trkpt>
      <trkpt lat="46.14832" lon="6.7593">
        <ele>1226.4</ele>
        <time>2012-03-14T14:12:49Z</time>
      </trkpt>
      <trkpt lat="46.14842" lon="6.75929">
        <ele>1226</ele>
        <time>2012-03-14T14:12:51Z</time>
      </trkpt>
      <trkpt lat="46.14853" lon="6.75921">
        <ele>1224.8</ele>
        <time>2012-03-14T14:12:54Z</time>
      </trkpt>
      <trkpt lat="46.14864" lon="6.75914">
        <ele>1223.3</ele>
        <time>2012-03-14T14:12:57Z</time>
      </trkpt>
      <trkpt lat="46.14876" lon="6.7591">
        <ele>1221</ele>
        <time>2012-03-14T14:13:00Z</time>
      </trkpt>
      <trkpt lat="46.14888" lon="6.75913">
        <ele>1218.6</ele>
        <time>2012-03-14T14:13:03Z</time>
      </trkpt>
      <trkpt lat="46.14899" lon="6.75921">
        <ele>1217.1</ele>
        <time>2012-03-14T14:13:06Z</time>
      </trkpt>
      <trkpt lat="46.14908" lon="6.75921">
        <ele>1216.6</ele>
        <time>2012-03-14T14:13:09Z</time>
      </trkpt>
      <trkpt lat="46.1492" lon="6.7591">
        <ele>1214.9</ele>
        <time>2012-03-14T14:13:12Z</time>
      </trkpt>
      <trkpt lat="46.14926" lon="6.75899">
        <ele>1213.4</ele>
        <time>2012-03-14T14:13:14Z</time>
      </trkpt>
      <trkpt lat="46.14933" lon="6.7588">
        <ele>1210.2</ele>
        <time>2012-03-14T14:13:17Z</time>
      </trkpt>
      <trkpt lat="46.14941" lon="6.75865">
        <ele>1207.3</ele>
        <time>2012-03-14T14:13:19Z</time>
      </trkpt>
      <trkpt lat="46.14946" lon="6.7585">
        <ele>1205</ele>
        <time>2012-03-14T14:13:21Z</time>
      </trkpt>
      <trkpt lat="46.14948" lon="6.75835">
        <ele>1202.5</ele>
        <time>2012-03-14T14:13:23Z</time>
      </trkpt>
      <trkpt lat="46.1495" lon="6.75819">
        <ele>1200.7</ele>
        <time>2012-03-14T14:13:25Z</time>
      </trkpt>
      <trkpt lat="46.1495" lon="6.75804">
        <ele>1199.1</ele>
        <time>2012-03-14T14:13:27Z</time>
      </trkpt>
      <trkpt lat="46.14952" lon="6.7579">
        <ele>1197.5</ele>
        <time>2012-03-14T14:13:29Z</time>
      </trkpt>
      <trkpt lat="46.14951" lon="6.75771">
        <ele>1195</ele>
        <time>2012-03-14T14:13:32Z</time>
      </trkpt>
      <trkpt lat="46.14951" lon="6.75754">
        <ele>1192.4</ele>
        <time>2012-03-14T14:13:35Z</time>
      </trkpt>
      <trkpt lat="46.1495" lon="6.75735">
        <ele>1192.6</ele>
        <time>2012-03-14T14:13:38Z</time>
      </trkpt>
      <trkpt lat="46.14948" lon="6.75717">
        <ele>1190.5</ele>
        <time>2012-03-14T14:13:41Z</time>
      </trkpt>
      <trkpt lat="46.14946" lon="6.75703">
        <ele>1189.6</ele>
        <time>2012-03-14T14:13:43Z</time>
      </trkpt>
      <trkpt lat="46.14945" lon="6.75688">
        <ele>1188.4</ele>
        <time>2012-03-14T14:13:45Z</time>
      </trkpt>
      <trkpt lat="46.14945" lon="6.75672">
        <ele>1187</ele>
        <time>2012-03-14T14:13:47Z</time>
      </trkpt>
      <trkpt lat="46.14945" lon="6.75655">
        <ele>1185.9</ele>
        <time>2012-03-14T14:13:49Z</time>
      </trkpt>
      <trkpt lat="46.14946" lon="6.75638">
        <ele>1184.1</ele>
        <time>2012-03-14T14:13:51Z</time>
      </trkpt>
      <trkpt lat="46.14947" lon="6.75624">
        <ele>1182.6</ele>
        <time>2012-03-14T14:13:53Z</time>
      </trkpt>
      <trkpt lat="46.14953" lon="6.75614">
        <ele>1181.3</ele>
        <time>2012-03-14T14:13:59Z</time>
      </trkpt>
    </trkseg>
  </trk>
</gpx>